Provisional Data: Baldwin Creek near Lowman, NY


Please select a monitoring station.
Please select start date.
Please select start date.

Toggle Unit: C/F Toggle Unit: C/F
Sample Time Temperature (C) Temperature (F) Specific Conductivity (mS/cm) pH   Turbidity (NTU+) DO (mg/L)
10/20/2020 12:00:00 AM 11.24 52.232 0.22 7.58 2.2 9.42
10/20/2020 12:15:00 AM 11.25 52.25 0.22 7.58 2.12 9.39
10/20/2020 12:30:00 AM 11.26 52.268 0.22 7.58 2.13 9.36
10/20/2020 12:45:00 AM 11.27 52.286 0.22 7.58 2.14 9.34
10/20/2020 1:00:00 AM 11.28 52.304 0.22 7.57 2.16 9.32
10/20/2020 1:15:00 AM 11.29 52.322 0.221 7.57 2.17 9.33
10/20/2020 1:30:00 AM 11.3 52.34 0.221 7.57 2.2 9.29
10/20/2020 1:45:00 AM 11.31 52.358 0.221 7.57 2.16 9.27
10/20/2020 2:00:00 AM 11.33 52.394 0.221 7.57 2.49 9.26
10/20/2020 2:15:00 AM 11.36 52.448 0.221 7.57 2.17 9.23
10/20/2020 2:30:00 AM 11.39 52.502 0.221 7.57 2.24 9.22
10/20/2020 2:45:00 AM 11.41 52.538 0.221 7.56 2.22 9.24
10/20/2020 3:00:00 AM 11.44 52.592 0.221 7.56 2.26 9.2
10/20/2020 3:15:00 AM 11.47 52.646 0.221 7.56 2.35 9.19
10/20/2020 3:30:00 AM 11.49 52.682 0.221 7.56 2.31 9.17
10/20/2020 3:45:00 AM 11.51 52.718 0.221 7.56 2.35 9.15
10/20/2020 4:00:00 AM 11.52 52.736 0.221 7.56 2.32 9.14
10/20/2020 4:15:00 AM 11.53 52.754 0.221 7.57 2.22 9.12
10/20/2020 4:30:00 AM 11.55 52.79 0.221 7.57 2.22 9.1
10/20/2020 4:45:00 AM 11.57 52.826 0.221 7.57 2.31 9.1
10/20/2020 5:00:00 AM 11.59 52.862 0.221 7.57 2.19 9.11
10/20/2020 5:15:00 AM 11.6 52.88 0.221 7.57 2.17 9.06
10/20/2020 5:30:00 AM 11.62 52.916 0.221 7.57 2.15 9.02
10/20/2020 5:45:00 AM 11.63 52.934 0.221 7.57 2.2 9.12
10/20/2020 6:00:00 AM 11.64 52.952 0.221 7.57 2.19 9.04
10/20/2020 6:15:00 AM 11.66 52.988 0.222 7.57 2.14 9.08
10/20/2020 6:30:00 AM 11.67 53.006 0.221 7.57 2.13 9
10/20/2020 6:45:00 AM 11.69 53.042 0.221 7.57 2.16 8.99
10/20/2020 7:00:00 AM 11.7 53.06 0.221 7.57 2.14 9.01
10/20/2020 7:15:00 AM 11.72 53.096 0.221 7.57 2.21 9.05
10/20/2020 7:30:00 AM 11.74 53.132 0.221 7.57 2.12 9.02
10/20/2020 7:45:00 AM 11.75 53.15 0.221 7.58 2.12 9.03
10/20/2020 8:00:00 AM 11.76 53.168 0.22 7.58 2.2 9.01
10/20/2020 8:15:00 AM 11.77 53.186 0.22 7.58 2.15 9.01
10/20/2020 8:30:00 AM 11.78 53.204 0.22 7.58 2.13 9.02
10/20/2020 8:45:00 AM 11.79 53.222 0.22 7.58 2.15 9.04
10/20/2020 9:00:00 AM 11.81 53.258 0.22 7.58 2.14 8.99
10/20/2020 9:15:00 AM 11.83 53.294 0.22 7.58 2.12 9
10/20/2020 9:30:00 AM 11.85 53.33 0.221 7.58 2.08 9.02
10/20/2020 9:45:00 AM 11.87 53.366 0.221 7.58 2.68 9.04
10/20/2020 10:00:00 AM 11.89 53.402 0.221 7.58 2.22 9.09
10/20/2020 10:15:00 AM 11.92 53.456 0.221 7.59 2.07 9.11
10/20/2020 10:30:00 AM 11.94 53.492 0.221 7.59 2.08 9.15
10/20/2020 10:45:00 AM 11.99 53.582 0.221 7.6 2.12 9.17
10/20/2020 11:00:00 AM 12.03 53.654 0.221 7.6 2.04 9.25
10/20/2020 11:15:00 AM 12.06 53.708 0.221 7.61 2.09 9.31
10/20/2020 11:30:00 AM 12.09 53.762 0.221 7.61 2.11 9.36
10/20/2020 11:45:00 AM 12.12 53.816 0.222 7.61 2.17 9.39
10/20/2020 12:00:00 PM 12.16 53.888 0.222 7.62 2.05 9.4
10/20/2020 12:15:00 PM 12.2 53.96 0.222 7.62 2.14 9.45
10/20/2020 12:30:00 PM 12.23 54.014 0.222 7.62 2.01 9.49
10/20/2020 12:45:00 PM 12.28 54.104 0.222 7.62 2.02 9.49
10/20/2020 1:00:00 PM 12.31 54.158 0.222 7.63 2.01 9.47
10/20/2020 1:15:00 PM 12.33 54.194 0.222 7.64 2.31 9.47
10/20/2020 1:30:00 PM 12.34 54.212 0.222 7.65 2.03 9.49
10/20/2020 1:45:00 PM 12.36 54.248 0.222 7.65 2.07 9.6
10/20/2020 2:00:00 PM 12.38 54.284 0.222 7.65 2.01 9.57
10/20/2020 2:15:00 PM 12.4 54.32 0.222 7.66 2.04 9.59
10/20/2020 2:30:00 PM 12.42 54.356 0.222 7.66 2.06 9.62
10/20/2020 2:45:00 PM 12.43 54.374 0.222 7.67 2.51 9.84
10/20/2020 3:00:00 PM 12.44 54.392 0.222 7.67 2.06 9.66
10/20/2020 3:15:00 PM 12.45 54.41 0.222 7.68 2.07 9.63
10/20/2020 3:30:00 PM 12.45 54.41 0.222 7.68 2.05 9.78
10/20/2020 3:45:00 PM 12.46 54.428 0.222 7.68 2.16 9.76
10/20/2020 4:00:00 PM 12.45 54.41 0.222 7.68 2.17 9.77
10/20/2020 4:15:00 PM 12.45 54.41 0.222 7.68 2.11 9.76
10/20/2020 4:30:00 PM 12.45 54.41 0.222 7.67 2.06 9.77
10/20/2020 4:45:00 PM 12.44 54.392 0.222 7.67 2.17 9.81
10/20/2020 5:00:00 PM 12.43 54.374 0.222 7.67 2.04 9.84
10/20/2020 5:15:00 PM 12.41 54.338 0.222 7.67 2.14 9.82
10/20/2020 5:30:00 PM 12.38 54.284 0.222 7.67 2.09 9.69
10/20/2020 5:45:00 PM 12.36 54.248 0.222 7.67 2.38 9.57
10/20/2020 6:00:00 PM 12.35 54.23 0.222 7.67 2.03 9.59
10/20/2020 6:15:00 PM 12.33 54.194 0.222 7.66 2.06 9.66
10/20/2020 6:30:00 PM 12.31 54.158 0.222 7.66 2.04 9.67
10/20/2020 6:45:00 PM 12.29 54.122 0.222 7.66 2.08 9.64
10/20/2020 7:00:00 PM 12.26 54.068 0.222 7.66 2.1 9.63
10/20/2020 7:15:00 PM 12.25 54.05 0.222 7.65 2.09 9.59
10/20/2020 7:30:00 PM 12.22 53.996 0.222 7.65 2.14 9.51
10/20/2020 7:45:00 PM 12.2 53.96 0.222 7.64 2.09 9.46
10/20/2020 8:00:00 PM 12.18 53.924 0.222 7.64 2.07 9.43
10/20/2020 8:15:00 PM 12.16 53.888 0.222 7.64 2.25 9.41
10/20/2020 8:30:00 PM 12.14 53.852 0.222 7.64 2.12 9.36
10/20/2020 8:45:00 PM 12.11 53.798 0.223 7.63 3.05 9.4
10/20/2020 9:00:00 PM 12.1 53.78 0.223 7.63 3.01 9.36
10/20/2020 9:15:00 PM 12.08 53.744 0.223 7.63 2.19 9.29
10/20/2020 9:30:00 PM 12.06 53.708 0.223 7.62 2.15 9.26
10/20/2020 9:45:00 PM 12.04 53.672 0.223 7.62 2.44 9.29
10/20/2020 10:00:00 PM 12.02 53.636 0.223 7.62 3.16 9.28
10/20/2020 10:15:00 PM 12 53.6 0.223 7.61 2.1 9.26
10/20/2020 10:30:00 PM 11.98 53.564 0.223 7.61 2.44 9.21
10/20/2020 10:45:00 PM 11.96 53.528 0.223 7.62 2.25 9.25
10/20/2020 11:00:00 PM 11.94 53.492 0.223 7.61 2.29 9.16
10/20/2020 11:15:00 PM 11.92 53.456 0.223 7.61 2.1 9.11
10/20/2020 11:30:00 PM 11.9 53.42 0.223 7.62 2.16 9.12
10/20/2020 11:45:00 PM 11.88 53.384 0.223 7.61 2.21 9.04
10/21/2020 12:00:00 AM 11.86 53.348 0.224 7.62 2.1 9.16
10/21/2020 12:15:00 AM 11.84 53.312 0.224 7.61 2.04 9.07
10/21/2020 12:30:00 AM 11.83 53.294 0.224 7.61 2.05 9.12
10/21/2020 12:45:00 AM 11.81 53.258 0.224 7.62 2.05 9.05
10/21/2020 1:00:00 AM 11.79 53.222 0.224 7.61 2.08 9.04
10/21/2020 1:15:00 AM 11.77 53.186 0.224 7.62 2.04 8.94
10/21/2020 1:30:00 AM 11.76 53.168 0.224 7.62 2.1 8.92
10/21/2020 1:45:00 AM 11.74 53.132 0.224 7.62 2.08 8.94
10/21/2020 2:00:00 AM 11.72 53.096 0.225 7.62 2.03 9.11
10/21/2020 2:15:00 AM 11.71 53.078 0.225 7.62 2.08 9.08
10/21/2020 2:30:00 AM 11.69 53.042 0.225 7.62 2.05 9.19
10/21/2020 2:45:00 AM 11.67 53.006 0.225 7.62 2.08 9.17
10/21/2020 3:00:00 AM 11.66 52.988 0.225 7.62 2.03 9.15
10/21/2020 3:15:00 AM 11.65 52.97 0.225 7.62 2.08 9.07
10/21/2020 3:30:00 AM 11.63 52.934 0.225 7.62 2.13 9.07
10/21/2020 3:45:00 AM 11.62 52.916 0.225 7.62 2.11 9.12
10/21/2020 4:00:00 AM 11.61 52.898 0.225 7.62 2.08 9.1
10/21/2020 4:15:00 AM 11.6 52.88 0.225 7.63 2.11 9.08
10/21/2020 4:30:00 AM 11.6 52.88 0.225 7.63 2.1 9.15
10/21/2020 4:45:00 AM 11.58 52.844 0.226 7.63 2.07 9.12
10/21/2020 5:00:00 AM 11.58 52.844 0.226 7.63 2.12 9.15
10/21/2020 5:15:00 AM 11.57 52.826 0.226 7.62 2.3 9.12
10/21/2020 5:30:00 AM 11.56 52.808 0.226 7.63 2.14 9.12
10/21/2020 5:45:00 AM 11.55 52.79 0.226 7.63 2.11 9.16
10/21/2020 6:00:00 AM 11.55 52.79 0.226 7.63 2.08 9.17
10/21/2020 6:15:00 AM 11.54 52.772 0.226 7.63 2.08 9.14
10/21/2020 6:30:00 AM 11.54 52.772 0.226 7.64 2.08 9.16
10/21/2020 6:45:00 AM 11.53 52.754 0.227 7.64 2.06 9.19
10/21/2020 7:00:00 AM 11.52 52.736 0.227 7.64 2.22 9.19
10/21/2020 7:15:00 AM 11.51 52.718 0.227 7.64 2.5 9.24
10/21/2020 7:30:00 AM 11.5 52.7 0.227 7.64 2.21 9.29
10/21/2020 7:45:00 AM 11.49 52.682 0.227 7.64 2.26 9.33
10/21/2020 8:00:00 AM 11.48 52.664 0.227 7.64 2.33 9.29
10/21/2020 8:15:00 AM 11.47 52.646 0.227 7.64 2.26 9.37
10/21/2020 8:30:00 AM 11.47 52.646 0.228 7.64 2.2 9.38
10/21/2020 8:45:00 AM 11.48 52.664 0.228 7.65 2.19 9.43
10/21/2020 9:00:00 AM 11.49 52.682 0.228 7.65 2.22 9.52
10/21/2020 9:15:00 AM 11.5 52.7 0.228 7.65 2.24 9.51
10/21/2020 9:30:00 AM 11.53 52.754 0.228 7.66 5.67 9.75
10/21/2020 9:45:00 AM 11.61 52.898 0.228 7.68 1.79 9.83
10/21/2020 10:00:00 AM 11.71 53.078 0.228 7.7 2.08 9.95
10/21/2020 10:15:00 AM 11.83 53.294 0.228 7.7 1.66 10.03
10/21/2020 10:30:00 AM 11.97 53.546 0.228 7.71 1.68 10.11
10/21/2020 10:45:00 AM 12.17 53.906 0.228 7.72 1.68 10.17
10/21/2020 11:00:00 AM 12.43 54.374 0.228 7.73 1.7 10.24
10/21/2020 11:15:00 AM 12.63 54.734 0.228 7.74 1.64 10.25
10/21/2020 11:30:00 AM 12.91 55.238 0.228 7.75 1.65 10.31
10/21/2020 11:45:00 AM 13.08 55.544 0.228 7.76 1.92 10.36
10/21/2020 12:00:00 PM 13.42 56.156 0.228 7.76 1.6 10.44
10/21/2020 12:15:00 PM 13.51 56.318 0.228 7.78 1.81 10.46
10/21/2020 12:30:00 PM 13.72 56.696 0.228 7.78 1.64 10.43
10/21/2020 12:45:00 PM 13.89 57.002 0.228 7.79 1.68 10.44
10/21/2020 1:00:00 PM 14.11 57.398 0.228 7.8 1.76 10.48
10/21/2020 1:15:00 PM 14.32 57.776 0.228 7.81 1.74 10.58
10/21/2020 1:30:00 PM 14.78 58.604 0.228 7.8 1.69 10.48
10/21/2020 1:45:00 PM 14.88 58.784 0.228 7.81 1.69 10.46
10/21/2020 2:00:00 PM 15.16 59.288 0.228 7.81 1.79 10.4
10/21/2020 2:15:00 PM 15.27 59.486 0.228 7.82 1.81 10.39
10/21/2020 2:30:00 PM 15.34 59.612 0.229 7.82 1.81 10.35
10/21/2020 2:45:00 PM 15.49 59.882 0.229 7.82 1.88 10.34
10/21/2020 3:00:00 PM 15.71 60.278 0.228 7.81 1.7 10.22
10/21/2020 3:15:00 PM 15.84 60.512 0.228 7.82 1.77 10.14
10/21/2020 3:30:00 PM 15.92 60.656 0.229 7.82 1.65 10.14
10/21/2020 3:45:00 PM 15.97 60.746 0.229 7.82 1.75 10.11
10/21/2020 4:00:00 PM 16.04 60.872 0.229 7.82 1.87 10.07
10/21/2020 4:15:00 PM 16.08 60.944 0.229 7.83 2.08 10.01
10/21/2020 4:30:00 PM 16.15 61.07 0.229 7.82 1.67 9.97
10/21/2020 4:45:00 PM 16.21 61.178 0.229 7.82 1.66 9.93
10/21/2020 5:00:00 PM 16.27 61.286 0.229 7.82 1.66 9.88
10/21/2020 5:15:00 PM 16.31 61.358 0.229 7.82 1.7 9.84
10/21/2020 5:30:00 PM 16.35 61.43 0.229 7.81 1.69 9.77
10/21/2020 5:45:00 PM 16.38 61.484 0.229 7.8 1.7 9.7
10/21/2020 6:00:00 PM 16.39 61.502 0.229 7.8 1.66 9.65
10/21/2020 6:15:00 PM 16.38 61.484 0.229 7.79 1.67 9.62
10/21/2020 6:30:00 PM 16.35 61.43 0.229 7.78 1.78 9.53
10/21/2020 6:45:00 PM 16.3 61.34 0.229 7.77 1.62 9.43
10/21/2020 7:00:00 PM 16.24 61.232 0.229 7.75 1.63 9.35
10/21/2020 7:15:00 PM 16.2 61.16 0.23 7.74 1.71 9.26
10/21/2020 7:30:00 PM 16.16 61.088 0.23 7.72 1.95 9.21
10/21/2020 7:45:00 PM 16.11 60.998 0.23 7.71 1.7 9.12
10/21/2020 8:00:00 PM 16.05 60.89 0.23 7.7 5.07 9.05
10/21/2020 8:15:00 PM 16.01 60.818 0.23 7.69 5.62 9.01
10/21/2020 8:30:00 PM 15.95 60.71 0.23 7.68 6.13 8.95
10/21/2020 8:45:00 PM 15.91 60.638 0.23 7.67 1.68 8.92
10/21/2020 9:00:00 PM 15.86 60.548 0.23 7.66 1.72 8.87
10/21/2020 9:15:00 PM 15.82 60.476 0.23 7.66 2.14 8.81
10/21/2020 9:30:00 PM 15.77 60.386 0.23 7.65 1.69 8.77
10/21/2020 9:45:00 PM 15.72 60.296 0.23 7.64 1.65 8.73
10/21/2020 10:00:00 PM 15.68 60.224 0.23 7.64 1.69 8.68
10/21/2020 10:15:00 PM 15.62 60.116 0.23 7.63 1.66 8.64
10/21/2020 10:30:00 PM 15.57 60.026 0.23 7.63 1.64 8.64
10/21/2020 10:45:00 PM 15.5 59.9 0.23 7.63 1.7 8.6
10/21/2020 11:00:00 PM 15.45 59.81 0.23 7.62 1.69 8.57
10/21/2020 11:15:00 PM 15.4 59.72 0.23 7.62 1.62 8.6
10/21/2020 11:30:00 PM 15.34 59.612 0.23 7.62 1.7 8.56
10/21/2020 11:45:00 PM 15.28 59.504 0.23 7.61 1.66 8.48
10/22/2020 12:00:00 AM 15.24 59.432 0.23 7.61 1.67 8.43
10/22/2020 12:15:00 AM 15.2 59.36 0.23 7.6 1.73 8.45
10/22/2020 12:30:00 AM 15.16 59.288 0.23 7.61 1.66 8.47
10/22/2020 12:45:00 AM 15.13 59.234 0.23 7.6 1.6 8.47
10/22/2020 1:00:00 AM 15.1 59.18 0.23 7.6 1.69 8.39
10/22/2020 1:15:00 AM 15.08 59.144 0.23 7.6 1.69 8.39
10/22/2020 1:30:00 AM 15.07 59.126 0.23 7.59 1.64 8.36
10/22/2020 1:45:00 AM 15.05 59.09 0.23 7.59 1.69 8.37
10/22/2020 2:00:00 AM 15.03 59.054 0.23 7.59 1.69 8.36
10/22/2020 2:15:00 AM 15.01 59.018 0.23 7.59 1.88 8.41
10/22/2020 2:30:00 AM 14.98 58.964 0.23 7.59 1.67 8.38
10/22/2020 2:45:00 AM 14.95 58.91 0.23 7.59 1.69 8.43
10/22/2020 3:00:00 AM 14.93 58.874 0.23 7.59 1.69 8.44
10/22/2020 3:15:00 AM 14.9 58.82 0.23 7.58 1.8 8.44
10/22/2020 3:30:00 AM 14.88 58.784 0.231 7.57 1.73 8.41
10/22/2020 3:45:00 AM 14.84 58.712 0.231 7.57 1.77 8.4
10/22/2020 4:00:00 AM 14.82 58.676 0.231 7.57 1.73 8.42
10/22/2020 4:15:00 AM 14.79 58.622 0.231 7.57 1.67 8.39
10/22/2020 4:30:00 AM 14.76 58.568 0.231 7.58 1.71 8.42
10/22/2020 4:45:00 AM 14.74 58.532 0.231 7.58 1.64 8.42
10/22/2020 5:00:00 AM 14.71 58.478 0.231 7.58 1.75 8.42
10/22/2020 5:15:00 AM 14.69 58.442 0.231 7.58 1.72 8.42
10/22/2020 5:30:00 AM 14.66 58.388 0.231 7.58 1.68 8.46
10/22/2020 5:45:00 AM 14.63 58.334 0.231 7.58 1.73 8.51
10/22/2020 6:00:00 AM 14.61 58.298 0.231 7.58 1.87 8.49
10/22/2020 6:15:00 AM 14.59 58.262 0.231 7.58 1.77 8.53
10/22/2020 6:30:00 AM 14.57 58.226 0.231 7.58 1.7 8.58
10/22/2020 6:45:00 AM 14.55 58.19 0.231 7.58 1.72 8.55
10/22/2020 7:00:00 AM 14.53 58.154 0.231 7.58 2.22 8.55
10/22/2020 7:15:00 AM 14.51 58.118 0.231 7.58 1.82 8.55
10/22/2020 7:30:00 AM 14.49 58.082 0.231 7.58 1.85 8.58
10/22/2020 7:45:00 AM 14.47 58.046 0.231 7.58 1.72 8.59
10/22/2020 8:00:00 AM 14.45 58.01 0.231 7.58 1.92 8.58
10/22/2020 8:15:00 AM 14.41 57.938 0.231 7.59 1.96 8.53
10/22/2020 8:30:00 AM 14.39 57.902 0.231 7.59 1.94 8.54
10/22/2020 8:45:00 AM 14.38 57.884 0.231 7.59 1.9 8.55
10/22/2020 9:00:00 AM 14.37 57.866 0.231 7.59 1.85 8.56
10/22/2020 9:15:00 AM 14.36 57.848 0.231 7.6 1.93 8.56
10/22/2020 9:30:00 AM 14.36 57.848 0.231 7.6 1.97 8.6
10/22/2020 9:45:00 AM 14.37 57.866 0.231 7.61 1.92 8.75
10/22/2020 10:00:00 AM 14.39 57.902 0.231 7.61 1.96 8.82
10/22/2020 10:15:00 AM 14.42 57.956 0.231 7.62 2.06 8.93
10/22/2020 10:30:00 AM 14.49 58.082 0.231 7.64 2.11 9.1
10/22/2020 10:45:00 AM 14.53 58.154 0.231 7.65 1.98 9.1
10/22/2020 11:00:00 AM 14.59 58.262 0.231 7.66 1.89 9.15
10/22/2020 11:15:00 AM 14.68 58.424 0.231 7.67 1.95 9.25
10/22/2020 11:30:00 AM 14.77 58.586 0.23 7.68 2.01 9.29
10/22/2020 11:45:00 AM 14.9 58.82 0.231 7.69 2.11 9.42
10/22/2020 12:00:00 PM 15.02 59.036 0.231 7.7 2.72 9.49
10/22/2020 12:15:00 PM 15.17 59.306 0.231 7.72 1.93 9.59
10/22/2020 12:30:00 PM 15.35 59.63 0.231 7.73 2.82 9.75
10/22/2020 12:45:00 PM 15.56 60.008 0.231 7.75 2.28 9.84
10/22/2020 1:00:00 PM 15.75 60.35 0.23 7.76 1.8 9.87
10/22/2020 1:15:00 PM 16.06 60.908 0.23 7.77 1.8 9.98
10/22/2020 1:30:00 PM 16.21 61.178 0.23 7.78 1.79 9.93
10/22/2020 1:45:00 PM 16.32 61.376 0.23 7.79 1.81 10
10/22/2020 2:00:00 PM 16.44 61.592 0.23 7.79 1.81 9.96
10/22/2020 2:15:00 PM 16.56 61.808 0.23 7.78 1.77 9.88
10/22/2020 2:30:00 PM 16.64 61.952 0.23 7.78 1.77 9.83
10/22/2020 2:45:00 PM 16.68 62.024 0.23 7.78 1.73 9.78
10/22/2020 3:00:00 PM 16.76 62.168 0.23 7.78 1.77 9.77
10/22/2020 3:15:00 PM 16.81 62.258 0.23 7.78 1.73 9.76
10/22/2020 3:30:00 PM 16.85 62.33 0.23 7.78 1.77 9.72
10/22/2020 3:45:00 PM 16.89 62.402 0.23 7.78 1.77 9.68
10/22/2020 4:00:00 PM 16.92 62.456 0.23 7.78 1.76 9.66
10/22/2020 4:15:00 PM 16.91 62.438 0.23 7.79 2.44 9.64
10/22/2020 4:30:00 PM 16.91 62.438 0.23 7.78 2.46 9.62
10/22/2020 4:45:00 PM 16.91 62.438 0.23 7.78 2.51 9.58
10/22/2020 5:00:00 PM 16.91 62.438 0.23 7.77 2.53 9.58
10/22/2020 5:15:00 PM 16.91 62.438 0.23 7.77 2.24 9.52
10/22/2020 5:30:00 PM 16.89 62.402 0.23 7.76 1.82 9.48
10/22/2020 5:45:00 PM 16.88 62.384 0.23 7.75 1.77 9.41
10/22/2020 6:00:00 PM 16.87 62.366 0.23 7.74 1.82 9.34
10/22/2020 6:15:00 PM 16.83 62.294 0.23 7.73 1.97 9.26
10/22/2020 6:30:00 PM 16.79 62.222 0.23 7.72 1.92 9.19
10/22/2020 6:45:00 PM 16.75 62.15 0.23 7.71 2.14 9.12
10/22/2020 7:00:00 PM 16.69 62.042 0.23 7.7 2.43 9.06
10/22/2020 7:15:00 PM 16.61 61.898 0.23 7.69 3.89 8.98
10/22/2020 7:30:00 PM 16.54 61.772 0.23 7.67 4.02 8.92
10/22/2020 7:45:00 PM 16.45 61.61 0.23 7.66 3.7 8.85
10/22/2020 8:00:00 PM 16.36 61.448 0.23 7.65 2.22 8.79
10/22/2020 8:15:00 PM 16.26 61.268 0.23 7.65 1.84 8.73
10/22/2020 8:30:00 PM 16.17 61.106 0.23 7.64 1.99 8.68
10/22/2020 8:45:00 PM 16.06 60.908 0.23 7.63 1.96 8.65
10/22/2020 9:00:00 PM 15.96 60.728 0.23 7.62 2.07 8.61
10/22/2020 9:15:00 PM 15.86 60.548 0.23 7.62 2.43 8.59
10/22/2020 9:30:00 PM 15.78 60.404 0.23 7.62 1.86 8.57
10/22/2020 9:45:00 PM 15.69 60.242 0.23 7.61 2.74 8.56
10/22/2020 10:00:00 PM 15.61 60.098 0.23 7.61 2.2 8.55
10/22/2020 10:15:00 PM 15.52 59.936 0.23 7.6 1.87 8.53
10/22/2020 10:30:00 PM 15.43 59.774 0.23 7.6 1.83 8.51
10/22/2020 10:45:00 PM 15.36 59.648 0.23 7.59 1.9 8.5
10/22/2020 11:00:00 PM 15.28 59.504 0.23 7.59 2.24 8.49
10/22/2020 11:15:00 PM 15.21 59.378 0.23 7.59 2.63 8.48
10/22/2020 11:30:00 PM 15.14 59.252 0.23 7.59 2.38 8.46
10/22/2020 11:45:00 PM 15.07 59.126 0.23 7.58 2 8.42
10/23/2020 12:00:00 AM 15 59 0.23 7.58 1.96 8.41
10/23/2020 12:15:00 AM 14.95 58.91 0.23 7.58 2.56 8.43
10/23/2020 12:30:00 AM 14.89 58.802 0.231 7.57 2.4 8.39
10/23/2020 12:45:00 AM 14.84 58.712 0.231 7.57 2.51 8.37
10/23/2020 1:00:00 AM 14.78 58.604 0.23 7.57 1.96 8.42
10/23/2020 1:15:00 AM 14.73 58.514 0.231 7.57 2.47 8.38
10/23/2020 1:30:00 AM 14.64 58.352 0.231 7.56 2.01 8.34
10/23/2020 1:45:00 AM 14.58 58.244 0.231 7.56 2.14 8.33
10/23/2020 2:00:00 AM 14.52 58.136 0.231 7.56 2.07 8.28
10/23/2020 2:15:00 AM 14.46 58.028 0.231 7.56 2.3 8.33
10/23/2020 2:30:00 AM 14.4 57.92 0.231 7.56 2.08 8.32
10/23/2020 2:45:00 AM 14.35 57.83 0.231 7.56 2.12 8.35
10/23/2020 3:00:00 AM 14.28 57.704 0.231 7.56 3.51 8.36
10/23/2020 3:15:00 AM 14.21 57.578 0.231 7.56 2.05 8.34
10/23/2020 3:30:00 AM 14.15 57.47 0.231 7.55 2.85 8.38
10/23/2020 3:45:00 AM 14.09 57.362 0.231 7.55 2.16 8.35
10/23/2020 4:00:00 AM 14.01 57.218 0.23 7.55 2.04 8.34
10/23/2020 4:15:00 AM 13.94 57.092 0.23 7.55 2.01 8.33
10/23/2020 4:30:00 AM 13.88 56.984 0.231 7.55 2.21 8.3
10/23/2020 4:45:00 AM 13.81 56.858 0.231 7.55 2.08 8.28
10/23/2020 5:00:00 AM 13.76 56.768 0.231 7.55 2.02 8.3
10/23/2020 5:15:00 AM 13.69 56.642 0.231 7.55 2.02 8.42
10/23/2020 5:30:00 AM 13.62 56.516 0.231 7.55 2.23 8.46
10/23/2020 5:45:00 AM 13.57 56.426 0.231 7.55 2.18 8.49
10/23/2020 6:00:00 AM 13.52 56.336 0.231 7.55 1.99 8.52
10/23/2020 6:15:00 AM 13.46 56.228 0.231 7.55 2.06 8.45
10/23/2020 6:30:00 AM 13.43 56.174 0.231 7.55 2 8.46
10/23/2020 6:45:00 AM 13.38 56.084 0.231 7.55 2.27 8.46
10/23/2020 7:00:00 AM 13.35 56.03 0.231 7.55 2.06 8.39
10/23/2020 7:15:00 AM 13.32 55.976 0.231 7.55 1.97 8.44
10/23/2020 7:30:00 AM 13.3 55.94 0.231 7.54 2.06 8.5
10/23/2020 7:45:00 AM 13.28 55.904 0.231 7.55 2.26 8.53
10/23/2020 8:00:00 AM 13.25 55.85 0.231 7.55 2.19 8.52
10/23/2020 8:15:00 AM 13.24 55.832 0.231 7.55 2.22 8.55
10/23/2020 8:30:00 AM 13.23 55.814 0.231 7.55 2.12 8.57
10/23/2020 8:45:00 AM 13.22 55.796 0.231 7.56 2.26 8.52
10/23/2020 9:00:00 AM 13.22 55.796 0.231 7.57 2.27 8.54
10/23/2020 9:15:00 AM 13.23 55.814 0.231 7.58 2.12 8.58
10/23/2020 9:30:00 AM 13.25 55.85 0.231 7.59 2.05 8.76
10/23/2020 9:45:00 AM 13.27 55.886 0.231 7.6 2.04 8.98
10/23/2020 10:00:00 AM 13.36 56.048 0.231 7.61 2.13 9.15
10/23/2020 10:15:00 AM 13.5 56.3 0.231 7.62 2.2 9.23
10/23/2020 10:30:00 AM 13.62 56.516 0.231 7.63 2.45 9.4
10/23/2020 10:45:00 AM 13.83 56.894 0.231 7.65 2.36 9.52
10/23/2020 11:00:00 AM 14.1 57.38 0.231 7.66 1.91 9.59
10/23/2020 11:15:00 AM 14.36 57.848 0.23 7.68 1.97 9.69
10/23/2020 11:30:00 AM 14.6 58.28 0.231 7.69 1.95 9.81
10/23/2020 11:45:00 AM 14.78 58.604 0.231 7.7 1.94 9.78
10/23/2020 12:00:00 PM 14.93 58.874 0.231 7.72 1.97 9.91
10/23/2020 12:15:00 PM 15.09 59.162 0.231 7.73 1.9 10.01
10/23/2020 12:30:00 PM 15.27 59.486 0.231 7.73 1.94 10.1
10/23/2020 12:45:00 PM 15.5 59.9 0.231 7.74 1.96 10.12
10/23/2020 1:00:00 PM 15.67 60.206 0.231 7.76 1.84 10.12
10/23/2020 1:15:00 PM 15.88 60.584 0.231 7.77 1.86 10.09
10/23/2020 1:30:00 PM 16.15 61.07 0.231 7.78 1.84 10.1
10/23/2020 1:45:00 PM 16.45 61.61 0.231 7.78 1.78 10.11
10/23/2020 2:00:00 PM 16.68 62.024 0.231 7.78 1.8 10.05
10/23/2020 2:15:00 PM 16.7 62.06 0.231 7.78 1.75 10.01
10/23/2020 2:30:00 PM 16.83 62.294 0.231 7.79 1.77 9.92
10/23/2020 2:45:00 PM 16.98 62.564 0.231 7.78 1.86 9.85
10/23/2020 3:00:00 PM 17.1 62.78 0.23 7.78 1.83 9.73
10/23/2020 3:15:00 PM 17.22 62.996 0.231 7.78 1.75 9.59
10/23/2020 3:30:00 PM 17.31 63.158 0.231 7.78 1.78 9.5
10/23/2020 3:45:00 PM 17.35 63.23 0.23 7.78 1.8 9.45
10/23/2020 4:00:00 PM 17.35 63.23 0.231 7.78 1.87 9.56
10/23/2020 4:15:00 PM 17.38 63.284 0.231 7.79 1.84 9.54
10/23/2020 4:30:00 PM 17.35 63.23 0.231 7.79 2.02 9.64
10/23/2020 4:45:00 PM 17.31 63.158 0.231 7.79 1.94 9.64
10/23/2020 5:00:00 PM 17.26 63.068 0.231 7.78 1.97 9.57
10/23/2020 5:15:00 PM 17.2 62.96 0.231 7.76 2.09 9.48
10/23/2020 5:30:00 PM 17.15 62.87 0.231 7.75 1.92 9.4
10/23/2020 5:45:00 PM 17.13 62.834 0.231 7.74 1.92 9.29
10/23/2020 6:00:00 PM 17.09 62.762 0.231 7.73 1.87 9.22
10/23/2020 6:15:00 PM 17.05 62.69 0.231 7.71 1.89 9.12
10/23/2020 6:30:00 PM 16.99 62.582 0.231 7.7 1.92 9.04
10/23/2020 6:45:00 PM 16.94 62.492 0.231 7.69 2.22 8.95
10/23/2020 7:00:00 PM 16.87 62.366 0.231 7.68 1.87 8.87
10/23/2020 7:15:00 PM 16.8 62.24 0.231 7.66 1.9 8.77
10/23/2020 7:30:00 PM 16.74 62.132 0.231 7.65 1.87 8.71
10/23/2020 7:45:00 PM 16.68 62.024 0.231 7.65 1.83 8.64
10/23/2020 8:00:00 PM 16.63 61.934 0.231 7.64 1.89 8.6
10/23/2020 8:15:00 PM 16.58 61.844 0.231 7.63 1.84 8.55
10/23/2020 8:30:00 PM 16.51 61.718 0.232 7.62 1.84 8.49
10/23/2020 8:45:00 PM 16.43 61.574 0.232 7.61 1.82 8.44
10/23/2020 9:00:00 PM 16.37 61.466 0.232 7.6 2.06 8.39
10/23/2020 9:15:00 PM 16.31 61.358 0.232 7.6 1.91 8.36
10/23/2020 9:30:00 PM 16.24 61.232 0.232 7.6 1.96 8.3
10/23/2020 9:45:00 PM 16.17 61.106 0.232 7.59 1.97 8.26
10/23/2020 10:00:00 PM 16.1 60.98 0.232 7.58 1.92 8.25
10/23/2020 10:15:00 PM 16.04 60.872 0.232 7.58 1.88 8.22
10/23/2020 10:30:00 PM 15.97 60.746 0.232 7.58 1.93 8.18
10/23/2020 10:45:00 PM 15.91 60.638 0.232 7.57 2.05 8.16
10/23/2020 11:00:00 PM 15.84 60.512 0.232 7.57 2 8.14
10/23/2020 11:15:00 PM 15.78 60.404 0.232 7.57 1.91 8.1
10/23/2020 11:30:00 PM 15.73 60.314 0.232 7.56 2.04 8.12
10/23/2020 11:45:00 PM 15.68 60.224 0.232 7.56 1.9 8.12
10/24/2020 12:00:00 AM 15.64 60.152 0.232 7.56 1.93 8.1
10/24/2020 12:15:00 AM 15.6 60.08 0.232 7.56 1.86 8.08
10/24/2020 12:30:00 AM 15.56 60.008 0.232 7.56 1.91 8.1
10/24/2020 12:45:00 AM 15.51 59.918 0.232 7.55 1.91 8.03
10/24/2020 1:00:00 AM 15.48 59.864 0.232 7.55 1.93 7.99
10/24/2020 1:15:00 AM 15.44 59.792 0.232 7.55 1.9 8.02
10/24/2020 1:30:00 AM 15.41 59.738 0.232 7.55 1.91 8.02
10/24/2020 1:45:00 AM 15.39 59.702 0.232 7.55 1.88 8.04
10/24/2020 2:00:00 AM 15.36 59.648 0.232 7.54 1.98 8
10/24/2020 2:15:00 AM 15.33 59.594 0.232 7.54 1.9 8.01
10/24/2020 2:30:00 AM 15.29 59.522 0.232 7.54 1.9 7.99
10/24/2020 2:45:00 AM 15.26 59.468 0.232 7.54 1.9 7.97
10/24/2020 3:00:00 AM 15.23 59.414 0.232 7.54 1.95 7.95
10/24/2020 3:15:00 AM 15.21 59.378 0.232 7.54 2 7.93
10/24/2020 3:30:00 AM 15.19 59.342 0.232 7.54 1.9 7.91
10/24/2020 3:45:00 AM 15.16 59.288 0.232 7.54 1.89 7.95
10/24/2020 4:00:00 AM 15.13 59.234 0.232 7.53 1.9 7.97
10/24/2020 4:15:00 AM 15.11 59.198 0.232 7.53 1.99 7.94
10/24/2020 4:30:00 AM 15.09 59.162 0.232 7.53 1.89 7.93
10/24/2020 4:45:00 AM 15.08 59.144 0.232 7.53 1.9 7.91
10/24/2020 5:00:00 AM 15.06 59.108 0.232 7.53 1.97 7.92
10/24/2020 5:15:00 AM 15.05 59.09 0.232 7.53 1.94 7.95
10/24/2020 5:30:00 AM 15.04 59.072 0.232 7.52 1.95 7.96
10/24/2020 5:45:00 AM 15.02 59.036 0.232 7.52 1.9 7.97
10/24/2020 6:00:00 AM 15.01 59.018 0.232 7.52 1.95 7.89
10/24/2020 6:15:00 AM 15 59 0.232 7.52 1.97 7.75
10/24/2020 6:30:00 AM 14.99 58.982 0.232 7.52 1.96 7.81
10/24/2020 6:45:00 AM 14.99 58.982 0.232 7.51 1.98 7.85
10/24/2020 7:00:00 AM 14.99 58.982 0.232 7.51 1.98 7.84
10/24/2020 7:15:00 AM 14.96 58.928 0.232 7.51 2.07 7.87
10/24/2020 7:30:00 AM 14.94 58.892 0.232 7.51 2 7.69
10/24/2020 7:45:00 AM 14.91 58.838 0.232 7.51 1.99 7.68
10/24/2020 8:00:00 AM 14.88 58.784 0.232 7.5 2.04 7.69
10/24/2020 8:15:00 AM 14.85 58.73 0.232 7.5 2.02 7.85
10/24/2020 8:30:00 AM 14.78 58.604 0.232 7.51 1.88 7.93
10/24/2020 8:45:00 AM 14.75 58.55 0.232 7.5 1.94 7.84
10/24/2020 9:00:00 AM 14.69 58.442 0.231 7.5 2.05 7.87
10/24/2020 9:15:00 AM 14.65 58.37 0.231 7.51 1.99 7.96
10/24/2020 9:30:00 AM 14.59 58.262 0.231 7.51 2 7.94
10/24/2020 9:45:00 AM 14.53 58.154 0.231 7.51 1.97 8.06
10/24/2020 10:00:00 AM 14.49 58.082 0.231 7.51 1.97 8.11
10/24/2020 10:15:00 AM 14.44 57.992 0.231 7.52 1.94 8.22
10/24/2020 10:30:00 AM 14.39 57.902 0.231 7.55 2.03 8.41
10/24/2020 10:45:00 AM 14.36 57.848 0.231 7.56 2 8.45
10/24/2020 11:00:00 AM 14.35 57.83 0.231 7.57 2.06 8.48
10/24/2020 11:15:00 AM 14.36 57.848 0.231 7.59 2.19 8.48
10/24/2020 11:30:00 AM 14.37 57.866 0.231 7.6 2.03 8.56
10/24/2020 11:45:00 AM 14.35 57.83 0.231 7.6 2.19 8.74
10/24/2020 12:00:00 PM 14.35 57.83 0.231 7.63 2.18 8.91
10/24/2020 12:15:00 PM 14.32 57.776 0.231 7.64 2.03 8.85
10/24/2020 12:30:00 PM 14.35 57.83 0.231 7.66 2.01 9.08
10/24/2020 12:45:00 PM 14.41 57.938 0.231 7.67 2 9.26
10/24/2020 1:00:00 PM 14.45 58.01 0.231 7.68 2.02 9.32
10/24/2020 1:15:00 PM 14.43 57.974 0.23 7.69 1.91 9.39
10/24/2020 1:30:00 PM 14.42 57.956 0.23 7.7 1.91 9.51
10/24/2020 1:45:00 PM 14.43 57.974 0.23 7.71 1.94 9.51
10/24/2020 2:00:00 PM 14.42 57.956 0.23 7.72 1.96 9.41
10/24/2020 2:15:00 PM 14.42 57.956 0.23 7.72 9.98 9.62
10/24/2020 2:30:00 PM 14.41 57.938 0.231 7.73 28.53 9.49
10/24/2020 2:45:00 PM 14.4 57.92 0.231 7.75 22.03 9.58
10/24/2020 3:00:00 PM 14.41 57.938 0.231 7.69 13.74 8.4
10/24/2020 3:15:00 PM 14.39 57.902 0.23 7.73 2.09 9.49
10/24/2020 3:30:00 PM 14.38 57.884 0.23 7.77 2 8.76
10/24/2020 3:45:00 PM 14.36 57.848 0.231 7.76 2.26 7.67
10/24/2020 4:00:00 PM 14.32 57.776 0.23 7.77 2.11 9.8
10/24/2020 4:15:00 PM 14.31 57.758 0.231 7.79 1.92 9.02
10/24/2020 4:30:00 PM 14.27 57.686 0.231 7.79 2.02 9.6
10/24/2020 4:45:00 PM 14.23 57.614 0.23 7.79 2.02 8.73
10/24/2020 5:00:00 PM 14.16 57.488 0.23 7.77 1.9 8.92
10/24/2020 5:15:00 PM 14.09 57.362 0.229 7.76 1.92 5.87
10/24/2020 5:30:00 PM 14.02 57.236 0.229 7.77 1.96 8.04
10/24/2020 5:45:00 PM 13.97 57.146 0.229 7.75 2.13 9.49
10/24/2020 6:00:00 PM 13.92 57.056 0.23 7.74 2.06 9.5
10/24/2020 6:15:00 PM 13.79 56.822 0.23 7.7 2.3 9.17
10/24/2020 6:30:00 PM 13.7 56.66 0.23 7.7 2.25 9.18
10/24/2020 6:45:00 PM 13.62 56.516 0.23 7.66 2.11 9.12
10/24/2020 7:00:00 PM 13.55 56.39 0.23 7.68 2.11 9.36
10/24/2020 7:15:00 PM 13.46 56.228 0.23 7.67 2.04 9.33
10/24/2020 7:30:00 PM 13.38 56.084 0.23 7.67 2.09 9.21
10/24/2020 7:45:00 PM 13.3 55.94 0.23 7.66 2.02 9.2
10/24/2020 8:00:00 PM 13.23 55.814 0.23 7.65 2.07 9.18
10/24/2020 8:15:00 PM 13.17 55.706 0.23 7.64 2.1 9.12
10/24/2020 8:30:00 PM 13.1 55.58 0.23 7.63 2.12 9.09
10/24/2020 8:45:00 PM 13.02 55.436 0.23 7.63 2.22 9.01
10/24/2020 9:00:00 PM 12.94 55.292 0.23 7.62 2.22 9
10/24/2020 9:15:00 PM 12.86 55.148 0.23 7.62 2.15 9.04
10/24/2020 9:30:00 PM 12.79 55.022 0.23 7.61 2.07 9.01
10/24/2020 9:45:00 PM 12.74 54.932 0.23 7.61 2.32 9
10/24/2020 10:00:00 PM 12.67 54.806 0.23 7.6 2.08 8.95
10/24/2020 10:15:00 PM 12.6 54.68 0.23 7.6 2 8.97
10/24/2020 10:30:00 PM 12.55 54.59 0.23 7.6 2.04 8.97
10/24/2020 10:45:00 PM 12.47 54.446 0.23 7.59 1.98 8.96
10/24/2020 11:00:00 PM 12.39 54.302 0.23 7.59 1.99 8.95
10/24/2020 11:15:00 PM 12.33 54.194 0.23 7.59 1.94 8.95
10/24/2020 11:30:00 PM 12.25 54.05 0.23 7.59 1.96 8.96
10/24/2020 11:45:00 PM 12.18 53.924 0.23 7.59 1.97 8.97
10/25/2020 12:00:00 AM 12.11 53.798 0.23 7.59 1.99 8.98
10/25/2020 12:15:00 AM 12.02 53.636 0.23 7.59 1.95 8.98
10/25/2020 12:30:00 AM 11.95 53.51 0.23 7.58 1.95 9.01
10/25/2020 12:45:00 AM 11.85 53.33 0.23 7.58 2.02 9.02
10/25/2020 1:00:00 AM 11.76 53.168 0.23 7.58 2.59 8.96
10/25/2020 1:15:00 AM 11.64 52.952 0.23 7.58 2.05 9.01
10/25/2020 1:30:00 AM 11.54 52.772 0.231 7.58 1.97 9.01
10/25/2020 1:45:00 AM 11.45 52.61 0.231 7.57 1.98 9.02
10/25/2020 2:00:00 AM 11.34 52.412 0.231 7.58 2.03 9.06
10/25/2020 2:15:00 AM 11.25 52.25 0.231 7.58 2.08 9.05
10/25/2020 2:30:00 AM 11.15 52.07 0.231 7.57 2.07 9.07
10/25/2020 2:45:00 AM 11.05 51.89 0.231 7.57 2.01 9.09
10/25/2020 3:00:00 AM 10.96 51.728 0.231 7.57 2.1 9.09
10/25/2020 3:15:00 AM 10.87 51.566 0.231 7.58 2.22 9.1
10/25/2020 3:30:00 AM 10.78 51.404 0.231 7.57 1.97 9.07
10/25/2020 3:45:00 AM 10.69 51.242 0.231 7.57 1.96 9.09
10/25/2020 4:00:00 AM 10.59 51.062 0.231 7.58 2.05 9.15
10/25/2020 4:15:00 AM 10.51 50.918 0.231 7.57 2.22 9.17
10/25/2020 4:30:00 AM 10.4 50.72 0.231 7.57 2.06 9.21
10/25/2020 4:45:00 AM 10.31 50.558 0.231 7.57 2 9.2
10/25/2020 5:00:00 AM 10.24 50.432 0.231 7.57 2.6 9.21
10/25/2020 5:15:00 AM 10.17 50.306 0.231 7.57 2.05 9.21
10/25/2020 5:30:00 AM 10.07 50.126 0.231 7.57 2.05 9.24
10/25/2020 5:45:00 AM 9.97 49.946 0.231 7.57 2.56 9.28
10/25/2020 6:00:00 AM 9.89 49.802 0.231 7.57 2.12 9.32
10/25/2020 6:15:00 AM 9.84 49.712 0.231 7.57 2.15 9.37
10/25/2020 6:30:00 AM 9.77 49.586 0.231 7.57 2.1 9.38
10/25/2020 6:45:00 AM 9.7 49.46 0.231 7.57 2.1 9.41
10/25/2020 7:00:00 AM 9.65 49.37 0.231 7.57 2.51 9.41
10/25/2020 7:15:00 AM 9.59 49.262 0.231 7.58 2.07 9.37
10/25/2020 7:30:00 AM 9.54 49.172 0.231 7.58 2.1 9.38
10/25/2020 7:45:00 AM 9.5 49.1 0.232 7.57 2.36 9.44
10/25/2020 8:00:00 AM 9.46 49.028 0.232 7.58 2.51 9.45
10/25/2020 8:15:00 AM 9.42 48.956 0.232 7.58 2.09 9.45
10/25/2020 8:30:00 AM 9.4 48.92 0.232 7.58 2.17 9.43
10/25/2020 8:45:00 AM 9.36 48.848 0.232 7.58 2.06 9.45
10/25/2020 9:00:00 AM 9.34 48.812 0.232 7.58 1.99 9.39
10/25/2020 9:15:00 AM 9.31 48.758 0.232 7.58 1.9 8.78
10/25/2020 9:30:00 AM 9.31 48.758 0.232 7.58 1.93 8.73
10/25/2020 9:45:00 AM 9.28 48.704 0.232 7.61 2 8.3
10/25/2020 10:00:00 AM 9.29 48.722 0.232 7.62 1.89 6.64
10/25/2020 10:15:00 AM 9.3 48.74 0.233 7.63 1.89 4.99
10/25/2020 10:30:00 AM 9.32 48.776 0.232 7.65 1.84 6.14
10/25/2020 10:45:00 AM 9.44 48.992 0.231 7.66 1.88 8.83
10/25/2020 11:00:00 AM 9.53 49.154 0.231 7.68 1.87 9.24
10/25/2020 11:15:00 AM 9.62 49.316 0.231 7.7 1.85 9.37
10/25/2020 11:30:00 AM 9.81 49.658 0.231 7.71 1.86 8.36
10/25/2020 11:45:00 AM 9.98 49.964 0.231 7.72 1.86 7.67
10/25/2020 12:00:00 PM 10.17 50.306 0.231 7.74 1.86 4.9
10/25/2020 12:15:00 PM 10.37 50.666 0.231 7.75 1.76 5.3
10/25/2020 12:30:00 PM 10.5 50.9 0.237 7.76 1.77 3.36
10/25/2020 12:45:00 PM 10.72 51.296 0.231 7.77 1.8 8.81
10/25/2020 1:00:00 PM 10.82 51.476 0.231 7.79 1.8 6
10/25/2020 1:15:00 PM 10.9 51.62 0.232 7.77 1.95 6.64
10/25/2020 1:30:00 PM 11 51.8 0.233 7.74 1.77 8.44
10/25/2020 1:45:00 PM 11.06 51.908 0.233 7.79 1.93 9.45
10/25/2020 2:00:00 PM 11.13 52.034 0.232 7.75 13.07 8.65
10/25/2020 2:15:00 PM 11.2 52.16 0.232 7.77 2.37 9.77
10/25/2020 2:30:00 PM 11.22 52.196 0.232 7.77 1.91 9.94
10/25/2020 2:45:00 PM 11.27 52.286 0.231 7.79 1.93 8.58
10/25/2020 3:00:00 PM 11.35 52.43 0.231 7.8 1.79 5.87
10/25/2020 3:15:00 PM 11.47 52.646 0.23 7.79 2.25 10.09
10/25/2020 3:30:00 PM 11.57 52.826 0.231 7.8 2.15 9.64
10/25/2020 3:45:00 PM 11.65 52.97 0.23 7.79 2.09 9.68
10/25/2020 4:00:00 PM 11.68 53.024 0.231 7.79 1.97 8.72
10/25/2020 4:15:00 PM 11.68 53.024 0.23 7.81 1.78 9.36
10/25/2020 4:30:00 PM 11.67 53.006 0.231 7.8 1.78 7.69
10/25/2020 4:45:00 PM 11.67 53.006 0.233 7.82 1.75 8.04
10/25/2020 5:00:00 PM 11.64 52.952 0.231 7.8 2.12 7.97
10/25/2020 5:15:00 PM 11.62 52.916 0.232 7.82 1.9 8.81
10/25/2020 5:30:00 PM 11.58 52.844 0.232 7.81 2.16 6.73
10/25/2020 5:45:00 PM 11.53 52.754 0.231 7.8 1.8 6.47
10/25/2020 6:00:00 PM 11.49 52.682 0.231 7.8 2.18 7.66
10/25/2020 6:15:00 PM 11.45 52.61 0.232 7.77 1.86 4.79
10/25/2020 6:30:00 PM 11.43 52.574 0.238 7.78 1.92 3.85
10/25/2020 6:45:00 PM 11.35 52.43 0.231 7.73 2.89 9.91
10/25/2020 7:00:00 PM 11.31 52.358 0.231 7.74 2.04 10.18
10/25/2020 7:15:00 PM 11.25 52.25 0.23 7.73 1.92 10.32
10/25/2020 7:30:00 PM 11.2 52.16 0.23 7.72 1.94 10.43
10/25/2020 7:45:00 PM 11.15 52.07 0.23 7.71 2.05 10.42
10/25/2020 8:00:00 PM 11.1 51.98 0.23 7.7 2.2 10.35
10/25/2020 8:15:00 PM 11.05 51.89 0.23 7.69 2.4 10.29
10/25/2020 8:30:00 PM 11.01 51.818 0.231 7.68 2.15 10.24
10/25/2020 8:45:00 PM 10.97 51.746 0.231 7.67 2.18 10.17
10/25/2020 9:00:00 PM 10.94 51.692 0.231 7.67 2.12 10.11
10/25/2020 9:15:00 PM 10.9 51.62 0.231 7.66 2.02 10.08
10/25/2020 9:30:00 PM 10.86 51.548 0.231 7.65 2.18 10.05
10/25/2020 9:45:00 PM 10.83 51.494 0.231 7.65 2.44 10
10/25/2020 10:00:00 PM 10.81 51.458 0.231 7.64 2.18 9.98
10/25/2020 10:15:00 PM 10.78 51.404 0.231 7.64 2.17 9.95
10/25/2020 10:30:00 PM 10.76 51.368 0.231 7.64 2.06 9.91
10/25/2020 10:45:00 PM 10.74 51.332 0.231 7.63 2.07 9.91
10/25/2020 11:00:00 PM 10.72 51.296 0.231 7.63 1.95 9.88
10/25/2020 11:15:00 PM 10.7 51.26 0.231 7.63 1.86 9.85
10/25/2020 11:30:00 PM 10.67 51.206 0.231 7.62 1.89 9.79
10/25/2020 11:45:00 PM 10.64 51.152 0.231 7.62 1.87 9.77
10/26/2020 12:00:00 AM 10.6 51.08 0.231 7.62 1.84 9.79
10/26/2020 12:15:00 AM 10.57 51.026 0.231 7.62 1.88 9.79
10/26/2020 12:30:00 AM 10.53 50.954 0.231 7.62 1.93 9.79
10/26/2020 12:45:00 AM 10.49 50.882 0.231 7.61 1.84 9.77
10/26/2020 1:00:00 AM 10.47 50.846 0.231 7.61 1.79 9.76
10/26/2020 1:15:00 AM 10.43 50.774 0.231 7.61 1.89 9.79
10/26/2020 1:30:00 AM 10.39 50.702 0.231 7.61 1.84 9.79
10/26/2020 1:45:00 AM 10.33 50.594 0.231 7.61 1.79 9.78
10/26/2020 2:00:00 AM 10.29 50.522 0.231 7.61 1.81 9.75
10/26/2020 2:15:00 AM 10.25 50.45 0.231 7.61 1.79 9.74
10/26/2020 2:30:00 AM 10.22 50.396 0.231 7.61 1.87 9.75
10/26/2020 2:45:00 AM 10.19 50.342 0.231 7.61 1.8 9.75
10/26/2020 3:00:00 AM 10.16 50.288 0.231 7.61 1.81 9.77
10/26/2020 3:15:00 AM 10.14 50.252 0.231 7.61 1.82 9.73
10/26/2020 3:30:00 AM 10.1 50.18 0.231 7.61 1.77 9.72
10/26/2020 3:45:00 AM 10.07 50.126 0.231 7.61 1.78 9.71
10/26/2020 4:00:00 AM 10.04 50.072 0.231 7.61 1.78 9.72
10/26/2020 4:15:00 AM 10.02 50.036 0.231 7.61 1.81 9.73
10/26/2020 4:30:00 AM 10.01 50.018 0.232 7.61 1.78 9.71
10/26/2020 4:45:00 AM 10 50 0.232 7.61 1.82 9.69
10/26/2020 5:00:00 AM 9.99 49.982 0.232 7.61 1.76 9.68
10/26/2020 5:15:00 AM 9.97 49.946 0.231 7.61 1.77 9.68
10/26/2020 5:30:00 AM 9.96 49.928 0.231 7.61 1.75 9.67
10/26/2020 5:45:00 AM 9.95 49.91 0.232 7.61 1.74 9.68
10/26/2020 6:00:00 AM 9.94 49.892 0.232 7.61 1.76 9.67
10/26/2020 6:15:00 AM 9.94 49.892 0.232 7.61 1.73 9.63
10/26/2020 6:30:00 AM 9.93 49.874 0.232 7.61 1.74 9.61
10/26/2020 6:45:00 AM 9.93 49.874 0.232 7.61 1.73 9.58
10/26/2020 7:00:00 AM 9.92 49.856 0.232 7.61 1.75 9.61
10/26/2020 7:15:00 AM 9.92 49.856 0.231 7.61 1.78 9.61
10/26/2020 7:30:00 AM 9.91 49.838 0.231 7.61 1.77 9.61
10/26/2020 7:45:00 AM 9.91 49.838 0.231 7.61 1.78 9.57
10/26/2020 8:00:00 AM 9.92 49.856 0.231 7.6 1.77 9.55
10/26/2020 8:15:00 AM 9.92 49.856 0.231 7.6 1.77 9.55
10/26/2020 8:30:00 AM 9.93 49.874 0.23 7.6 2.69 9.67
10/26/2020 8:45:00 AM 9.93 49.874 0.23 7.59 2.05 9.63
10/26/2020 9:00:00 AM 9.94 49.892 0.23 7.59 2 9.55
10/26/2020 9:15:00 AM 9.96 49.928 0.23 7.59 2.04 9.49
10/26/2020 9:30:00 AM 9.97 49.946 0.23 7.59 1.97 9.56
10/26/2020 9:45:00 AM 9.99 49.982 0.23 7.59 1.98 9.55
10/26/2020 10:00:00 AM 10 50 0.231 7.6 1.99 9.55
10/26/2020 10:15:00 AM 10.02 50.036 0.231 7.61 1.96 9.59
10/26/2020 10:30:00 AM 10.05 50.09 0.231 7.62 2.02 9.64
10/26/2020 10:45:00 AM 10.08 50.144 0.231 7.62 2.01 9.77
10/26/2020 11:00:00 AM 10.12 50.216 0.231 7.63 1.93 9.87
10/26/2020 11:15:00 AM 10.18 50.324 0.23 7.64 1.99 10.03
10/26/2020 11:30:00 AM 10.24 50.432 0.23 7.66 1.98 10.18
10/26/2020 11:45:00 AM 10.3 50.54 0.23 7.67 2.01 10.29
10/26/2020 12:00:00 PM 10.34 50.612 0.23 7.68 2 10.34
10/26/2020 12:15:00 PM 10.4 50.72 0.23 7.69 2.07 10.35
10/26/2020 12:30:00 PM 10.48 50.864 0.23 7.7 1.98 10.4
10/26/2020 12:45:00 PM 10.57 51.026 0.23 7.7 1.95 10.48
10/26/2020 1:00:00 PM 10.63 51.134 0.23 7.71 2.04 10.51
10/26/2020 1:15:00 PM 10.68 51.224 0.23 7.71 1.98 10.54
10/26/2020 1:30:00 PM 10.71 51.278 0.23 7.71 1.96 10.55
10/26/2020 1:45:00 PM 10.73 51.314 0.23 7.72 1.94 10.56
10/26/2020 2:00:00 PM 10.77 51.386 0.229 7.73 2.06 10.58
10/26/2020 2:15:00 PM 10.81 51.458 0.229 7.73 2.05 10.62
10/26/2020 2:30:00 PM 10.85 51.53 0.229 7.74 2.44 10.62
10/26/2020 2:45:00 PM 10.91 51.638 0.229 7.74 2.24 10.7
10/26/2020 3:00:00 PM 10.94 51.692 0.229 7.73 1.57 10.51
10/26/2020 3:15:00 PM 10.97 51.746 0.229 7.74 1.64 10.6
10/26/2020 3:30:00 PM 11.02 51.836 0.229 7.75 1.44 10.65
10/26/2020 3:45:00 PM 11.05 51.89 0.229 7.75 1.37 10.65
10/26/2020 4:00:00 PM 11.09 51.962 0.229 7.75 1.4 10.65
10/26/2020 4:15:00 PM 11.12 52.016 0.229 7.75 1.37 10.61
10/26/2020 4:30:00 PM 11.15 52.07 0.23 7.74 2.15 10.62
10/26/2020 4:45:00 PM 11.17 52.106 0.229 7.74 2.19 10.03
10/26/2020 5:00:00 PM 11.19 52.142 0.231 7.74 1.46 9.69
10/26/2020 5:15:00 PM 11.21 52.178 0.23 7.74 1.43 9.14
10/26/2020 5:30:00 PM 11.23 52.214 0.233 7.73 1.6 6.26
10/26/2020 5:45:00 PM 11.24 52.232 0.232 7.73 1.48 7.25
10/26/2020 6:00:00 PM 11.26 52.268 0.23 7.72 1.47 4.9
10/26/2020 6:15:00 PM 11.27 52.286 0.232 7.71 1.55 4.77
10/26/2020 6:30:00 PM 11.28 52.304 0.229 7.68 1.42 9.95
10/26/2020 6:45:00 PM 11.28 52.304 0.228 7.69 1.37 9.98
10/26/2020 7:00:00 PM 11.29 52.322 0.228 7.69 1.39 9.98
10/26/2020 7:15:00 PM 11.3 52.34 0.229 7.69 1.32 9.98
10/26/2020 7:30:00 PM 11.31 52.358 0.229 7.68 1.29 9.98
10/26/2020 7:45:00 PM 11.31 52.358 0.229 7.67 1.34 9.95
10/26/2020 8:00:00 PM 11.32 52.376 0.229 7.67 1.34 9.95
10/26/2020 8:15:00 PM 11.32 52.376 0.229 7.66 1.34 9.97
10/26/2020 8:30:00 PM 11.32 52.376 0.229 7.66 1.37 9.95
10/26/2020 8:45:00 PM 11.32 52.376 0.229 7.65 1.36 9.93
10/26/2020 9:00:00 PM 11.31 52.358 0.229 7.65 1.42 9.87
10/26/2020 9:15:00 PM 11.3 52.34 0.229 7.64 1.38 9.81
10/26/2020 9:30:00 PM 11.29 52.322 0.229 7.63 1.35 9.8
10/26/2020 9:45:00 PM 11.29 52.322 0.229 7.63 1.34 9.77
10/26/2020 10:00:00 PM 11.27 52.286 0.229 7.63 1.35 9.82
10/26/2020 10:15:00 PM 11.25 52.25 0.229 7.63 1.35 9.83
10/26/2020 10:30:00 PM 11.23 52.214 0.229 7.63 1.34 9.82
10/26/2020 10:45:00 PM 11.21 52.178 0.229 7.62 1.32 9.79
10/26/2020 11:00:00 PM 11.19 52.142 0.229 7.62 1.34 9.76
10/26/2020 11:15:00 PM 11.17 52.106 0.229 7.62 1.37 9.74
10/26/2020 11:30:00 PM 11.15 52.07 0.229 7.62 1.35 9.71
10/26/2020 11:45:00 PM 11.13 52.034 0.229 7.62 1.39 9.69
10/27/2020 12:00:00 AM 11.11 51.998 0.229 7.61 1.43 9.66
10/27/2020 12:15:00 AM 11.08 51.944 0.229 7.61 1.6 9.65
10/27/2020 12:30:00 AM 11.06 51.908 0.229 7.6 2.68 9.63
10/27/2020 12:45:00 AM 11.04 51.872 0.229 7.6 3.44 9.62
10/27/2020 1:00:00 AM 11.01 51.818 0.229 7.61 2.33 9.6
10/27/2020 1:15:00 AM 10.99 51.782 0.229 7.6 1.8 9.58
10/27/2020 1:30:00 AM 10.97 51.746 0.229 7.61 1.42 9.54
10/27/2020 1:45:00 AM 10.94 51.692 0.229 7.61 1.35 9.54
10/27/2020 2:00:00 AM 10.92 51.656 0.229 7.61 1.61 9.55
10/27/2020 2:15:00 AM 10.89 51.602 0.229 7.61 2.89 9.52
10/27/2020 2:30:00 AM 10.88 51.584 0.229 7.6 4.58 9.47
10/27/2020 2:45:00 AM 10.86 51.548 0.23 7.6 2.24 9.47
10/27/2020 3:00:00 AM 10.83 51.494 0.23 7.6 1.44 9.46
10/27/2020 3:15:00 AM 10.82 51.476 0.23 7.6 1.44 9.48
10/27/2020 3:30:00 AM 10.79 51.422 0.23 7.59 1.37 9.48
10/27/2020 3:45:00 AM 10.78 51.404 0.23 7.59 1.44 9.49
10/27/2020 4:00:00 AM 10.76 51.368 0.23 7.59 1.62 9.49
10/27/2020 4:15:00 AM 10.73 51.314 0.23 7.59 1.54 9.48
10/27/2020 4:30:00 AM 10.71 51.278 0.23 7.59 1.44 9.47
10/27/2020 4:45:00 AM 10.69 51.242 0.23 7.59 1.61 9.47
10/27/2020 5:00:00 AM 10.67 51.206 0.23 7.59 2.23 9.45
10/27/2020 5:15:00 AM 10.65 51.17 0.23 7.59 1.53 9.46
10/27/2020 5:30:00 AM 10.63 51.134 0.23 7.58 1.95 9.46
10/27/2020 5:45:00 AM 10.61 51.098 0.23 7.58 1.91 9.47
10/27/2020 6:00:00 AM 10.59 51.062 0.23 7.58 1.31 9.49
10/27/2020 6:15:00 AM 10.58 51.044 0.23 7.58 1.36 9.49
10/27/2020 6:30:00 AM 10.55 50.99 0.23 7.58 1.48 9.47
10/27/2020 6:45:00 AM 10.5 50.9 0.231 7.59 1.47 9.47
10/27/2020 7:00:00 AM 10.47 50.846 0.23 7.59 1.48 9.45
10/27/2020 7:15:00 AM 10.45 50.81 0.231 7.59 1.55 9.45
10/27/2020 7:30:00 AM 10.43 50.774 0.231 7.58 1.61 9.44
10/27/2020 7:45:00 AM 10.41 50.738 0.231 7.58 1.53 9.47
10/27/2020 8:00:00 AM 10.39 50.702 0.231 7.58 1.47 9.5
10/27/2020 8:15:00 AM 10.36 50.648 0.231 7.59 1.43 9.47
10/27/2020 8:30:00 AM 10.36 50.648 0.231 7.59 1.56 9.47
10/27/2020 8:45:00 AM 10.33 50.594 0.231 7.6 1.43 9.52
10/27/2020 9:00:00 AM 10.32 50.576 0.231 7.6 1.44 9.48
10/27/2020 9:15:00 AM 10.31 50.558 0.231 7.61 1.47 9.52
10/27/2020 9:30:00 AM 10.31 50.558 0.231 7.62 1.37 9.54
10/27/2020 9:45:00 AM 10.33 50.594 0.231 7.63 1.97 9.67
10/27/2020 10:00:00 AM 10.35 50.63 0.231 7.64 1.47 9.78
10/27/2020 10:15:00 AM 10.37 50.666 0.231 7.66 1.45 9.87
10/27/2020 10:30:00 AM 10.43 50.774 0.231 7.67 1.55 9.96
10/27/2020 10:45:00 AM 10.48 50.864 0.231 7.68 2.02 10.21
10/27/2020 11:00:00 AM 10.55 50.99 0.231 7.7 1.73 10.39
10/27/2020 11:15:00 AM 10.64 51.152 0.231 7.71 1.53 10.56
10/27/2020 11:30:00 AM 10.73 51.314 0.231 7.72 1.53 10.65
10/27/2020 11:45:00 AM 10.82 51.476 0.231 7.74 1.43 10.76
10/27/2020 12:00:00 PM 10.89 51.602 0.231 7.74 1.9 10.8
10/27/2020 12:15:00 PM 10.96 51.728 0.231 7.75 2.14 10.88
10/27/2020 12:30:00 PM 11.05 51.89 0.231 7.77 12.85 10.96
10/27/2020 12:45:00 PM 11.15 52.07 0.231 7.77 2.52 10.37
10/27/2020 1:00:00 PM 11.22 52.196 0.233 7.78 8.27 10.04
10/27/2020 1:15:00 PM 11.3 52.34 0.231 7.79 5.55 10.1
10/27/2020 1:30:00 PM 11.35 52.43 0.231 7.8 3.99 5.56
10/27/2020 1:45:00 PM 11.4 52.52 0.234 7.81 3.37 3.3
10/27/2020 2:00:00 PM 11.45 52.61 0.231 7.82 3.01 3.58
10/27/2020 2:15:00 PM 11.48 52.664 0.236 7.83 3.34 9.84
10/27/2020 2:30:00 PM 11.52 52.736 0.236 7.83 3.63 2.61
10/27/2020 2:45:00 PM 11.56 52.808 0.235 7.84 3.12 2.69
10/27/2020 3:00:00 PM 11.59 52.862 0.231 7.85 2.75 2.8
10/27/2020 3:15:00 PM 11.6 52.88 0.232 7.85 2.15 2.51
10/27/2020 3:30:00 PM 11.59 52.862 0.233 7.85 1.96 2.69
10/27/2020 3:45:00 PM 11.58 52.844 0.232 7.85 2.22 8.49
10/27/2020 4:00:00 PM 11.58 52.844 0.231 7.86 2.72 7.54
10/27/2020 4:15:00 PM 11.57 52.826 0.231 7.86 3.29 7.48
10/27/2020 4:30:00 PM 11.55 52.79 0.232 7.85 3.19 8.37
10/27/2020 4:45:00 PM 11.54 52.772 0.234 7.85 3.55 7.51
10/27/2020 5:00:00 PM 11.52 52.736 0.231 7.84 3 7.87
10/27/2020 5:15:00 PM 11.5 52.7 0.233 7.84 2.65 6.93
10/27/2020 5:30:00 PM 11.48 52.664 0.233 7.83 3.32 5.63
10/27/2020 5:45:00 PM 11.46 52.628 0.233 7.82 2.43 6.7
10/27/2020 6:00:00 PM 11.44 52.592 0.231 7.8 2.84 9.14
10/27/2020 6:15:00 PM 11.41 52.538 0.231 7.76 3.42 10
10/27/2020 6:30:00 PM 11.39 52.502 0.232 7.78 8.92 8.98
10/27/2020 6:45:00 PM 11.37 52.466 0.231 7.77 1.35 10.29
10/27/2020 7:00:00 PM 11.35 52.43 0.231 7.76 1.33 10.34
10/27/2020 7:15:00 PM 11.32 52.376 0.231 7.75 1.37 10.42
10/27/2020 7:30:00 PM 11.29 52.322 0.231 7.74 1.45 10.42
10/27/2020 7:45:00 PM 11.27 52.286 0.231 7.73 1.8 10.38
10/27/2020 8:00:00 PM 11.24 52.232 0.231 7.72 1.39 10.32
10/27/2020 8:15:00 PM 11.21 52.178 0.231 7.72 1.41 10.27
10/27/2020 8:30:00 PM 11.18 52.124 0.231 7.71 1.36 10.22
10/27/2020 8:45:00 PM 11.14 52.052 0.231 7.7 1.51 10.16
10/27/2020 9:00:00 PM 11.12 52.016 0.231 7.69 1.37 10.14
10/27/2020 9:15:00 PM 11.1 51.98 0.231 7.69 1.35 10.11
10/27/2020 9:30:00 PM 11.07 51.926 0.231 7.68 1.4 10.07
10/27/2020 9:45:00 PM 11.03 51.854 0.231 7.68 1.42 10.06
10/27/2020 10:00:00 PM 11.01 51.818 0.231 7.67 1.43 10.02
10/27/2020 10:15:00 PM 10.97 51.746 0.231 7.67 1.47 10.01
10/27/2020 10:30:00 PM 10.94 51.692 0.231 7.66 1.56 9.98
10/27/2020 10:45:00 PM 10.91 51.638 0.231 7.66 2.09 9.94
10/27/2020 11:00:00 PM 10.89 51.602 0.231 7.65 2.07 9.91
10/27/2020 11:15:00 PM 10.86 51.548 0.231 7.65 1.68 9.9
10/27/2020 11:30:00 PM 10.83 51.494 0.231 7.65 1.44 9.87
10/27/2020 11:45:00 PM 10.8 51.44 0.231 7.64 1.37 9.82
10/28/2020 12:00:00 AM 10.76 51.368 0.231 7.64 1.37 9.78
10/28/2020 12:15:00 AM 10.74 51.332 0.231 7.64 1.59 9.8
10/28/2020 12:30:00 AM 10.71 51.278 0.232 7.63 1.34 9.78
10/28/2020 12:45:00 AM 10.68 51.224 0.232 7.63 1.45 9.71
10/28/2020 1:00:00 AM 10.65 51.17 0.232 7.63 1.35 9.7
10/28/2020 1:15:00 AM 10.62 51.116 0.232 7.63 1.38 9.69
10/28/2020 1:30:00 AM 10.6 51.08 0.232 7.63 1.36 9.67
10/28/2020 1:45:00 AM 10.57 51.026 0.232 7.62 1.41 9.66
10/28/2020 2:00:00 AM 10.55 50.99 0.232 7.62 1.36 9.68
10/28/2020 2:15:00 AM 10.53 50.954 0.232 7.62 1.56 9.67
10/28/2020 2:30:00 AM 10.51 50.918 0.232 7.62 1.42 9.63
10/28/2020 2:45:00 AM 10.48 50.864 0.232 7.62 1.38 9.62
10/28/2020 3:00:00 AM 10.46 50.828 0.232 7.61 1.36 9.62
10/28/2020 3:15:00 AM 10.44 50.792 0.232 7.62 1.35 9.62
10/28/2020 3:30:00 AM 10.41 50.738 0.231 7.62 1.38 9.61
10/28/2020 3:45:00 AM 10.39 50.702 0.231 7.61 2.45 9.6
10/28/2020 4:00:00 AM 10.37 50.666 0.231 7.61 1.37 9.59
10/28/2020 4:15:00 AM 10.34 50.612 0.231 7.61 1.37 9.58
10/28/2020 4:30:00 AM 10.32 50.576 0.23 7.62 1.95 9.58
10/28/2020 4:45:00 AM 10.29 50.522 0.23 7.61 1.46 9.62
10/28/2020 5:00:00 AM 10.27 50.486 0.23 7.61 2.2 9.61
10/28/2020 5:15:00 AM 10.25 50.45 0.23 7.61 1.48 9.63
10/28/2020 5:30:00 AM 10.23 50.414 0.229 7.61 1.35 9.66
10/28/2020 5:45:00 AM 10.21 50.378 0.229 7.62 1.39 9.64
10/28/2020 6:00:00 AM 10.19 50.342 0.229 7.62 1.4 9.62
10/28/2020 6:15:00 AM 10.16 50.288 0.229 7.62 1.4 9.63
10/28/2020 6:30:00 AM 10.15 50.27 0.229 7.61 1.39 9.68
10/28/2020 6:45:00 AM 10.13 50.234 0.229 7.61 1.43 9.69
10/28/2020 7:00:00 AM 10.11 50.198 0.229 7.61 1.53 9.71
10/28/2020 7:15:00 AM 10.08 50.144 0.228 7.62 1.69 9.67
10/28/2020 7:30:00 AM 10.06 50.108 0.228 7.61 1.42 9.7
10/28/2020 7:45:00 AM 10.05 50.09 0.228 7.61 1.48 9.71
10/28/2020 8:00:00 AM 10.03 50.054 0.228 7.61 1.41 9.67
10/28/2020 8:15:00 AM 10.02 50.036 0.228 7.61 1.47 9.68
10/28/2020 8:30:00 AM 9.99 49.982 0.228 7.62 1.74 9.77
10/28/2020 8:45:00 AM 9.99 49.982 0.228 7.61 1.41 9.65
10/28/2020 9:00:00 AM 9.98 49.964 0.227 7.61 1.44 9.59
10/28/2020 9:15:00 AM 9.97 49.946 0.227 7.62 1.44 9.53
10/28/2020 9:30:00 AM 9.98 49.964 0.227 7.63 1.49 9.64
10/28/2020 9:45:00 AM 9.98 49.964 0.227 7.63 1.45 9.74
10/28/2020 10:00:00 AM 9.98 49.964 0.227 7.64 1.53 9.78
10/28/2020 10:15:00 AM 9.99 49.982 0.227 7.64 1.54 9.81
10/28/2020 10:30:00 AM 10.01 50.018 0.226 7.66 9.33 9.97
10/28/2020 10:45:00 AM 10.04 50.072 0.226 7.66 1.38 10.03
10/28/2020 11:00:00 AM 10.06 50.108 0.226 7.67 1.4 9.99
10/28/2020 11:15:00 AM 10.09 50.162 0.226 7.68 1.33 9.89
10/28/2020 11:30:00 AM 10.13 50.234 0.227 7.69 1.34 9.54
10/28/2020 11:45:00 AM 10.17 50.306 0.226 7.7 1.35 9.42
10/28/2020 12:00:00 PM 10.22 50.396 0.225 7.71 1.32 10.16
10/28/2020 12:15:00 PM 10.29 50.522 0.225 7.72 1.35 10.27
10/28/2020 12:30:00 PM 10.39 50.702 0.225 7.72 1.38 10.43
10/28/2020 12:45:00 PM 10.43 50.774 0.225 7.73 1.41 10.59
10/28/2020 1:00:00 PM 10.48 50.864 0.225 7.74 1.36 10.59
10/28/2020 1:15:00 PM 10.54 50.972 0.225 7.74 1.34 10.62
10/28/2020 1:30:00 PM 10.61 51.098 0.225 7.75 1.37 10.75
10/28/2020 1:45:00 PM 10.67 51.206 0.225 7.75 1.37 10.78
10/28/2020 2:00:00 PM 10.72 51.296 0.226 7.75 1.37 10.72
10/28/2020 2:15:00 PM 10.77 51.386 0.226 7.76 1.31 10.83
10/28/2020 2:30:00 PM 10.83 51.494 0.225 7.77 1.3 10.87
10/28/2020 2:45:00 PM 10.93 51.674 0.225 7.78 1.33 10.9
10/28/2020 3:00:00 PM 11.02 51.836 0.225 7.79 1.32 10.95
10/28/2020 3:15:00 PM 11.1 51.98 0.225 7.8 1.36 10.99
10/28/2020 3:30:00 PM 11.18 52.124 0.225 7.81 1.4 11.04
10/28/2020 3:45:00 PM 11.26 52.268 0.225 7.82 18.21 11.08
10/28/2020 4:00:00 PM 11.33 52.394 0.225 7.83 1.3 11.14
10/28/2020 4:15:00 PM 11.37 52.466 0.225 7.84 1.29 11.11
10/28/2020 4:30:00 PM 11.4 52.52 0.226 7.85 1.44 11.11
10/28/2020 4:45:00 PM 11.42 52.556 0.225 7.86 1.39 11.12
10/28/2020 5:00:00 PM 11.44 52.592 0.226 7.86 1.37 11.1
10/28/2020 5:15:00 PM 11.43 52.574 0.225 7.86 1.42 11.09
10/28/2020 5:30:00 PM 11.42 52.556 0.225 7.86 1.41 11.07
10/28/2020 5:45:00 PM 11.4 52.52 0.226 7.86 1.42 11.05
10/28/2020 6:00:00 PM 11.37 52.466 0.226 7.85 1.46 11.02
10/28/2020 6:15:00 PM 11.32 52.376 0.226 7.84 1.34 10.98
10/28/2020 6:30:00 PM 11.27 52.286 0.226 7.83 1.35 10.91
10/28/2020 6:45:00 PM 11.22 52.196 0.226 7.82 1.34 10.85
10/28/2020 7:00:00 PM 11.16 52.088 0.226 7.8 1.35 10.77
10/28/2020 7:15:00 PM 11.08 51.944 0.226 7.79 1.29 10.73
10/28/2020 7:30:00 PM 11.01 51.818 0.227 7.77 1.33 10.66
10/28/2020 7:45:00 PM 10.94 51.692 0.227 7.76 1.31 10.57
10/28/2020 8:00:00 PM 10.87 51.566 0.227 7.75 1.39 10.51
10/28/2020 8:15:00 PM 10.8 51.44 0.227 7.74 1.41 10.44
10/28/2020 8:30:00 PM 10.73 51.314 0.227 7.73 1.56 10.4
10/28/2020 8:45:00 PM 10.68 51.224 0.227 7.73 1.51 10.34
10/28/2020 9:00:00 PM 10.63 51.134 0.227 7.72 1.55 10.31
10/28/2020 9:15:00 PM 10.57 51.026 0.228 7.71 1.38 10.29
10/28/2020 9:30:00 PM 10.5 50.9 0.228 7.71 1.4 10.27
10/28/2020 9:45:00 PM 10.43 50.774 0.228 7.7 1.38 10.23
10/28/2020 10:00:00 PM 10.38 50.684 0.228 7.7 1.38 10.18
10/28/2020 10:15:00 PM 10.3 50.54 0.228 7.7 1.46 10.15
10/28/2020 10:30:00 PM 10.24 50.432 0.228 7.69 1.34 10.16
10/28/2020 10:45:00 PM 10.18 50.324 0.229 7.68 1.41 10.13
10/28/2020 11:00:00 PM 10.11 50.198 0.229 7.68 1.38 10.12
10/28/2020 11:15:00 PM 10.05 50.09 0.229 7.68 1.43 10.1
10/28/2020 11:30:00 PM 9.95 49.91 0.229 7.68 1.42 10.07
10/28/2020 11:45:00 PM 9.88 49.784 0.229 7.67 1.38 10.05
10/29/2020 12:00:00 AM 9.83 49.694 0.23 7.67 1.34 10.04
10/29/2020 12:15:00 AM 9.75 49.55 0.23 7.67 1.34 10.03
10/29/2020 12:30:00 AM 9.7 49.46 0.23 7.66 1.34 10.02
10/29/2020 12:45:00 AM 9.64 49.352 0.23 7.66 1.32 10.02
10/29/2020 1:00:00 AM 9.59 49.262 0.23 7.66 1.38 10.04
10/29/2020 1:15:00 AM 9.53 49.154 0.23 7.66 1.35 10.04
10/29/2020 1:30:00 AM 9.48 49.064 0.23 7.66 1.31 10.04
10/29/2020 1:45:00 AM 9.43 48.974 0.23 7.66 1.36 10.05
10/29/2020 2:00:00 AM 9.38 48.884 0.23 7.66 1.39 10.05
10/29/2020 2:15:00 AM 9.32 48.776 0.23 7.66 1.33 10.05
10/29/2020 2:30:00 AM 9.27 48.686 0.23 7.66 1.31 10.05
10/29/2020 2:45:00 AM 9.22 48.596 0.23 7.67 1.33 10.1
10/29/2020 3:00:00 AM 9.17 48.506 0.231 7.67 1.35 10.1
10/29/2020 3:15:00 AM 9.12 48.416 0.231 7.67 1.35 10.16
10/29/2020 3:30:00 AM 9.07 48.326 0.231 7.67 1.35 10.19
10/29/2020 3:45:00 AM 9.04 48.272 0.231 7.67 1.33 10.21
10/29/2020 4:00:00 AM 9 48.2 0.231 7.68 1.35 10.22
10/29/2020 4:15:00 AM 8.97 48.146 0.231 7.68 1.33 10.24
10/29/2020 4:30:00 AM 8.93 48.074 0.231 7.68 1.31 10.26
10/29/2020 4:45:00 AM 8.9 48.02 0.231 7.68 1.35 10.29
10/29/2020 5:00:00 AM 8.86 47.948 0.231 7.68 1.33 10.33
10/29/2020 5:15:00 AM 8.83 47.894 0.231 7.69 1.39 10.34
10/29/2020 5:30:00 AM 8.81 47.858 0.231 7.69 1.41 10.38
10/29/2020 5:45:00 AM 8.79 47.822 0.232 7.69 1.3 10.4
10/29/2020 6:00:00 AM 8.77 47.786 0.232 7.69 1.89 10.4
10/29/2020 6:15:00 AM 8.76 47.768 0.232 7.69 1.34 10.43
10/29/2020 6:30:00 AM 8.74 47.732 0.232 7.69 1.4 10.44
10/29/2020 6:45:00 AM 8.73 47.714 0.232 7.69 1.36 10.44
10/29/2020 7:00:00 AM 8.72 47.696 0.232 7.69 1.45 10.46
10/29/2020 7:15:00 AM 8.71 47.678 0.232 7.7 1.35 10.46
10/29/2020 7:30:00 AM 8.7 47.66 0.232 7.7 1.37 10.49
10/29/2020 7:45:00 AM 8.69 47.642 0.231 7.7 1.85 10.5
10/29/2020 8:00:00 AM 8.68 47.624 0.231 7.7 1.4 10.52
10/29/2020 8:15:00 AM 8.68 47.624 0.231 7.7 1.36 10.52
10/29/2020 8:30:00 AM 8.67 47.606 0.231 7.7 1.53 10.54
10/29/2020 8:45:00 AM 8.67 47.606 0.231 7.7 2.06 10.56
10/29/2020 9:00:00 AM 8.67 47.606 0.231 7.7 1.69 10.57
10/29/2020 9:15:00 AM 8.68 47.624 0.231 7.71 1.49 9.37
10/29/2020 9:30:00 AM 8.69 47.642 0.23 7.71 1.45 10.17
10/29/2020 9:45:00 AM 8.7 47.66 0.23 7.72 1.51 10.19
10/29/2020 10:00:00 AM 8.71 47.678 0.23 7.73 1.5 7.47
10/29/2020 10:15:00 AM 8.72 47.696 0.229 7.73 1.49 5.34
10/29/2020 10:30:00 AM 8.72 47.696 0.228 7.74 1.47 6.62
10/29/2020 10:45:00 AM 8.73 47.714 0.227 7.75 1.49 10.39
10/29/2020 11:00:00 AM 8.73 47.714 0.226 7.76 1.5 9.58
10/29/2020 11:15:00 AM 8.74 47.732 0.224 7.76 1.6 9.28
10/29/2020 11:30:00 AM 8.74 47.732 0.223 7.77 1.54 10.74
10/29/2020 11:45:00 AM 8.76 47.768 0.222 7.77 1.57 10.39
10/29/2020 12:00:00 PM 8.78 47.804 0.221 7.78 1.57 10.56
10/29/2020 12:15:00 PM 8.8 47.84 0.22 7.78 1.66 10.62
10/29/2020 12:30:00 PM 8.82 47.876 0.219 7.79 1.71 10.74
10/29/2020 12:45:00 PM 8.86 47.948 0.217 7.8 1.68 11.11
10/29/2020 1:00:00 PM 8.89 48.002 0.216 7.81 1.83 11.15
10/29/2020 1:15:00 PM 8.94 48.092 0.215 7.81 2.07 11.16
10/29/2020 1:30:00 PM 8.98 48.164 0.214 7.81 1.92 11.2
10/29/2020 1:45:00 PM 9.02 48.236 0.212 7.82 2.3 11.22
10/29/2020 2:00:00 PM 9.05 48.29 0.211 7.82 2.18 11.21
10/29/2020 2:15:00 PM 9.08 48.344 0.21 7.82 2.38 11.21
10/29/2020 2:30:00 PM 9.11 48.398 0.208 7.82 2.88 11.22
10/29/2020 2:45:00 PM 9.17 48.506 0.206 7.82 2.84 11.21
10/29/2020 3:00:00 PM 9.21 48.578 0.206 7.82 3.25 11.18
10/29/2020 3:15:00 PM 9.24 48.632 0.205 7.82 3.26 11.17
10/29/2020 3:30:00 PM 9.26 48.668 0.204 7.81 3.56 11.14
10/29/2020 3:45:00 PM 9.28 48.704 0.203 7.81 7.59 11.13
10/29/2020 4:00:00 PM 9.3 48.74 0.202 7.81 10.21 11.1
10/29/2020 4:15:00 PM 9.32 48.776 0.201 7.81 6.77 11.07
10/29/2020 4:30:00 PM 9.33 48.794 0.201 7.81 7.08 11.05
10/29/2020 4:45:00 PM 9.34 48.812 0.201 7.81 3.49 11.02
10/29/2020 5:00:00 PM 9.37 48.866 0.201 7.8 9.13 10.99
10/29/2020 5:15:00 PM 9.39 48.902 0.202 7.8 6.31 10.98
10/29/2020 5:30:00 PM 9.42 48.956 0.202 7.79 13.09 10.94
10/29/2020 5:45:00 PM 9.46 49.028 0.202 7.79 9.82 10.91
10/29/2020 6:00:00 PM 9.5 49.1 0.202 7.78 16.3 10.86
10/29/2020 6:15:00 PM 9.52 49.136 0.202 7.77 13.29 10.85
10/29/2020 6:30:00 PM 9.55 49.19 0.202 7.76 12.18 10.81
10/29/2020 6:45:00 PM 9.59 49.262 0.202 7.75 7.23 10.78
10/29/2020 7:00:00 PM 9.61 49.298 0.203 7.74 12.95 10.74
10/29/2020 7:15:00 PM 9.64 49.352 0.204 7.75 48.31 10.7
10/29/2020 7:30:00 PM 9.69 49.442 0.206 7.75 62.95 10.64
10/29/2020 7:45:00 PM 9.74 49.532 0.208 7.74 63.9 10.66
10/29/2020 8:00:00 PM 9.76 49.568 0.209 7.73 54.04 10.66
10/29/2020 8:15:00 PM 9.75 49.55 0.21 7.73 12.58 10.68
10/29/2020 8:30:00 PM 9.72 49.496 0.212 7.74 10.09 10.72
10/29/2020 8:45:00 PM 9.67 49.406 0.214 7.74 15.3 10.77
10/29/2020 9:00:00 PM 9.59 49.262 0.217 7.74 25.55 10.8
10/29/2020 9:15:00 PM 9.51 49.118 0.22 7.74 21.45 10.84
10/29/2020 9:30:00 PM 9.45 49.01 0.221 7.73 25.85 10.86
10/29/2020 9:45:00 PM 9.42 48.956 0.223 7.72 24.67 10.87
10/29/2020 10:00:00 PM 9.42 48.956 0.225 7.7 28.41 10.89
10/29/2020 10:15:00 PM 9.44 48.992 0.228 7.7 24.62 10.89
10/29/2020 10:30:00 PM 9.42 48.956 0.233 7.7 29.35 10.91
10/29/2020 10:45:00 PM 9.37 48.866 0.236 7.69 25.58 10.94
10/29/2020 11:00:00 PM 9.31 48.758 0.238 7.69 24.59 10.97
10/29/2020 11:15:00 PM 9.27 48.686 0.238 7.69 24.3 10.99
10/29/2020 11:30:00 PM 9.23 48.614 0.239 7.7 25.01 11
10/29/2020 11:45:00 PM 9.21 48.578 0.24 7.7 493.68 11.01
10/30/2020 12:00:00 AM 9.2 48.56 0.242 7.71 27.72 11.01
10/30/2020 12:15:00 AM 9.18 48.524 0.242 7.71 32.02 11.02
10/30/2020 12:30:00 AM 9.17 48.506 0.241 7.7 24.52 11.02
10/30/2020 12:45:00 AM 9.16 48.488 0.239 7.7 32.38 11.03
10/30/2020 1:00:00 AM 9.15 48.47 0.238 7.69 32.36 11.03
10/30/2020 1:15:00 AM 9.14 48.452 0.236 7.69 39.07 11.03
10/30/2020 1:30:00 AM 9.13 48.434 0.234 7.68 30.26 11.03
10/30/2020 1:45:00 AM 9.11 48.398 0.231 7.68 45.39 11.04
10/30/2020 2:00:00 AM 9.09 48.362 0.229 7.68 38.98 11.04
10/30/2020 2:15:00 AM 9.07 48.326 0.227 7.68 38 11.05
10/30/2020 2:30:00 AM 9.05 48.29 0.224 7.67 32.41 11.05
10/30/2020 2:45:00 AM 9.03 48.254 0.221 7.67 53.66 11.06
10/30/2020 3:00:00 AM 9.01 48.218 0.219 7.67 41.46 11.07
10/30/2020 3:15:00 AM 8.99 48.182 0.216 7.67 36.09 11.07
10/30/2020 3:30:00 AM 8.97 48.146 0.214 7.67 45.91 11.09
10/30/2020 3:45:00 AM 8.95 48.11 0.212 7.66 37.18 11.09
10/30/2020 4:00:00 AM 8.92 48.056 0.21 7.66 34.06 11.11
10/30/2020 4:15:00 AM 8.89 48.002 0.208 7.66 39.3 11.11
10/30/2020 4:30:00 AM 8.87 47.966 0.206 7.66 37.05 11.11
10/30/2020 4:45:00 AM 8.84 47.912 0.205 7.66 31.78 11.12
10/30/2020 5:00:00 AM 8.82 47.876 0.204 7.66 44.67 11.13
10/30/2020 5:15:00 AM 8.79 47.822 0.202 7.66 29.9 11.15
10/30/2020 5:30:00 AM 8.76 47.768 0.201 7.65 31.5 11.16
10/30/2020 5:45:00 AM 8.74 47.732 0.2 7.65 21.09 11.17
10/30/2020 6:00:00 AM 8.72 47.696 0.2 7.65 24.81 11.17
10/30/2020 6:15:00 AM 8.7 47.66 0.199 7.64 23.46 11.17
10/30/2020 6:30:00 AM 8.69 47.642 0.199 7.64 27.47 11.18
10/30/2020 6:45:00 AM 8.69 47.642 0.199 7.64 23.56 11.17
10/30/2020 7:00:00 AM 8.68 47.624 0.199 7.64 18.02 11.18
10/30/2020 7:15:00 AM 8.68 47.624 0.199 7.63 24.09 11.18
10/30/2020 7:30:00 AM 8.67 47.606 0.199 7.63 16.93 11.18
10/30/2020 7:45:00 AM 8.66 47.588 0.199 7.63 20.57 11.19
10/30/2020 8:00:00 AM 8.65 47.57 0.199 7.63 18.14 11.19
10/30/2020 8:15:00 AM 8.65 47.57 0.199 7.63 19.96 11.2
10/30/2020 8:30:00 AM 8.63 47.534 0.199 7.63 18.92 11.2
10/30/2020 8:45:00 AM 8.62 47.516 0.2 7.63 17.85 11.21
10/30/2020 9:00:00 AM 8.6 47.48 0.2 7.63 16.52 11.23
10/30/2020 9:15:00 AM 8.58 47.444 0.201 7.63 19.22 11.25
10/30/2020 9:30:00 AM 8.57 47.426 0.202 7.63 18.44 11.26
10/30/2020 9:45:00 AM 8.55 47.39 0.202 7.63 16.61 11.27
10/30/2020 10:00:00 AM 8.54 47.372 0.203 7.63 38.45 11.28
10/30/2020 10:15:00 AM 8.53 47.354 0.203 7.63 183.76 11.3
10/30/2020 10:30:00 AM 8.53 47.354 0.203 7.64 13.88 11.32
10/30/2020 10:45:00 AM 8.53 47.354 0.204 7.64 14.59 11.34
10/30/2020 11:00:00 AM 8.52 47.336 0.204 7.64 13.38 11.35
10/30/2020 11:15:00 AM 8.55 47.39 0.205 7.65 13.02 11.37
10/30/2020 11:30:00 AM 8.58 47.444 0.205 7.65 13.77 11.4
10/30/2020 11:45:00 AM 8.62 47.516 0.205 7.66 13.54 11.41
10/30/2020 12:00:00 PM 8.66 47.588 0.206 7.66 14.32 11.43
10/30/2020 12:15:00 PM 8.67 47.606 0.206 7.67 12.53 11.44
10/30/2020 12:30:00 PM 8.64 47.552 0.207 7.67 12.12 11.43
10/30/2020 12:45:00 PM 8.62 47.516 0.207 7.67 11.38 11.44
10/30/2020 1:00:00 PM 8.61 47.498 0.207 7.67 11.54 11.45
10/30/2020 1:15:00 PM 8.61 47.498 0.207 7.61 11.16 11.47
10/30/2020 1:30:00 PM 8.6 47.48 0.208 7.62 11.15 11.48
10/30/2020 1:45:00 PM 8.61 47.498 0.208 7.64 10.79 11.49
10/30/2020 2:00:00 PM 8.63 47.534 0.208 7.65 11.27 11.5
10/30/2020 2:15:00 PM 8.66 47.588 0.208 7.66 10.65 11.5
10/30/2020 2:30:00 PM 8.69 47.642 0.208 7.66 10.4 11.5
10/30/2020 2:45:00 PM 8.74 47.732 0.208 7.67 10.52 11.51
10/30/2020 3:00:00 PM 8.73 47.714 0.208 7.67 10.6 11.5
10/30/2020 3:15:00 PM 8.75 47.75 0.208 7.68 16.41 11.5
10/30/2020 3:30:00 PM 8.75 47.75 0.208 7.68 10.76 11.5
10/30/2020 3:45:00 PM 8.75 47.75 0.208 7.68 10.44 11.49
10/30/2020 4:00:00 PM 8.75 47.75 0.208 7.68 10.58 11.48
10/30/2020 4:15:00 PM 8.75 47.75 0.207 7.68 10.33 11.49
10/30/2020 4:30:00 PM 8.74 47.732 0.207 7.68 9.93 11.47
10/30/2020 4:45:00 PM 8.72 47.696 0.207 7.68 152.36 11.42
10/30/2020 5:00:00 PM 8.71 47.678 0.207 7.68 133.98 11.39
10/30/2020 5:15:00 PM 8.7 47.66 0.207 7.68 91.76 11.46
10/30/2020 5:30:00 PM 8.68 47.624 0.206 7.68 9.26 11.44
10/30/2020 5:45:00 PM 8.66 47.588 0.206 7.67 8.75 11.43
10/30/2020 6:00:00 PM 8.63 47.534 0.206 7.67 9.42 11.43
10/30/2020 6:15:00 PM 8.6 47.48 0.205 7.66 8.48 11.41
10/30/2020 6:30:00 PM 8.56 47.408 0.205 7.66 8.47 11.39
10/30/2020 6:45:00 PM 8.53 47.354 0.205 7.65 8.33 11.4
10/30/2020 7:00:00 PM 8.49 47.282 0.205 7.65 8.48 11.41
10/30/2020 7:15:00 PM 8.46 47.228 0.204 7.65 18.47 11.41
10/30/2020 7:30:00 PM 8.43 47.174 0.205 7.65 29.59 11.41
10/30/2020 7:45:00 PM 8.4 47.12 0.204 7.64 7.96 11.41
10/30/2020 8:00:00 PM 8.36 47.048 0.204 7.64 7.84 11.42
10/30/2020 8:15:00 PM 8.34 47.012 0.204 7.64 8.05 11.43
10/30/2020 8:30:00 PM 8.32 46.976 0.204 7.63 7.88 11.43
10/30/2020 8:45:00 PM 8.3 46.94 0.204 7.63 7.58 11.43
10/30/2020 9:00:00 PM 8.28 46.904 0.203 7.63 7.6 11.45
10/30/2020 9:15:00 PM 8.26 46.868 0.203 7.63 7.65 11.42
10/30/2020 9:30:00 PM 8.24 46.832 0.203 7.63 7.88 11.45
10/30/2020 9:45:00 PM 8.22 46.796 0.203 7.63 7.62 11.46
10/30/2020 10:00:00 PM 8.2 46.76 0.203 7.63 7.49 11.46
10/30/2020 10:15:00 PM 8.18 46.724 0.203 7.63 7.41 11.48
10/30/2020 10:30:00 PM 8.16 46.688 0.203 7.63 7.34 11.49
10/30/2020 10:45:00 PM 8.14 46.652 0.202 7.63 7.31 11.45
10/30/2020 11:00:00 PM 8.12 46.616 0.202 7.63 7.42 11.51
10/30/2020 11:15:00 PM 8.1 46.58 0.202 7.63 7.24 11.51
10/30/2020 11:30:00 PM 8.08 46.544 0.202 7.63 7.23 11.51
10/30/2020 11:45:00 PM 8.06 46.508 0.202 7.62 7.26 11.51
10/31/2020 12:00:00 AM 8.04 46.472 0.202 7.62 6.76 11.52
10/31/2020 12:15:00 AM 8.02 46.436 0.202 7.62 6.88 11.51
10/31/2020 12:30:00 AM 8 46.4 0.202 7.62 7.08 11.52
10/31/2020 12:45:00 AM 7.98 46.364 0.202 7.62 6.69 11.56
10/31/2020 1:00:00 AM 7.97 46.346 0.203 7.62 6.9 11.53
10/31/2020 1:15:00 AM 7.95 46.31 0.203 7.62 6.89 11.56
10/31/2020 1:30:00 AM 7.93 46.274 0.203 7.62 6.93 11.57
10/31/2020 1:45:00 AM 7.92 46.256 0.203 7.63 6.89 11.57
10/31/2020 2:00:00 AM 7.9 46.22 0.202 7.63 6.9 11.58
10/31/2020 2:15:00 AM 7.88 46.184 0.203 7.63 6.35 11.58
10/31/2020 2:30:00 AM 7.86 46.148 0.203 7.63 6.68 11.58
10/31/2020 2:45:00 AM 7.84 46.112 0.203 7.63 6.21 11.59
10/31/2020 3:00:00 AM 7.82 46.076 0.203 7.63 6.09 11.6
10/31/2020 3:15:00 AM 7.79 46.022 0.203 7.64 6.16 11.6
10/31/2020 3:30:00 AM 7.77 45.986 0.203 7.64 5.98 11.57
10/31/2020 3:45:00 AM 7.76 45.968 0.203 7.64 6.53 11.61
10/31/2020 4:00:00 AM 7.74 45.932 0.203 7.64 6.27 11.64
10/31/2020 4:15:00 AM 7.73 45.914 0.203 7.64 6.29 11.61
10/31/2020 4:30:00 AM 7.71 45.878 0.204 7.64 6.22 11.6
10/31/2020 4:45:00 AM 7.7 45.86 0.204 7.64 6.29 11.64
10/31/2020 5:00:00 AM 7.68 45.824 0.204 7.64 6.01 11.65
10/31/2020 5:15:00 AM 7.66 45.788 0.204 7.64 5.87 11.65
10/31/2020 5:30:00 AM 7.65 45.77 0.204 7.64 6.33 11.67
10/31/2020 5:45:00 AM 7.63 45.734 0.204 7.64 6.01 11.66
10/31/2020 6:00:00 AM 7.61 45.698 0.204 7.65 5.89 11.64
10/31/2020 6:15:00 AM 7.6 45.68 0.205 7.64 5.84 11.69
10/31/2020 6:30:00 AM 7.58 45.644 0.204 7.65 5.56 11.61
10/31/2020 6:45:00 AM 7.56 45.608 0.204 7.65 6.14 11.69
10/31/2020 7:00:00 AM 7.54 45.572 0.205 7.64 5.88 11.64
10/31/2020 7:15:00 AM 7.52 45.536 0.205 7.65 5.92 11.73
10/31/2020 7:30:00 AM 7.51 45.518 0.205 7.64 5.75 11.71
10/31/2020 7:45:00 AM 7.49 45.482 0.205 7.64 6.87 11.75
10/31/2020 8:00:00 AM 7.48 45.464 0.205 7.64 6.47 11.76
10/31/2020 8:15:00 AM 7.46 45.428 0.205 7.64 19 11.77
10/31/2020 8:30:00 AM 7.46 45.428 0.205 7.64 5.14 11.8
10/31/2020 8:45:00 AM 7.46 45.428 0.205 7.65 5.02 11.82
10/31/2020 9:00:00 AM 7.46 45.428 0.205 7.65 5.32 11.83
10/31/2020 9:15:00 AM 7.48 45.464 0.205 7.66 4.94 11.87
10/31/2020 9:30:00 AM 7.5 45.5 0.205 7.67 4.8 11.9
10/31/2020 9:45:00 AM 7.54 45.572 0.206 7.68 5.54 11.94
10/31/2020 10:00:00 AM 7.58 45.644 0.206 7.68 56.72 11.95
10/31/2020 10:15:00 AM 7.64 45.752 0.206 7.7 7.17 11.98
10/31/2020 10:30:00 AM 7.7 45.86 0.206 7.71 5.39 12
10/31/2020 10:45:00 AM 7.76 45.968 0.206 7.71 4.56 12.02
10/31/2020 11:00:00 AM 7.8 46.04 0.207 7.72 4.49 12.03
10/31/2020 11:15:00 AM 7.85 46.13 0.206 7.73 5.08 12.03
10/31/2020 11:30:00 AM 7.91 46.238 0.207 7.74 7.08 12.03
10/31/2020 11:45:00 AM 7.98 46.364 0.207 7.74 4.64 12.04
10/31/2020 12:00:00 PM 8.05 46.49 0.207 7.75 4.96 12
10/31/2020 12:15:00 PM 8.14 46.652 0.207 7.75 4.65 12.03
10/31/2020 12:30:00 PM 8.21 46.778 0.207 7.76 5.61 12.03
10/31/2020 12:45:00 PM 8.26 46.868 0.207 7.76 6.5 12.03
10/31/2020 1:00:00 PM 8.32 46.976 0.207 7.77 9.62 12.02
10/31/2020 1:15:00 PM 8.4 47.12 0.207 7.77 5.98 12.02
10/31/2020 1:30:00 PM 8.46 47.228 0.207 7.78 4.15 11.99
10/31/2020 1:45:00 PM 8.54 47.372 0.208 7.78 4.16 11.99
10/31/2020 2:00:00 PM 8.63 47.534 0.208 7.78 3.98 11.95
10/31/2020 2:15:00 PM 8.67 47.606 0.208 7.79 4.14 11.93
10/31/2020 2:30:00 PM 8.69 47.642 0.208 7.79 4.15 11.9
10/31/2020 2:45:00 PM 8.7 47.66 0.208 7.79 4.17 11.89
10/31/2020 3:00:00 PM 8.67 47.606 0.208 7.79 4.07 11.87
10/31/2020 3:15:00 PM 8.62 47.516 0.209 7.78 3.96 11.81
10/31/2020 3:30:00 PM 8.57 47.426 0.208 7.78 3.94 11.86
10/31/2020 3:45:00 PM 8.53 47.354 0.208 7.78 4.22 11.83
10/31/2020 4:00:00 PM 8.48 47.264 0.208 7.78 4.29 11.82
10/31/2020 4:15:00 PM 8.43 47.174 0.209 7.78 3.77 11.81
10/31/2020 4:30:00 PM 8.39 47.102 0.209 7.77 3.91 11.8
10/31/2020 4:45:00 PM 8.33 46.994 0.209 7.77 3.97 11.79
10/31/2020 5:00:00 PM 8.27 46.886 0.209 7.77 3.82 11.77
10/31/2020 5:15:00 PM 8.21 46.778 0.209 7.76 4.15 11.71
10/31/2020 5:30:00 PM 8.16 46.688 0.209 7.76 4.27 11.74
10/31/2020 5:45:00 PM 8.12 46.616 0.209 7.76 6.48 11.73
10/31/2020 6:00:00 PM 8.07 46.526 0.209 7.75 3.9 11.72
10/31/2020 6:15:00 PM 8.02 46.436 0.21 7.74 3.69 11.7
10/31/2020 6:30:00 PM 7.97 46.346 0.21 7.74 3.92 11.68
10/31/2020 6:45:00 PM 7.91 46.238 0.21 7.73 3.68 11.67
10/31/2020 7:00:00 PM 7.86 46.148 0.21 7.73 4.78 11.66
10/31/2020 7:15:00 PM 7.82 46.076 0.21 7.69 3.91 11.65
10/31/2020 7:30:00 PM 7.77 45.986 0.21 7.71 3.7 11.64
10/31/2020 7:45:00 PM 7.72 45.896 0.21 7.71 3.61 11.64
10/31/2020 8:00:00 PM 7.66 45.788 0.21 7.71 3.75 11.66
10/31/2020 8:15:00 PM 7.61 45.698 0.21 7.7 4.38 11.5
10/31/2020 8:30:00 PM 7.56 45.608 0.21 7.7 3.56 11.67
10/31/2020 8:45:00 PM 7.51 45.518 0.21 7.7 3.44 11.68
10/31/2020 9:00:00 PM 7.46 45.428 0.21 7.7 3.68 11.67
10/31/2020 9:15:00 PM 7.41 45.338 0.211 7.7 3.85 11.69
10/31/2020 9:30:00 PM 7.37 45.266 0.21 7.7 3.83 11.7
10/31/2020 9:45:00 PM 7.34 45.212 0.21 7.7 3.51 11.7
10/31/2020 10:00:00 PM 7.3 45.14 0.21 7.7 3.52 11.7
10/31/2020 10:15:00 PM 7.28 45.104 0.211 7.7 3.57 11.72
10/31/2020 10:30:00 PM 7.24 45.032 0.211 7.7 3.29 11.7
10/31/2020 10:45:00 PM 7.21 44.978 0.211 7.7 3.26 11.67
10/31/2020 11:00:00 PM 7.18 44.924 0.211 7.7 3.5 11.73
10/31/2020 11:15:00 PM 7.14 44.852 0.211 7.7 3.54 11.74
10/31/2020 11:30:00 PM 7.11 44.798 0.211 7.7 3.63 11.76
10/31/2020 11:45:00 PM 7.08 44.744 0.211 7.7 3.39 11.76
11/1/2020 12:00:00 AM 7.05 44.69 0.211 7.7 3.41 11.77
11/1/2020 12:15:00 AM 7.02 44.636 0.211 7.7 3.73 11.78
11/1/2020 12:30:00 AM 6.98 44.564 0.211 7.7 3.51 11.78
11/1/2020 12:45:00 AM 6.96 44.528 0.211 7.7 4.26 11.79
11/1/2020 1:00:00 AM 6.93 44.474 0.211 7.7 3.55 11.79
11/1/2020 1:15:00 AM 6.9 44.42 0.211 7.7 3.7 11.8
11/1/2020 1:30:00 AM 6.87 44.366 0.211 7.7 3.68 11.8
11/1/2020 1:45:00 AM 6.84 44.312 0.211 7.7 3.54 11.82
11/1/2020 2:00:00 AM 6.81 44.258 0.212 7.7 3.53 11.81
11/1/2020 2:15:00 AM 6.79 44.222 0.212 7.7 3.42 11.83
11/1/2020 2:30:00 AM 6.76 44.168 0.212 7.71 3.28 11.84
11/1/2020 2:45:00 AM 6.74 44.132 0.212 7.7 3.41 11.86
11/1/2020 3:00:00 AM 6.72 44.096 0.212 7.7 3.41 11.86
11/1/2020 3:15:00 AM 6.7 44.06 0.212 7.7 3.25 11.85
11/1/2020 3:30:00 AM 6.73 44.114 0.213 7.71 3.43 11.88
11/1/2020 3:45:00 AM 6.73 44.114 0.214 7.71 3.26 11.87
11/1/2020 4:00:00 AM 6.74 44.132 0.214 7.71 3.36 11.87
11/1/2020 4:15:00 AM 6.73 44.114 0.214 7.71 3.06 11.87
11/1/2020 4:30:00 AM 6.74 44.132 0.214 7.71 3.33 11.87
11/1/2020 4:45:00 AM 6.75 44.15 0.215 7.71 3.61 11.79
11/1/2020 5:00:00 AM 6.76 44.168 0.214 7.71 2.98 11.85
11/1/2020 5:15:00 AM 6.78 44.204 0.215 7.71 3.07 11.84
11/1/2020 5:30:00 AM 6.79 44.222 0.215 7.71 3.16 11.85
11/1/2020 5:45:00 AM 6.81 44.258 0.215 7.71 3.08 11.84
11/1/2020 6:00:00 AM 6.81 44.258 0.215 7.71 3.07 11.72
11/1/2020 6:15:00 AM 6.81 44.258 0.215 7.71 3.03 11.82
11/1/2020 6:30:00 AM 6.82 44.276 0.215 7.7 7.36 11.81
11/1/2020 6:45:00 AM 6.82 44.276 0.215 7.71 30.62 11.8
11/1/2020 7:00:00 AM 6.82 44.276 0.215 7.71 2.82 11.82
11/1/2020 7:15:00 AM 6.83 44.294 0.215 7.71 2.8 11.82
11/1/2020 7:30:00 AM 6.84 44.312 0.215 7.7 2.64 11.82
11/1/2020 7:45:00 AM 6.86 44.348 0.215 7.72 95.76 11.83
11/1/2020 8:00:00 AM 6.87 44.366 0.214 7.72 25.36 11.85
11/1/2020 8:15:00 AM 6.91 44.438 0.215 7.73 2.73 11.88
11/1/2020 8:30:00 AM 7.02 44.636 0.215 7.74 2.57 11.92
11/1/2020 8:45:00 AM 7.15 44.87 0.215 7.75 2.61 11.96
11/1/2020 9:00:00 AM 7.33 45.194 0.215 7.75 2.59 11.99
11/1/2020 9:15:00 AM 7.46 45.428 0.214 7.77 2.58 12.02
11/1/2020 9:30:00 AM 7.57 45.626 0.215 7.78 5.15 12.04
11/1/2020 9:45:00 AM 7.67 45.806 0.215 7.79 2.66 12.04
11/1/2020 10:00:00 AM 7.77 45.986 0.215 7.8 2.76 12.05
11/1/2020 10:15:00 AM 7.93 46.274 0.215 7.81 2.55 12.03
11/1/2020 10:30:00 AM 8.03 46.454 0.215 7.82 2.58 12.02
11/1/2020 10:45:00 AM 8.1 46.58 0.215 7.82 10.17 11.99
11/1/2020 11:00:00 AM 8.15 46.67 0.215 7.82 2.56 11.86
11/1/2020 11:15:00 AM 8.19 46.742 0.215 7.83 2.46 11.93
11/1/2020 11:30:00 AM 8.23 46.814 0.215 7.83 4.19 11.89
11/1/2020 11:45:00 AM 8.24 46.832 0.215 7.84 2.54 11.87
11/1/2020 12:00:00 PM 8.24 46.832 0.215 7.84 2.55 11.87
11/1/2020 12:15:00 PM 8.23 46.814 0.216 7.83 211.1 11.83
11/1/2020 12:30:00 PM 8.24 46.832 0.216 7.83 2.68 11.81
11/1/2020 12:45:00 PM 8.25 46.85 0.216 7.82 2.43 11.78
11/1/2020 1:00:00 PM 8.24 46.832 0.216 7.82 2.64 11.71
11/1/2020 1:15:00 PM 8.27 46.886 0.216 7.83 2.43 11.5
11/1/2020 1:30:00 PM 8.31 46.958 0.216 7.83 2.47 11.73
11/1/2020 1:45:00 PM 8.36 47.048 0.216 7.83 2.47 11.72
11/1/2020 2:00:00 PM 8.39 47.102 0.216 7.83 2.89 11.71
11/1/2020 2:15:00 PM 8.43 47.174 0.216 7.83 2.39 11.75
11/1/2020 2:30:00 PM 8.45 47.21 0.215 7.83 2.44 11.73
11/1/2020 2:45:00 PM 8.45 47.21 0.215 7.84 2.62 11.71
11/1/2020 3:00:00 PM 8.47 47.246 0.215 7.83 2.42 11.68
11/1/2020 3:15:00 PM 8.51 47.318 0.215 7.84 2.41 11.69
11/1/2020 3:30:00 PM 8.49 47.282 0.215 7.83 2.38 11.65
11/1/2020 3:45:00 PM 8.48 47.264 0.215 7.83 2.35 11.63
11/1/2020 4:00:00 PM 8.47 47.246 0.215 7.83 2.66 11.62
11/1/2020 4:15:00 PM 8.43 47.174 0.215 7.82 2.59 11.58
11/1/2020 4:30:00 PM 8.39 47.102 0.215 7.82 2.67 11.57
11/1/2020 4:45:00 PM 8.32 46.976 0.216 7.81 2.65 11.55
11/1/2020 5:00:00 PM 8.27 46.886 0.216 7.8 2.44 11.53
11/1/2020 5:15:00 PM 8.22 46.796 0.216 7.79 2.48 11.52
11/1/2020 5:30:00 PM 8.17 46.706 0.216 7.79 2.58 11.5
11/1/2020 5:45:00 PM 8.12 46.616 0.216 7.78 2.41 11.48
11/1/2020 6:00:00 PM 8.06 46.508 0.216 7.78 2.24 11.47
11/1/2020 6:15:00 PM 7.99 46.382 0.216 7.77 2.35 11.45
11/1/2020 6:30:00 PM 7.91 46.238 0.216 7.76 2.82 11.45
11/1/2020 6:45:00 PM 7.83 46.094 0.216 7.76 2.66 11.46
11/1/2020 7:00:00 PM 7.76 45.968 0.216 7.75 2.35 11.46
11/1/2020 7:15:00 PM 7.69 45.842 0.216 7.75 2.87 11.47
11/1/2020 7:30:00 PM 7.61 45.698 0.216 7.75 2.38 11.48
11/1/2020 7:45:00 PM 7.55 45.59 0.216 7.74 2.67 11.49
11/1/2020 8:00:00 PM 7.5 45.5 0.217 7.74 2.49 11.49
11/1/2020 8:15:00 PM 7.46 45.428 0.217 7.73 2.35 11.5
11/1/2020 8:30:00 PM 7.4 45.32 0.217 7.73 2.41 11.51
11/1/2020 8:45:00 PM 7.34 45.212 0.217 7.73 2.53 11.53
11/1/2020 9:00:00 PM 7.28 45.104 0.217 7.73 2.58 11.55
11/1/2020 9:15:00 PM 7.21 44.978 0.217 7.73 2.55 11.57
11/1/2020 9:30:00 PM 7.14 44.852 0.217 7.73 2.22 11.57
11/1/2020 9:45:00 PM 7.08 44.744 0.217 7.73 2.23 11.59
11/1/2020 10:00:00 PM 7.02 44.636 0.218 7.73 2.21 11.59
11/1/2020 10:15:00 PM 6.98 44.564 0.218 7.73 2.17 11.58
11/1/2020 10:30:00 PM 6.92 44.456 0.218 7.73 2.33 11.63
11/1/2020 10:45:00 PM 6.85 44.33 0.218 7.73 2.18 11.64
11/1/2020 11:00:00 PM 6.8 44.24 0.218 7.73 2.25 11.65
11/1/2020 11:15:00 PM 6.75 44.15 0.218 7.73 2.21 11.66
11/1/2020 11:30:00 PM 6.71 44.078 0.218 7.73 2.15 11.66
11/1/2020 11:45:00 PM 6.68 44.024 0.218 7.73 2.19 11.69
11/2/2020 12:00:00 AM 6.65 43.97 0.219 7.73 2.08 11.3
11/2/2020 12:15:00 AM 6.63 43.934 0.218 7.73 2.09 11.69
11/2/2020 12:30:00 AM 6.62 43.916 0.219 7.73 2.12 11.71
11/2/2020 12:45:00 AM 6.62 43.916 0.219 7.73 2.09 11.63
11/2/2020 1:00:00 AM 6.62 43.916 0.219 7.73 2.15 11.72
11/2/2020 1:15:00 AM 6.62 43.916 0.219 7.73 2.2 11.73
11/2/2020 1:30:00 AM 6.61 43.898 0.219 7.73 2.16 11.5
11/2/2020 1:45:00 AM 6.61 43.898 0.219 7.73 2.08 11.71
11/2/2020 2:00:00 AM 6.6 43.88 0.219 7.73 2.34 11.74
11/2/2020 2:15:00 AM 6.6 43.88 0.219 7.73 2.2 11.73
11/2/2020 2:30:00 AM 6.59 43.862 0.219 7.73 2.2 11.27
11/2/2020 2:45:00 AM 6.59 43.862 0.22 7.73 2.25 11.72
11/2/2020 3:00:00 AM 6.58 43.844 0.22 7.73 2.07 11.47
11/2/2020 3:15:00 AM 6.57 43.826 0.22 7.73 2.09 11.71
11/2/2020 3:30:00 AM 6.56 43.808 0.22 7.73 2.27 11.66
11/2/2020 3:45:00 AM 6.53 43.754 0.22 7.73 2.09 11.75
11/2/2020 4:00:00 AM 6.49 43.682 0.22 7.73 2.08 11.72
11/2/2020 4:15:00 AM 6.44 43.592 0.22 7.73 2.13 11.76
11/2/2020 4:30:00 AM 6.39 43.502 0.22 7.73 2.1 11.78
11/2/2020 4:45:00 AM 6.34 43.412 0.22 7.73 2.07 11.79
11/2/2020 5:00:00 AM 6.29 43.322 0.22 7.73 2.04 11.71
11/2/2020 5:15:00 AM 6.24 43.232 0.22 7.73 2.07 11.7
11/2/2020 5:30:00 AM 6.19 43.142 0.22 7.73 2.19 11.82
11/2/2020 5:45:00 AM 6.15 43.07 0.22 7.73 2.57 11.85
11/2/2020 6:00:00 AM 6.11 42.998 0.22 7.74 2.01 11.87
11/2/2020 6:15:00 AM 6.07 42.926 0.22 7.74 2 11.83
11/2/2020 6:30:00 AM 6.03 42.854 0.221 7.73 2.06 11.89
11/2/2020 6:45:00 AM 5.97 42.746 0.22 7.73 2.05 11.93
11/2/2020 7:00:00 AM 5.92 42.656 0.221 7.74 2.04 11.95
11/2/2020 7:15:00 AM 5.88 42.584 0.221 7.74 2.07 11.98
11/2/2020 7:30:00 AM 5.81 42.458 0.221 7.74 2.03 12.01
11/2/2020 7:45:00 AM 5.74 42.332 0.221 7.75 2 12.04
11/2/2020 8:00:00 AM 5.71 42.278 0.221 7.76 1.97 12.12
11/2/2020 8:15:00 AM 5.68 42.224 0.221 7.76 2.05 12.18
11/2/2020 8:30:00 AM 5.68 42.224 0.221 7.77 1.93 12.25
11/2/2020 8:45:00 AM 5.71 42.278 0.221 7.78 1.96 12.31
11/2/2020 9:00:00 AM 5.72 42.296 0.221 7.79 1.97 12.37
11/2/2020 9:15:00 AM 5.73 42.314 0.221 7.8 1.94 12.4
11/2/2020 9:30:00 AM 5.75 42.35 0.221 7.81 2.01 12.44
11/2/2020 9:45:00 AM 5.76 42.368 0.221 7.82 1.99 12.5
11/2/2020 10:00:00 AM 5.78 42.404 0.221 7.83 1.97 12.52
11/2/2020 10:15:00 AM 5.8 42.44 0.221 7.84 1.91 12.55
11/2/2020 10:30:00 AM 5.83 42.494 0.221 7.84 1.98 12.46
11/2/2020 10:45:00 AM 5.98 42.764 0.221 7.85 1.91 12.6
11/2/2020 11:00:00 AM 6.17 43.106 0.221 7.86 1.88 12.6
11/2/2020 11:15:00 AM 6.35 43.43 0.221 7.86 1.93 12.47
11/2/2020 11:30:00 AM 6.51 43.718 0.221 7.87 1.93 12.5
11/2/2020 11:45:00 AM 6.7 44.06 0.221 7.87 1.9 12.53
11/2/2020 12:00:00 PM 6.87 44.366 0.221 7.88 1.86 12.48
11/2/2020 12:15:00 PM 6.98 44.564 0.221 7.88 1.9 12.52
11/2/2020 12:30:00 PM 7.08 44.744 0.221 7.88 1.88 12.45
11/2/2020 12:45:00 PM 7.21 44.978 0.221 7.88 1.88 12.46
11/2/2020 1:00:00 PM 7.29 45.122 0.221 7.89 1.81 12.44
11/2/2020 1:15:00 PM 7.29 45.122 0.221 7.89 1.82 12.41
11/2/2020 1:30:00 PM 7.27 45.086 0.221 7.89 1.88 12.39
11/2/2020 1:45:00 PM 7.28 45.104 0.221 7.89 6.78 12.34
11/2/2020 2:00:00 PM 7.24 45.032 0.221 7.89 1.79 12.35
11/2/2020 2:15:00 PM 7.22 44.996 0.221 7.9 1.76 12.34
11/2/2020 2:30:00 PM 7.18 44.924 0.221 7.9 1.84 12.33
11/2/2020 2:45:00 PM 7.13 44.834 0.221 7.9 1.85 12.31
11/2/2020 3:00:00 PM 7.12 44.816 0.221 7.9 1.72 12.32
11/2/2020 3:15:00 PM 7.1 44.78 0.221 7.9 1.94 12.29
11/2/2020 3:30:00 PM 7.07 44.726 0.221 7.9 1.82 12.29
11/2/2020 3:45:00 PM 7.04 44.672 0.222 7.9 1.85 12.25
11/2/2020 4:00:00 PM 6.99 44.582 0.221 7.9 1.83 12.27
11/2/2020 4:15:00 PM 6.93 44.474 0.221 7.89 1.81 12.24
11/2/2020 4:30:00 PM 6.88 44.384 0.222 7.88 1.8 12.16
11/2/2020 4:45:00 PM 6.83 44.294 0.222 7.88 1.83 12.2
11/2/2020 5:00:00 PM 6.77 44.186 0.222 7.87 3.38 12.17
11/2/2020 5:15:00 PM 6.71 44.078 0.223 7.85 1.83 12.14
11/2/2020 5:30:00 PM 6.65 43.97 0.223 7.85 1.86 12.1
11/2/2020 5:45:00 PM 6.59 43.862 0.223 7.84 1.84 12.08
11/2/2020 6:00:00 PM 6.53 43.754 0.223 7.83 1.79 12.05
11/2/2020 6:15:00 PM 6.47 43.646 0.223 7.82 1.81 12.02
11/2/2020 6:30:00 PM 6.42 43.556 0.223 7.81 1.88 12
11/2/2020 6:45:00 PM 6.37 43.466 0.223 7.8 1.91 11.91
11/2/2020 7:00:00 PM 6.33 43.394 0.223 7.8 1.79 11.98
11/2/2020 7:15:00 PM 6.3 43.34 0.223 7.79 1.87 11.97
11/2/2020 7:30:00 PM 6.27 43.286 0.223 7.78 1.91 11.96
11/2/2020 7:45:00 PM 6.24 43.232 0.223 7.78 1.96 11.97
11/2/2020 8:00:00 PM 6.2 43.16 0.223 7.77 1.87 11.94
11/2/2020 8:15:00 PM 6.17 43.106 0.223 7.77 1.83 11.97
11/2/2020 8:30:00 PM 6.14 43.052 0.223 7.77 1.84 11.96
11/2/2020 8:45:00 PM 6.12 43.016 0.223 7.76 1.81 11.97
11/2/2020 9:00:00 PM 6.09 42.962 0.223 7.76 1.85 11.97
11/2/2020 9:15:00 PM 6.05 42.89 0.223 7.76 1.83 11.97
11/2/2020 9:30:00 PM 6.01 42.818 0.223 7.76 1.83 11.98
11/2/2020 9:45:00 PM 5.98 42.764 0.223 7.76 1.85 11.98
11/2/2020 10:00:00 PM 5.94 42.692 0.223 7.76 1.88 11.99
11/2/2020 10:15:00 PM 5.91 42.638 0.223 7.76 1.81 11.98
11/2/2020 10:30:00 PM 5.88 42.584 0.223 7.76 1.81 12
11/2/2020 10:45:00 PM 5.87 42.566 0.223 7.75 1.84 11.99
11/2/2020 11:00:00 PM 5.85 42.53 0.223 7.75 1.82 12
11/2/2020 11:15:00 PM 5.83 42.494 0.223 7.75 1.81 11.97
11/2/2020 11:30:00 PM 5.8 42.44 0.223 7.75 1.78 12.02
11/2/2020 11:45:00 PM 5.78 42.404 0.223 7.75 1.82 11.97
11/3/2020 12:00:00 AM 5.77 42.386 0.223 7.75 1.91 12.03
11/3/2020 12:15:00 AM 5.75 42.35 0.223 7.75 1.89 12.05
11/3/2020 12:30:00 AM 5.74 42.332 0.223 7.75 1.92 12
11/3/2020 12:45:00 AM 5.72 42.296 0.223 7.75 1.81 12.05
11/3/2020 1:00:00 AM 5.7 42.26 0.223 7.75 1.81 12.06
11/3/2020 1:15:00 AM 5.68 42.224 0.223 7.75 1.81 12.07
11/3/2020 1:30:00 AM 5.66 42.188 0.223 7.75 1.84 12.07
11/3/2020 1:45:00 AM 5.65 42.17 0.224 7.75 1.81 12.07
11/3/2020 2:00:00 AM 5.64 42.152 0.224 7.75 1.79 11.96
11/3/2020 2:15:00 AM 5.63 42.134 0.223 7.75 1.83 12.09
11/3/2020 2:30:00 AM 5.62 42.116 0.224 7.75 1.85 12.09
11/3/2020 2:45:00 AM 5.61 42.098 0.224 7.75 1.8 12.1
11/3/2020 3:00:00 AM 5.59 42.062 0.224 7.75 1.77 12.09
11/3/2020 3:15:00 AM 5.57 42.026 0.224 7.75 1.78 12.1
11/3/2020 3:30:00 AM 5.55 41.99 0.224 7.75 1.84 12.11
11/3/2020 3:45:00 AM 5.54 41.972 0.224 7.75 1.83 12.1
11/3/2020 4:00:00 AM 5.52 41.936 0.224 7.75 1.81 12.11
11/3/2020 4:15:00 AM 5.5 41.9 0.224 7.75 1.83 12.12
11/3/2020 4:30:00 AM 5.48 41.864 0.224 7.75 1.78 12.13
11/3/2020 4:45:00 AM 5.46 41.828 0.224 7.75 1.82 12.13
11/3/2020 5:00:00 AM 5.45 41.81 0.224 7.75 1.79 12.14
11/3/2020 5:15:00 AM 5.44 41.792 0.224 7.75 1.85 12.15
11/3/2020 5:30:00 AM 5.44 41.792 0.225 7.75 1.77 12.14
11/3/2020 5:45:00 AM 5.46 41.828 0.224 7.75 1.78 12.15
11/3/2020 6:00:00 AM 5.47 41.846 0.224 7.75 1.83 12.16
11/3/2020 6:15:00 AM 5.49 41.882 0.224 7.75 1.74 12.17
11/3/2020 6:30:00 AM 5.52 41.936 0.225 7.73 1.67 12.13
11/3/2020 6:45:00 AM 5.54 41.972 0.224 7.74 1.73 12.17
11/3/2020 7:00:00 AM 5.57 42.026 0.225 7.75 1.81 12.14
11/3/2020 7:15:00 AM 5.6 42.08 0.225 7.74 1.73 11.72
11/3/2020 7:30:00 AM 5.63 42.134 0.224 7.75 1.73 12.19
11/3/2020 7:45:00 AM 5.67 42.206 0.225 7.75 1.69 12.17
11/3/2020 8:00:00 AM 5.71 42.278 0.224 7.76 1.71 12.11
11/3/2020 8:15:00 AM 5.74 42.332 0.225 7.76 1.69 12.21
11/3/2020 8:30:00 AM 5.78 42.404 0.225 7.76 1.69 12.23
11/3/2020 8:45:00 AM 5.83 42.494 0.224 7.77 1.75 12.24
11/3/2020 9:00:00 AM 5.87 42.566 0.224 7.77 1.65 12.26
11/3/2020 9:15:00 AM 5.91 42.638 0.224 7.77 1.63 12.24
11/3/2020 9:30:00 AM 5.96 42.728 0.224 7.78 1.64 12.28
11/3/2020 9:45:00 AM 6 42.8 0.224 7.79 1.65 12.27
11/3/2020 10:00:00 AM 6.03 42.854 0.224 7.79 1.65 12.31
11/3/2020 10:15:00 AM 6.07 42.926 0.224 7.8 1.6 12.12
11/3/2020 10:30:00 AM 6.11 42.998 0.224 7.8 1.63 12.35
11/3/2020 10:45:00 AM 6.15 43.07 0.224 7.81 1.59 12.33
11/3/2020 11:00:00 AM 6.2 43.16 0.224 7.81 1.61 12.38
11/3/2020 11:15:00 AM 6.29 43.322 0.224 7.83 1.6 12.43
11/3/2020 11:30:00 AM 6.42 43.556 0.224 7.83 1.62 12.44
11/3/2020 11:45:00 AM 6.57 43.826 0.224 7.85 1.65 12.46
11/3/2020 12:00:00 PM 6.76 44.168 0.224 7.82 60.29 12.5
11/3/2020 12:15:00 PM 6.92 44.456 0.224 7.86 1.57 12.51
11/3/2020 12:30:00 PM 7.03 44.654 0.224 7.88 1.54 12.45
11/3/2020 12:45:00 PM 7.15 44.87 0.224 7.88 1.65 12.5
11/3/2020 1:00:00 PM 7.21 44.978 0.224 7.89 1.56 12.52
11/3/2020 1:15:00 PM 7.27 45.086 0.224 7.9 1.6 12.51
11/3/2020 1:30:00 PM 7.3 45.14 0.224 7.91 1.58 12.46
11/3/2020 1:45:00 PM 7.34 45.212 0.224 7.92 1.59 12.48
11/3/2020 2:00:00 PM 7.37 45.266 0.224 7.92 1.56 12.48
11/3/2020 2:15:00 PM 7.42 45.356 0.224 7.93 2.02 12.45
11/3/2020 2:30:00 PM 7.49 45.482 0.224 7.94 1.58 12.48
11/3/2020 2:45:00 PM 7.57 45.626 0.224 7.93 1.56 12.46
11/3/2020 3:00:00 PM 7.66 45.788 0.224 7.94 1.63 12.46
11/3/2020 3:15:00 PM 7.72 45.896 0.224 7.95 1.57 12.43
11/3/2020 3:30:00 PM 7.73 45.914 0.224 7.95 1.59 12.44
11/3/2020 3:45:00 PM 7.7 45.86 0.225 7.95 1.61 12.41
11/3/2020 4:00:00 PM 7.64 45.752 0.225 7.95 1.58 12.33
11/3/2020 4:15:00 PM 7.53 45.554 0.225 7.95 1.64 12.38
11/3/2020 4:30:00 PM 7.42 45.356 0.225 7.94 1.62 12.18
11/3/2020 4:45:00 PM 7.31 45.158 0.225 7.93 1.58 12.28
11/3/2020 5:00:00 PM 7.2 44.96 0.225 7.91 1.6 12.26
11/3/2020 5:15:00 PM 7.11 44.798 0.225 7.9 1.63 12.18
11/3/2020 5:30:00 PM 7.03 44.654 0.225 7.88 1.68 12.15
11/3/2020 5:45:00 PM 6.95 44.51 0.225 7.87 1.65 12.11
11/3/2020 6:00:00 PM 6.87 44.366 0.225 7.85 1.62 12.04
11/3/2020 6:15:00 PM 6.8 44.24 0.225 7.84 1.6 12.05
11/3/2020 6:30:00 PM 6.71 44.078 0.226 7.83 1.6 12.04
11/3/2020 6:45:00 PM 6.62 43.916 0.226 7.82 1.59 12.02
11/3/2020 7:00:00 PM 6.53 43.754 0.226 7.81 1.69 12.04
11/3/2020 7:15:00 PM 6.45 43.61 0.226 7.8 1.62 11.97
11/3/2020 7:30:00 PM 6.36 43.448 0.226 7.79 1.71 11.99
11/3/2020 7:45:00 PM 6.26 43.268 0.226 7.78 1.67 12.07
11/3/2020 8:00:00 PM 6.18 43.124 0.226 7.78 1.63 12.08
11/3/2020 8:15:00 PM 6.1 42.98 0.226 7.77 1.71 11.8
11/3/2020 8:30:00 PM 6.02 42.836 0.226 7.77 1.87 12.11
11/3/2020 8:45:00 PM 5.94 42.692 0.227 7.77 1.73 12.07
11/3/2020 9:00:00 PM 5.87 42.566 0.226 7.76 1.65 12.14
11/3/2020 9:15:00 PM 5.81 42.458 0.226 7.76 1.72 12.17
11/3/2020 9:30:00 PM 5.74 42.332 0.227 7.75 1.7 12.13
11/3/2020 9:45:00 PM 5.68 42.224 0.226 7.75 1.65 12.21
11/3/2020 10:00:00 PM 5.62 42.116 0.227 7.75 1.66 12.11
11/3/2020 10:15:00 PM 5.56 42.008 0.227 7.75 1.66 12.16
11/3/2020 10:30:00 PM 5.5 41.9 0.227 7.75 1.76 12.26
11/3/2020 10:45:00 PM 5.44 41.792 0.227 7.75 1.68 12.29
11/3/2020 11:00:00 PM 5.39 41.702 0.227 7.75 1.73 12.31
11/3/2020 11:15:00 PM 5.33 41.594 0.227 7.75 1.7 12.29
11/3/2020 11:30:00 PM 5.28 41.504 0.227 7.74 1.64 12.02
11/3/2020 11:45:00 PM 5.23 41.414 0.227 7.74 1.68 12.34
11/4/2020 12:00:00 AM 5.18 41.324 0.227 7.75 1.73 12.36
11/4/2020 12:15:00 AM 5.13 41.234 0.227 7.75 1.75 12.18
11/4/2020 12:30:00 AM 5.09 41.162 0.227 7.74 1.72 12.36
11/4/2020 12:45:00 AM 5.04 41.072 0.227 7.74 1.73 12.37
11/4/2020 1:00:00 AM 5 41 0.227 7.74 1.68 12.43
11/4/2020 1:15:00 AM 4.95 40.91 0.227 7.74 1.72 12.44
11/4/2020 1:30:00 AM 4.91 40.838 0.227 7.74 1.7 12.33
11/4/2020 1:45:00 AM 4.87 40.766 0.227 7.73 1.68 12.21
11/4/2020 2:00:00 AM 4.83 40.694 0.227 7.64 1.68 12.37
11/4/2020 2:15:00 AM 4.79 40.622 0.227 7.64 1.72 12.36
11/4/2020 2:30:00 AM 4.76 40.568 0.227 7.64 1.72 12.32
11/4/2020 2:45:00 AM 4.72 40.496 0.227 7.64 1.7 12.51
11/4/2020 3:00:00 AM 4.68 40.424 0.227 7.65 1.73 12.54
11/4/2020 3:15:00 AM 4.65 40.37 0.227 7.66 1.67 12.55
11/4/2020 3:30:00 AM 4.61 40.298 0.227 7.67 1.69 12.57
11/4/2020 3:45:00 AM 4.58 40.244 0.227 7.67 1.7 12.59
11/4/2020 4:00:00 AM 4.55 40.19 0.227 7.68 1.66 12.55
11/4/2020 4:15:00 AM 4.52 40.136 0.227 7.68 1.73 12.61
11/4/2020 4:30:00 AM 4.49 40.082 0.227 7.68 1.69 12.61
11/4/2020 4:45:00 AM 4.45 40.01 0.227 7.68 1.69 12.63
11/4/2020 5:00:00 AM 4.43 39.974 0.228 7.68 1.7 12.64
11/4/2020 5:15:00 AM 4.4 39.92 0.227 7.69 1.67 12.65
11/4/2020 5:30:00 AM 4.37 39.866 0.227 7.69 1.82 12.61
11/4/2020 5:45:00 AM 4.34 39.812 0.228 7.69 1.76 12.66
11/4/2020 6:00:00 AM 4.31 39.758 0.228 7.69 1.73 12.66
11/4/2020 6:15:00 AM 4.29 39.722 0.228 7.7 1.7 12.71
11/4/2020 6:30:00 AM 4.25 39.65 0.228 7.69 1.69 12.73
11/4/2020 6:45:00 AM 4.22 39.596 0.228 7.69 1.68 12.72
11/4/2020 7:00:00 AM 4.2 39.56 0.228 7.7 1.66 12.75
11/4/2020 7:15:00 AM 4.18 39.524 0.228 7.7 1.82 12.74
11/4/2020 7:30:00 AM 4.17 39.506 0.228 7.71 1.76 12.79
11/4/2020 7:45:00 AM 4.17 39.506 0.228 7.72 1.74 12.78
11/4/2020 8:00:00 AM 4.18 39.524 0.228 7.73 1.66 12.88
11/4/2020 8:15:00 AM 4.22 39.596 0.228 7.74 1.74 12.52
11/4/2020 8:30:00 AM 4.28 39.704 0.228 7.76 1.76 12.96
11/4/2020 8:45:00 AM 4.36 39.848 0.228 7.77 1.72 13
11/4/2020 9:00:00 AM 4.47 40.046 0.228 7.78 1.76 13.01
11/4/2020 9:15:00 AM 4.6 40.28 0.228 7.79 1.73 13.01
11/4/2020 9:30:00 AM 4.79 40.622 0.228 7.8 1.71 13.11
11/4/2020 9:45:00 AM 4.98 40.964 0.228 7.81 1.75 13.14
11/4/2020 10:00:00 AM 5.18 41.324 0.227 7.82 1.65 13.14
11/4/2020 10:15:00 AM 5.4 41.72 0.227 7.83 1.58 13.14
11/4/2020 10:30:00 AM 5.66 42.188 0.227 7.84 1.56 13.13
11/4/2020 10:45:00 AM 5.94 42.692 0.227 7.85 1.69 13.12
11/4/2020 11:00:00 AM 6.24 43.232 0.227 7.87 1.63 13.08
11/4/2020 11:15:00 AM 6.57 43.826 0.227 7.88 1.62 13.04
11/4/2020 11:30:00 AM 6.89 44.402 0.227 7.87 1.62 12.96
11/4/2020 11:45:00 AM 7.22 44.996 0.227 7.88 1.61 12.88
11/4/2020 12:00:00 PM 7.51 45.518 0.226 7.89 1.56 12.83
11/4/2020 12:15:00 PM 7.75 45.95 0.227 7.89 1.53 12.79
11/4/2020 12:30:00 PM 7.95 46.31 0.226 7.89 1.56 12.73
11/4/2020 12:45:00 PM 8.14 46.652 0.226 7.91 1.54 12.67
11/4/2020 1:00:00 PM 8.31 46.958 0.226 7.91 1.6 12.59
11/4/2020 1:15:00 PM 8.46 47.228 0.226 7.91 1.59 12.45
11/4/2020 1:30:00 PM 8.58 47.444 0.226 7.91 1.62 12.33
11/4/2020 1:45:00 PM 8.68 47.624 0.226 7.92 1.52 12.39
11/4/2020 2:00:00 PM 8.75 47.75 0.226 7.93 1.59 12.34
11/4/2020 2:15:00 PM 8.8 47.84 0.226 7.93 1.57 12.32
11/4/2020 2:30:00 PM 8.83 47.894 0.226 7.93 1.52 11.94
11/4/2020 2:45:00 PM 8.83 47.894 0.226 7.93 1.58 12.22
11/4/2020 3:00:00 PM 8.82 47.876 0.226 7.93 1.53 12.13
11/4/2020 3:15:00 PM 8.81 47.858 0.226 7.92 1.55 11.8
11/4/2020 3:30:00 PM 8.78 47.804 0.227 7.92 1.53 12.1
11/4/2020 3:45:00 PM 8.73 47.714 0.227 7.92 1.56 11.91
11/4/2020 4:00:00 PM 8.67 47.606 0.227 7.91 1.56 11.54
11/4/2020 4:15:00 PM 8.6 47.48 0.227 7.91 1.58 11.96
11/4/2020 4:30:00 PM 8.5 47.3 0.227 7.89 1.47 11.94
11/4/2020 4:45:00 PM 8.41 47.138 0.227 7.89 1.5 11.88
11/4/2020 5:00:00 PM 8.32 46.976 0.227 7.87 1.52 11.77
11/4/2020 5:15:00 PM 8.22 46.796 0.227 7.86 1.66 11.8
11/4/2020 5:30:00 PM 8.14 46.652 0.227 7.86 1.64 11.77
11/4/2020 5:45:00 PM 8.06 46.508 0.227 7.84 1.65 11.66
11/4/2020 6:00:00 PM 7.98 46.364 0.227 7.83 1.64 11.71
11/4/2020 6:15:00 PM 7.91 46.238 0.227 7.82 1.64 11.74
11/4/2020 6:30:00 PM 7.84 46.112 0.227 7.81 1.65 11.59
11/4/2020 6:45:00 PM 7.78 46.004 0.227 7.8 1.67 11.73
11/4/2020 7:00:00 PM 7.71 45.878 0.227 7.79 1.55 11.68
11/4/2020 7:15:00 PM 7.64 45.752 0.228 7.79 1.65 11.66
11/4/2020 7:30:00 PM 7.58 45.644 0.227 7.78 1.55 11.71
11/4/2020 7:45:00 PM 7.52 45.536 0.228 7.78 1.59 11.71
11/4/2020 8:00:00 PM 7.46 45.428 0.228 7.77 1.58 11.73
11/4/2020 8:15:00 PM 7.4 45.32 0.228 7.77 1.61 11.72
11/4/2020 8:30:00 PM 7.34 45.212 0.228 7.76 1.57 11.74
11/4/2020 8:45:00 PM 7.29 45.122 0.228 7.76 1.71 11.75
11/4/2020 9:00:00 PM 7.23 45.014 0.228 7.76 1.58 11.77
11/4/2020 9:15:00 PM 7.17 44.906 0.228 7.76 1.54 11.76
11/4/2020 9:30:00 PM 7.11 44.798 0.228 7.76 1.61 11.78
11/4/2020 9:45:00 PM 7.06 44.708 0.228 7.75 1.55 11.78
11/4/2020 10:00:00 PM 7.01 44.618 0.228 7.75 1.61 11.81
11/4/2020 10:15:00 PM 6.94 44.492 0.228 7.75 1.56 11.82
11/4/2020 10:30:00 PM 6.87 44.366 0.228 7.75 1.62 11.84
11/4/2020 10:45:00 PM 6.8 44.24 0.228 7.75 1.52 11.84
11/4/2020 11:00:00 PM 6.73 44.114 0.228 7.74 1.56 11.86
11/4/2020 11:15:00 PM 6.67 44.006 0.228 7.74 1.58 11.86
11/4/2020 11:30:00 PM 6.59 43.862 0.228 7.74 1.53 11.89
11/4/2020 11:45:00 PM 6.52 43.736 0.228 7.74 1.59 11.92
11/5/2020 12:00:00 AM 6.45 43.61 0.228 7.74 1.57 11.95
11/5/2020 12:15:00 AM 6.38 43.484 0.228 7.73 1.58 11.97
11/5/2020 12:30:00 AM 6.32 43.376 0.228 7.74 1.62 11.99
11/5/2020 12:45:00 AM 6.25 43.25 0.229 7.73 1.61 12.01
11/5/2020 1:00:00 AM 6.19 43.142 0.229 7.73 1.62 12.01
11/5/2020 1:15:00 AM 6.13 43.034 0.229 7.73 1.61 12.04
11/5/2020 1:30:00 AM 6.07 42.926 0.229 7.73 1.63 12
11/5/2020 1:45:00 AM 6.01 42.818 0.229 7.73 1.6 12.03
11/5/2020 2:00:00 AM 5.95 42.71 0.229 7.73 1.58 12.05
11/5/2020 2:15:00 AM 5.9 42.62 0.229 7.73 1.68 12.06
11/5/2020 2:30:00 AM 5.84 42.512 0.228 7.73 1.6 12.09
11/5/2020 2:45:00 AM 5.8 42.44 0.229 7.73 1.57 12.1
11/5/2020 3:00:00 AM 5.74 42.332 0.229 7.73 1.63 12.09
11/5/2020 3:15:00 AM 5.69 42.242 0.229 7.73 1.6 12.12
11/5/2020 3:30:00 AM 5.64 42.152 0.229 7.73 1.58 12.18
11/5/2020 3:45:00 AM 5.6 42.08 0.229 7.73 1.58 12.2
11/5/2020 4:00:00 AM 5.55 41.99 0.229 7.73 1.59 12.22
11/5/2020 4:15:00 AM 5.5 41.9 0.229 7.73 1.66 12.25
11/5/2020 4:30:00 AM 5.46 41.828 0.229 7.73 1.61 12.24
11/5/2020 4:45:00 AM 5.42 41.756 0.229 7.73 1.57 12.26
11/5/2020 5:00:00 AM 5.37 41.666 0.229 7.73 1.54 12.27
11/5/2020 5:15:00 AM 5.34 41.612 0.229 7.73 1.61 12.3
11/5/2020 5:30:00 AM 5.3 41.54 0.229 7.73 1.64 12.31
11/5/2020 5:45:00 AM 5.26 41.468 0.229 7.73 1.68 12.33
11/5/2020 6:00:00 AM 5.23 41.414 0.229 7.73 1.57 12.32
11/5/2020 6:15:00 AM 5.2 41.36 0.229 7.73 1.57 12.1
11/5/2020 6:30:00 AM 5.16 41.288 0.229 7.73 1.53 12.3
11/5/2020 6:45:00 AM 5.13 41.234 0.229 7.73 1.59 12.35
11/5/2020 7:00:00 AM 5.1 41.18 0.229 7.73 1.68 12.4
11/5/2020 7:15:00 AM 5.08 41.144 0.229 7.73 1.67 12.42
11/5/2020 7:30:00 AM 5.07 41.126 0.229 7.73 1.7 12.41
11/5/2020 7:45:00 AM 5.06 41.108 0.229 7.74 1.7 12.5
11/5/2020 8:00:00 AM 5.08 41.144 0.229 7.75 1.67 12.5
11/5/2020 8:15:00 AM 5.12 41.216 0.229 7.75 1.72 12.6
11/5/2020 8:30:00 AM 5.2 41.36 0.229 7.76 1.77 12.57
11/5/2020 8:45:00 AM 5.3 41.54 0.229 7.77 1.79 12.7
11/5/2020 9:00:00 AM 5.4 41.72 0.229 7.78 1.81 12.75
11/5/2020 9:15:00 AM 5.54 41.972 0.229 7.79 1.76 12.78
11/5/2020 9:30:00 AM 5.71 42.278 0.229 7.8 1.8 12.75
11/5/2020 9:45:00 AM 5.94 42.692 0.229 7.81 1.78 12.85
11/5/2020 10:00:00 AM 6.18 43.124 0.229 7.83 1.78 12.9
11/5/2020 10:15:00 AM 6.35 43.43 0.229 7.83 1.82 12.89
11/5/2020 10:30:00 AM 6.57 43.826 0.229 7.85 1.87 12.89
11/5/2020 10:45:00 AM 6.81 44.258 0.229 7.86 1.88 12.86
11/5/2020 11:00:00 AM 7.1 44.78 0.229 7.87 1.9 12.89
11/5/2020 11:15:00 AM 7.38 45.284 0.228 7.89 1.83 12.83
11/5/2020 11:30:00 AM 7.7 45.86 0.228 7.9 1.82 12.84
11/5/2020 11:45:00 AM 7.98 46.364 0.228 7.91 1.79 12.8
11/5/2020 12:00:00 PM 8.24 46.832 0.228 7.92 1.73 12.74
11/5/2020 12:15:00 PM 8.46 47.228 0.228 7.93 1.72 12.69
11/5/2020 12:30:00 PM 8.65 47.57 0.228 7.94 1.72 12.5
11/5/2020 12:45:00 PM 8.86 47.948 0.228 7.95 1.74 12.59
11/5/2020 1:00:00 PM 9.07 48.326 0.228 7.97 1.76 12.56
11/5/2020 1:15:00 PM 9.27 48.686 0.228 7.98 1.83 12.5
11/5/2020 1:30:00 PM 9.4 48.92 0.228 7.99 1.71 12.39
11/5/2020 1:45:00 PM 9.51 49.118 0.228 8 1.73 12.33
11/5/2020 2:00:00 PM 9.58 49.244 0.228 8 1.66 12.24
11/5/2020 2:15:00 PM 9.65 49.37 0.228 8 1.66 12.3
11/5/2020 2:30:00 PM 9.7 49.46 0.228 8.01 2.96 12.3
11/5/2020 2:45:00 PM 9.73 49.514 0.228 8.01 1.64 12.22
11/5/2020 3:00:00 PM 9.75 49.55 0.228 8.01 1.59 12.2
11/5/2020 3:15:00 PM 9.75 49.55 0.228 8.02 1.64 12.14
11/5/2020 3:30:00 PM 9.74 49.532 0.228 8.02 1.59 11.45
11/5/2020 3:45:00 PM 9.72 49.496 0.228 8.02 1.62 11.81
11/5/2020 4:00:00 PM 9.67 49.406 0.228 8.01 1.64 11.89
11/5/2020 4:15:00 PM 9.63 49.334 0.228 8 1.58 11.09
11/5/2020 4:30:00 PM 9.56 49.208 0.228 7.99 1.69 11.89
11/5/2020 4:45:00 PM 9.48 49.064 0.228 7.97 1.62 11.83
11/5/2020 5:00:00 PM 9.38 48.884 0.228 7.96 28.21 11.77
11/5/2020 5:15:00 PM 9.29 48.722 0.228 7.94 1.62 11.71
11/5/2020 5:30:00 PM 9.2 48.56 0.228 7.92 165.12 11.61
11/5/2020 5:45:00 PM 9.1 48.38 0.229 7.9 1.61 11.58
11/5/2020 6:00:00 PM 9.02 48.236 0.229 7.88 1.64 11.53
11/5/2020 6:15:00 PM 8.92 48.056 0.229 7.86 1.6 11.49
11/5/2020 6:30:00 PM 8.84 47.912 0.229 7.85 1.63 11.45
11/5/2020 6:45:00 PM 8.76 47.768 0.229 7.83 1.55 11.42
11/5/2020 7:00:00 PM 8.68 47.624 0.229 7.82 1.61 11.4
11/5/2020 7:15:00 PM 8.6 47.48 0.229 7.81 1.68 11.37
11/5/2020 7:30:00 PM 8.51 47.318 0.229 7.8 1.56 11.36
11/5/2020 7:45:00 PM 8.43 47.174 0.229 7.79 83.85 11.38
11/5/2020 8:00:00 PM 8.36 47.048 0.229 7.78 1.56 11.37
11/5/2020 8:15:00 PM 8.28 46.904 0.229 7.78 1.57 11.37
11/5/2020 8:30:00 PM 8.2 46.76 0.229 7.77 1.61 11.38
11/5/2020 8:45:00 PM 8.12 46.616 0.229 7.77 1.58 11.39
11/5/2020 9:00:00 PM 8.04 46.472 0.229 7.76 1.63 11.41
11/5/2020 9:15:00 PM 7.95 46.31 0.229 7.76 1.56 11.43
11/5/2020 9:30:00 PM 7.87 46.166 0.229 7.75 1.5 11.44
11/5/2020 9:45:00 PM 7.79 46.022 0.229 7.75 1.6 11.48
11/5/2020 10:00:00 PM 7.72 45.896 0.229 7.75 1.62 11.48
11/5/2020 10:15:00 PM 7.65 45.77 0.23 7.74 1.73 11.5
11/5/2020 10:30:00 PM 7.59 45.662 0.23 7.74 1.56 11.53
11/5/2020 10:45:00 PM 7.52 45.536 0.23 7.74 1.63 11.29
11/5/2020 11:00:00 PM 7.47 45.446 0.23 7.73 1.6 11.5
11/5/2020 11:15:00 PM 7.43 45.374 0.23 7.73 1.59 11.36
11/5/2020 11:30:00 PM 7.39 45.302 0.23 7.73 1.54 11.31
11/5/2020 11:45:00 PM 7.37 45.266 0.23 7.73 1.58 11.58
11/6/2020 12:00:00 AM 7.34 45.212 0.23 7.73 1.52 11.59
11/6/2020 12:15:00 AM 7.32 45.176 0.23 7.73 1.56 11.6
11/6/2020 12:30:00 AM 7.31 45.158 0.23 7.73 1.55 11.56
11/6/2020 12:45:00 AM 7.3 45.14 0.23 7.72 1.52 11.56
11/6/2020 1:00:00 AM 7.28 45.104 0.23 7.72 1.5 11.6
11/6/2020 1:15:00 AM 7.27 45.086 0.23 7.72 1.55 11.53
11/6/2020 1:30:00 AM 7.26 45.068 0.23 7.72 1.49 11.59
11/6/2020 1:45:00 AM 7.26 45.068 0.23 7.72 1.55 11.63
11/6/2020 2:00:00 AM 7.25 45.05 0.23 7.72 1.63 11.65
11/6/2020 2:15:00 AM 7.24 45.032 0.23 7.72 1.64 11.66
11/6/2020 2:30:00 AM 7.24 45.032 0.23 7.71 1.51 11.13
11/6/2020 2:45:00 AM 7.23 45.014 0.23 7.71 1.53 11.32
11/6/2020 3:00:00 AM 7.22 44.996 0.23 7.71 1.54 11.41
11/6/2020 3:15:00 AM 7.2 44.96 0.23 7.71 1.5 11.6
11/6/2020 3:30:00 AM 7.17 44.906 0.23 7.71 1.49 11.63
11/6/2020 3:45:00 AM 7.13 44.834 0.23 7.71 1.5 11.64
11/6/2020 4:00:00 AM 7.09 44.762 0.23 7.71 1.57 11.65
11/6/2020 4:15:00 AM 7.06 44.708 0.23 7.71 1.54 11.64
11/6/2020 4:30:00 AM 7.01 44.618 0.23 7.71 1.58 11.64
11/6/2020 4:45:00 AM 6.97 44.546 0.23 7.71 1.47 11.68
11/6/2020 5:00:00 AM 6.92 44.456 0.23 7.7 1.57 11.56
11/6/2020 5:15:00 AM 6.87 44.366 0.23 7.71 1.5 11.38
11/6/2020 5:30:00 AM 6.82 44.276 0.231 7.7 1.47 11.48
11/6/2020 5:45:00 AM 6.75 44.15 0.231 7.7 1.6 11.65
11/6/2020 6:00:00 AM 6.7 44.06 0.231 7.71 1.59 11.63
11/6/2020 6:15:00 AM 6.64 43.952 0.231 7.71 1.51 11.58
11/6/2020 6:30:00 AM 6.58 43.844 0.231 7.7 1.57 11.76
11/6/2020 6:45:00 AM 6.52 43.736 0.231 7.7 1.63 11.77
11/6/2020 7:00:00 AM 6.46 43.628 0.231 7.71 1.5 11.59
11/6/2020 7:15:00 AM 6.41 43.538 0.231 7.7 1.51 11.8
11/6/2020 7:30:00 AM 6.36 43.448 0.231 7.71 1.58 11.78
11/6/2020 7:45:00 AM 6.33 43.394 0.231 7.72 1.55 11.92
11/6/2020 8:00:00 AM 6.31 43.358 0.231 7.73 1.56 11.89
11/6/2020 8:15:00 AM 6.32 43.376 0.231 7.74 1.56 12.08
11/6/2020 8:30:00 AM 6.35 43.43 0.231 7.75 1.59 12.16
11/6/2020 8:45:00 AM 6.4 43.52 0.231 7.76 1.51 12.22
11/6/2020 9:00:00 AM 6.47 43.646 0.231 7.77 54.34 12.28
11/6/2020 9:15:00 AM 6.57 43.826 0.231 7.78 1.53 12.32
11/6/2020 9:30:00 AM 6.71 44.078 0.23 7.8 1.6 12.42
11/6/2020 9:45:00 AM 6.86 44.348 0.23 7.81 1.55 12.39
11/6/2020 10:00:00 AM 7.04 44.672 0.23 7.82 1.52 12.55
11/6/2020 10:15:00 AM 7.21 44.978 0.23 7.83 1.48 12.47
11/6/2020 10:30:00 AM 7.42 45.356 0.23 7.85 1.5 12.62
11/6/2020 10:45:00 AM 7.66 45.788 0.23 7.86 1.49 12.66
11/6/2020 11:00:00 AM 7.9 46.22 0.23 7.88 1.43 12.68
11/6/2020 11:15:00 AM 8.17 46.706 0.23 7.9 1.49 12.35
11/6/2020 11:30:00 AM 8.45 47.21 0.23 7.91 1.62 12.66
11/6/2020 11:45:00 AM 8.74 47.732 0.23 7.89 1.52 12.64
11/6/2020 12:00:00 PM 9.04 48.272 0.23 7.93 1.43 12.51
11/6/2020 12:15:00 PM 9.31 48.758 0.23 7.95 1.49 12.54
11/6/2020 12:30:00 PM 9.56 49.208 0.229 7.98 1.47 12.44
11/6/2020 12:45:00 PM 9.76 49.568 0.229 7.99 1.35 12.42
11/6/2020 1:00:00 PM 9.95 49.91 0.229 8 1.38 12.39
11/6/2020 1:15:00 PM 10.12 50.216 0.229 8.01 1.57 12.34
11/6/2020 1:30:00 PM 10.27 50.486 0.229 8.01 1.37 12.21
11/6/2020 1:45:00 PM 10.38 50.684 0.229 8.02 1.39 12.21
11/6/2020 2:00:00 PM 10.44 50.792 0.23 8.03 1.32 12.13
11/6/2020 2:15:00 PM 10.49 50.882 0.229 8.04 1.54 12.11
11/6/2020 2:30:00 PM 10.52 50.936 0.23 8.04 2.96 11.87
11/6/2020 2:45:00 PM 10.53 50.954 0.229 8.04 1.5 12.02
11/6/2020 3:00:00 PM 10.54 50.972 0.23 8.03 1.58 11.83
11/6/2020 3:15:00 PM 10.54 50.972 0.23 8.04 1.5 11.96
11/6/2020 3:30:00 PM 10.51 50.918 0.23 8.04 37.07 11.9
11/6/2020 3:45:00 PM 10.46 50.828 0.229 8.03 1.59 11.81
11/6/2020 4:00:00 PM 10.41 50.738 0.23 8.04 1.49 11.82
11/6/2020 4:15:00 PM 10.34 50.612 0.23 8.02 1.41 11.78
11/6/2020 4:30:00 PM 10.27 50.486 0.23 8.01 1.55 11.7
11/6/2020 4:45:00 PM 10.19 50.342 0.23 7.99 3.72 11.63
11/6/2020 5:00:00 PM 10.1 50.18 0.23 7.96 1.41 11.51
11/6/2020 5:15:00 PM 10.01 50.018 0.23 7.94 1.42 11.46
11/6/2020 5:30:00 PM 9.92 49.856 0.23 7.92 1.37 10.89
11/6/2020 5:45:00 PM 9.84 49.712 0.23 7.9 1.42 11.02
11/6/2020 6:00:00 PM 9.76 49.568 0.23 7.89 1.43 10.61
11/6/2020 6:15:00 PM 9.69 49.442 0.23 7.87 1.48 10.9
11/6/2020 6:30:00 PM 9.61 49.298 0.23 7.85 1.49 10.72
11/6/2020 6:45:00 PM 9.54 49.172 0.231 7.84 1.47 8.32
11/6/2020 7:00:00 PM 9.45 49.01 0.23 7.82 1.49 10.62
11/6/2020 7:15:00 PM 9.37 48.866 0.231 7.81 1.49 10.54
11/6/2020 7:30:00 PM 9.28 48.704 0.231 7.8 1.58 10.98
11/6/2020 7:45:00 PM 9.2 48.56 0.231 7.79 1.53 10.09
11/6/2020 8:00:00 PM 9.12 48.416 0.231 7.78 1.51 10.57
11/6/2020 8:15:00 PM 9.03 48.254 0.231 7.77 1.49 10.73
11/6/2020 8:30:00 PM 8.94 48.092 0.231 7.76 1.47 10.95
11/6/2020 8:45:00 PM 8.85 47.93 0.231 7.76 1.53 10.96
11/6/2020 9:00:00 PM 8.76 47.768 0.231 7.75 1.48 11.03
11/6/2020 9:15:00 PM 8.67 47.606 0.231 7.75 1.47 11.06
11/6/2020 9:30:00 PM 8.58 47.444 0.231 7.74 1.47 11.08
11/6/2020 9:45:00 PM 8.51 47.318 0.232 7.74 1.42 11.14
11/6/2020 10:00:00 PM 8.41 47.138 0.232 7.73 1.48 11.02
11/6/2020 10:15:00 PM 8.33 46.994 0.232 7.73 1.46 10.85
11/6/2020 10:30:00 PM 8.25 46.85 0.232 7.72 1.5 10.28
11/6/2020 10:45:00 PM 8.17 46.706 0.232 7.72 1.53 11.22
11/6/2020 11:00:00 PM 8.09 46.562 0.232 7.72 1.54 10.94
11/6/2020 11:15:00 PM 8.02 46.436 0.232 7.72 1.46 10.57
11/6/2020 11:30:00 PM 7.94 46.292 0.232 7.72 1.5 10.62
11/6/2020 11:45:00 PM 7.87 46.166 0.232 7.71 1.53 10.79
11/7/2020 12:00:00 AM 7.79 46.022 0.232 7.71 1.49 10.75
11/7/2020 12:15:00 AM 7.72 45.896 0.232 7.71 1.52 10.7
11/7/2020 12:30:00 AM 7.66 45.788 0.232 7.71 1.58 10.7
11/7/2020 12:45:00 AM 7.58 45.644 0.232 7.71 1.57 11.23
11/7/2020 1:00:00 AM 7.52 45.536 0.232 7.71 1.66 10.91
11/7/2020 1:15:00 AM 7.45 45.41 0.232 7.71 1.6 11.13
11/7/2020 1:30:00 AM 7.38 45.284 0.232 7.71 1.62 10.06
11/7/2020 1:45:00 AM 7.34 45.212 0.232 7.71 1.47 10.62
11/7/2020 2:00:00 AM 7.27 45.086 0.232 7.71 1.58 9.07
11/7/2020 2:15:00 AM 7.2 44.96 0.232 7.71 1.51 10.4
11/7/2020 2:30:00 AM 7.14 44.852 0.232 7.71 1.64 11.08
11/7/2020 2:45:00 AM 7.08 44.744 0.232 7.71 1.56 10.87
11/7/2020 3:00:00 AM 7.02 44.636 0.232 7.71 1.51 11.01
11/7/2020 3:15:00 AM 6.96 44.528 0.232 7.71 1.5 10.92
11/7/2020 3:30:00 AM 6.91 44.438 0.232 7.71 1.65 11.01
11/7/2020 3:45:00 AM 6.85 44.33 0.232 7.7 1.68 10.69
11/7/2020 4:00:00 AM 6.8 44.24 0.232 7.71 1.53 11.08
11/7/2020 4:15:00 AM 6.74 44.132 0.233 7.7 1.54 11.24
11/7/2020 4:30:00 AM 6.69 44.042 0.233 7.7 1.66 11.19
11/7/2020 4:45:00 AM 6.63 43.934 0.232 7.71 1.54 11.29
11/7/2020 5:00:00 AM 6.57 43.826 0.232 7.71 1.5 11.42
11/7/2020 5:15:00 AM 6.52 43.736 0.232 7.71 1.51 11.32
11/7/2020 5:30:00 AM 6.48 43.664 0.232 7.71 1.58 11.23
11/7/2020 5:45:00 AM 6.43 43.574 0.233 7.7 1.56 10.85
11/7/2020 6:00:00 AM 6.38 43.484 0.233 7.71 1.6 11.06
11/7/2020 6:15:00 AM 6.32 43.376 0.233 7.7 1.5 11.16
11/7/2020 6:30:00 AM 6.28 43.304 0.233 7.7 1.53 10.39
11/7/2020 6:45:00 AM 6.22 43.196 0.233 7.7 1.53 10
11/7/2020 7:00:00 AM 6.18 43.124 0.233 7.71 1.56 9.99
11/7/2020 7:15:00 AM 6.14 43.052 0.233 7.71 1.53 11.02
11/7/2020 7:30:00 AM 6.1 42.98 0.233 7.71 1.5 11.7
11/7/2020 7:45:00 AM 6.08 42.944 0.233 7.72 1.63 11.89
11/7/2020 8:00:00 AM 6.07 42.926 0.233 7.72 1.67 11.92
11/7/2020 8:15:00 AM 6.07 42.926 0.233 7.73 1.47 12
11/7/2020 8:30:00 AM 6.1 42.98 0.233 7.75 1.55 12.22
11/7/2020 8:45:00 AM 6.16 43.088 0.232 7.76 1.53 12.16
11/7/2020 9:00:00 AM 6.22 43.196 0.233 7.77 1.69 11.46
11/7/2020 9:15:00 AM 6.32 43.376 0.233 7.78 1.49 11.48
11/7/2020 9:30:00 AM 6.46 43.628 0.233 7.79 1.52 12.27
11/7/2020 9:45:00 AM 6.61 43.898 0.232 7.81 1.55 10.95
11/7/2020 10:00:00 AM 6.78 44.204 0.232 7.82 1.64 10.83
11/7/2020 10:15:00 AM 6.95 44.51 0.232 7.84 1.53 11.9
11/7/2020 10:30:00 AM 7.13 44.834 0.232 7.85 1.57 11.81
11/7/2020 10:45:00 AM 7.34 45.212 0.232 7.87 1.68 9.48
11/7/2020 11:00:00 AM 7.58 45.644 0.232 7.89 1.46 8.77
11/7/2020 11:15:00 AM 7.81 46.058 0.232 7.91 1.54 9.78
11/7/2020 11:30:00 AM 8.1 46.58 0.231 7.92 1.59 10.99
11/7/2020 11:45:00 AM 8.39 47.102 0.231 7.94 1.46 12.1
11/7/2020 12:00:00 PM 8.69 47.642 0.231 7.96 1.56 10.46
11/7/2020 12:15:00 PM 9 48.2 0.231 7.98 1.42 9.95
11/7/2020 12:30:00 PM 9.25 48.65 0.231 8 1.42 10.44
11/7/2020 12:45:00 PM 9.5 49.1 0.231 8.02 2.29 9.84
11/7/2020 1:00:00 PM 9.71 49.478 0.231 8.04 1.44 12.45
11/7/2020 1:15:00 PM 9.89 49.802 0.231 8.05 2.02 11.86
11/7/2020 1:30:00 PM 10.04 50.072 0.231 8.06 1.49 11.38
11/7/2020 1:45:00 PM 10.18 50.324 0.231 8.08 1.42 11.38
11/7/2020 2:00:00 PM 10.26 50.468 0.23 8.09 1.46 12.43
11/7/2020 2:15:00 PM 10.31 50.558 0.231 8.09 1.37 12.37
11/7/2020 2:30:00 PM 10.37 50.666 0.231 8.1 1.36 12.33
11/7/2020 2:45:00 PM 10.39 50.702 0.23 8.09 1.34 12.29
11/7/2020 3:00:00 PM 10.41 50.738 0.231 8.09 1.52 12.26
11/7/2020 3:15:00 PM 10.41 50.738 0.23 8.11 1.39 12.22
11/7/2020 3:30:00 PM 10.4 50.72 0.231 8.11 1.4 12.18
11/7/2020 3:45:00 PM 10.36 50.648 0.231 8.1 12.14 12.09
11/7/2020 4:00:00 PM 10.31 50.558 0.231 8.08 3.13 11.97
11/7/2020 4:15:00 PM 10.27 50.486 0.231 8.08 1.39 11.95
11/7/2020 4:30:00 PM 10.21 50.378 0.231 8.08 1.43 11.94
11/7/2020 4:45:00 PM 10.15 50.27 0.231 8.05 1.32 11.46
11/7/2020 5:00:00 PM 10.08 50.144 0.231 8.03 1.39 11.55
11/7/2020 5:15:00 PM 10.01 50.018 0.231 8.01 1.38 11.41
11/7/2020 5:30:00 PM 9.95 49.91 0.231 7.98 1.39 10.98
11/7/2020 5:45:00 PM 9.88 49.784 0.231 7.96 1.38 11.1
11/7/2020 6:00:00 PM 9.81 49.658 0.231 7.94 1.42 11.07
11/7/2020 6:15:00 PM 9.75 49.55 0.231 7.92 1.47 11.14
11/7/2020 6:30:00 PM 9.7 49.46 0.231 7.9 1.44 11.22
11/7/2020 6:45:00 PM 9.63 49.334 0.231 7.88 1.43 11.12
11/7/2020 7:00:00 PM 9.56 49.208 0.232 7.86 1.47 11.18
11/7/2020 7:15:00 PM 9.47 49.046 0.232 7.85 1.52 11.13
11/7/2020 7:30:00 PM 9.4 48.92 0.232 7.83 1.5 11.12
11/7/2020 7:45:00 PM 9.31 48.758 0.232 7.81 1.39 11.07
11/7/2020 8:00:00 PM 9.2 48.56 0.232 7.8 1.45 11.07
11/7/2020 8:15:00 PM 9.11 48.398 0.232 7.79 1.43 11.07
11/7/2020 8:30:00 PM 9.02 48.236 0.232 7.78 1.52 11.07
11/7/2020 8:45:00 PM 8.93 48.074 0.232 7.77 1.45 11.07
11/7/2020 9:00:00 PM 8.83 47.894 0.232 7.77 1.51 11.08
11/7/2020 9:15:00 PM 8.74 47.732 0.233 7.76 1.42 11.09
11/7/2020 9:30:00 PM 8.64 47.552 0.233 7.75 1.56 11.08
11/7/2020 9:45:00 PM 8.56 47.408 0.233 7.75 1.5 11.11
11/7/2020 10:00:00 PM 8.46 47.228 0.233 7.74 1.51 11.11
11/7/2020 10:15:00 PM 8.36 47.048 0.233 7.74 1.49 11.13
11/7/2020 10:30:00 PM 8.27 46.886 0.233 7.73 1.44 11.18
11/7/2020 10:45:00 PM 8.19 46.742 0.233 7.73 1.51 11.17
11/7/2020 11:00:00 PM 8.09 46.562 0.233 7.73 1.46 11.17
11/7/2020 11:15:00 PM 8.01 46.418 0.233 7.73 1.46 11.18
11/7/2020 11:30:00 PM 7.92 46.256 0.233 7.72 1.48 11.25
11/7/2020 11:45:00 PM 7.83 46.094 0.233 7.72 1.49 11.27
11/8/2020 12:00:00 AM 7.74 45.932 0.233 7.72 1.48 11.18
11/8/2020 12:15:00 AM 7.67 45.806 0.233 7.72 2.02 11.31
11/8/2020 12:30:00 AM 7.59 45.662 0.233 7.72 1.47 11.28
11/8/2020 12:45:00 AM 7.51 45.518 0.234 7.72 1.48 11.39
11/8/2020 1:00:00 AM 7.43 45.374 0.234 7.71 1.48 11.4
11/8/2020 1:15:00 AM 7.35 45.23 0.234 7.72 1.54 11.46
11/8/2020 1:30:00 AM 7.27 45.086 0.234 7.72 1.43 11.48
11/8/2020 1:45:00 AM 7.2 44.96 0.234 7.71 1.51 11.51
11/8/2020 2:00:00 AM 7.12 44.816 0.234 7.71 1.54 11.53
11/8/2020 2:15:00 AM 7.06 44.708 0.234 7.71 1.49 11.53
11/8/2020 2:30:00 AM 6.98 44.564 0.234 7.71 1.53 11.56
11/8/2020 2:45:00 AM 6.91 44.438 0.234 7.71 1.48 11.57
11/8/2020 3:00:00 AM 6.84 44.312 0.234 7.71 1.52 11.61
11/8/2020 3:15:00 AM 6.78 44.204 0.234 7.71 1.47 11.63
11/8/2020 3:30:00 AM 6.71 44.078 0.234 7.71 1.45 11.65
11/8/2020 3:45:00 AM 6.64 43.952 0.234 7.71 1.46 11.68
11/8/2020 4:00:00 AM 6.57 43.826 0.234 7.71 1.51 11.69
11/8/2020 4:15:00 AM 6.5 43.7 0.234 7.72 1.46 11.72
11/8/2020 4:30:00 AM 6.44 43.592 0.234 7.72 1.48 11.75
11/8/2020 4:45:00 AM 6.38 43.484 0.234 7.72 1.5 11.76
11/8/2020 5:00:00 AM 6.31 43.358 0.234 7.72 1.46 11.78
11/8/2020 5:15:00 AM 6.25 43.25 0.234 7.71 1.48 11.79
11/8/2020 5:30:00 AM 6.2 43.16 0.234 7.71 1.53 11.81
11/8/2020 5:45:00 AM 6.14 43.052 0.234 7.71 1.51 11.85
11/8/2020 6:00:00 AM 6.08 42.944 0.234 7.71 1.49 11.85
11/8/2020 6:15:00 AM 6.03 42.854 0.234 7.71 1.5 11.86
11/8/2020 6:30:00 AM 5.98 42.764 0.234 7.71 1.44 11.9
11/8/2020 6:45:00 AM 5.92 42.656 0.235 7.71 1.65 11.85
11/8/2020 7:00:00 AM 5.87 42.566 0.234 7.72 1.59 11.89
11/8/2020 7:15:00 AM 5.81 42.458 0.234 7.72 1.48 11.99
11/8/2020 7:30:00 AM 5.78 42.404 0.234 7.72 1.51 12.05
11/8/2020 7:45:00 AM 5.74 42.332 0.234 7.73 1.51 12.07
11/8/2020 8:00:00 AM 5.72 42.296 0.234 7.74 1.49 12.14
11/8/2020 8:15:00 AM 5.72 42.296 0.234 7.75 1.57 12.24
11/8/2020 8:30:00 AM 5.75 42.35 0.234 7.76 1.52 12.31
11/8/2020 8:45:00 AM 5.8 42.44 0.234 7.77 1.55 12.42
11/8/2020 9:00:00 AM 5.88 42.584 0.234 7.78 1.56 12.48
11/8/2020 9:15:00 AM 5.97 42.746 0.234 7.79 1.54 12.48
11/8/2020 9:30:00 AM 6.12 43.016 0.234 7.81 1.47 12.64
11/8/2020 9:45:00 AM 6.26 43.268 0.234 7.82 1.52 12.72
11/8/2020 10:00:00 AM 6.43 43.574 0.234 7.84 1.41 12.79
11/8/2020 10:15:00 AM 6.6 43.88 0.234 7.86 1.45 12.85
11/8/2020 10:30:00 AM 6.76 44.168 0.234 7.87 1.45 12.88
11/8/2020 10:45:00 AM 6.98 44.564 0.233 7.89 1.47 12.87
11/8/2020 11:00:00 AM 7.21 44.978 0.233 7.91 1.49 12.99
11/8/2020 11:15:00 AM 7.44 45.392 0.233 7.92 1.46 13.01
11/8/2020 11:30:00 AM 7.69 45.842 0.233 7.94 1.34 13.01
11/8/2020 11:45:00 AM 7.98 46.364 0.233 7.96 1.49 13.02
11/8/2020 12:00:00 PM 8.27 46.886 0.233 7.97 1.32 12.97
11/8/2020 12:15:00 PM 8.56 47.408 0.233 7.99 1.42 12.98
11/8/2020 12:30:00 PM 8.81 47.858 0.233 8.02 1.39 12.95
11/8/2020 12:45:00 PM 9.06 48.308 0.233 8.04 1.37 12.82
11/8/2020 1:00:00 PM 9.26 48.668 0.232 8.06 1.47 12.87
11/8/2020 1:15:00 PM 9.45 49.01 0.232 8.07 1.43 12.83
11/8/2020 1:30:00 PM 9.62 49.316 0.232 8.09 1.38 12.79
11/8/2020 1:45:00 PM 9.77 49.586 0.232 8.1 1.33 12.7
11/8/2020 2:00:00 PM 9.87 49.766 0.232 8.11 1.37 12.65
11/8/2020 2:15:00 PM 9.94 49.892 0.232 8.12 1.39 12.24
11/8/2020 2:30:00 PM 10.01 50.018 0.232 8.13 1.37 11.83
11/8/2020 2:45:00 PM 10.05 50.09 0.232 8.14 1.31 12.32
11/8/2020 3:00:00 PM 10.07 50.126 0.232 8.15 1.37 12.4
11/8/2020 3:15:00 PM 10.07 50.126 0.232 8.14 1.35 11.9
11/8/2020 3:30:00 PM 10.06 50.108 0.232 8.15 1.35 12.41
11/8/2020 3:45:00 PM 10.03 50.054 0.232 8.15 1.41 12.17
11/8/2020 4:00:00 PM 9.99 49.982 0.233 8.14 1.36 11.47
11/8/2020 4:15:00 PM 9.93 49.874 0.233 8.13 1.39 10.02
11/8/2020 4:30:00 PM 9.85 49.73 0.233 8.11 1.42 11.99
11/8/2020 4:45:00 PM 9.78 49.604 0.233 8.09 1.41 11.75
11/8/2020 5:00:00 PM 9.69 49.442 0.233 8.07 1.4 10.71
11/8/2020 5:15:00 PM 9.61 49.298 0.233 8.05 1.51 11.69
11/8/2020 5:30:00 PM 9.53 49.154 0.233 8.01 1.44 11.23
11/8/2020 5:45:00 PM 9.45 49.01 0.233 7.99 1.5 11.41
11/8/2020 6:00:00 PM 9.39 48.902 0.233 7.96 1.45 11.28
11/8/2020 6:15:00 PM 9.32 48.776 0.233 7.93 1.61 10.84
11/8/2020 6:30:00 PM 9.26 48.668 0.233 7.92 1.54 11.32
11/8/2020 6:45:00 PM 9.21 48.578 0.233 7.9 1.72 11.03
11/8/2020 7:00:00 PM 9.14 48.452 0.234 7.88 1.53 11.29
11/8/2020 7:15:00 PM 9.09 48.362 0.234 7.86 1.51 11.02
11/8/2020 7:30:00 PM 9.01 48.218 0.234 7.85 1.48 11.23
11/8/2020 7:45:00 PM 8.94 48.092 0.234 7.83 1.45 10.94
11/8/2020 8:00:00 PM 8.87 47.966 0.234 7.82 1.51 11.09
11/8/2020 8:15:00 PM 8.77 47.786 0.234 7.8 1.51 11.21
11/8/2020 8:30:00 PM 8.7 47.66 0.234 7.79 1.56 11.01
11/8/2020 8:45:00 PM 8.61 47.498 0.235 7.78 1.54 10.86
11/8/2020 9:00:00 PM 8.53 47.354 0.235 7.77 1.51 10.52
11/8/2020 9:15:00 PM 8.44 47.192 0.235 7.77 1.51 10.43
11/8/2020 9:30:00 PM 8.35 47.03 0.235 7.76 1.45 11.13
11/8/2020 9:45:00 PM 8.27 46.886 0.235 7.75 1.54 11.18
11/8/2020 10:00:00 PM 8.18 46.724 0.235 7.75 1.48 11.03
11/8/2020 10:15:00 PM 8.08 46.544 0.235 7.74 1.51 11.03
11/8/2020 10:30:00 PM 7.99 46.382 0.235 7.74 1.54 11.02
11/8/2020 10:45:00 PM 7.91 46.238 0.235 7.73 1.49 11.27
11/8/2020 11:00:00 PM 7.82 46.076 0.235 7.73 1.63 11.16
11/8/2020 11:15:00 PM 7.73 45.914 0.235 7.73 1.54 11.22
11/8/2020 11:30:00 PM 7.65 45.77 0.235 7.72 1.58 11.34
11/8/2020 11:45:00 PM 7.57 45.626 0.236 7.72 1.53 11.33
11/9/2020 12:00:00 AM 7.49 45.482 0.235 7.72 1.48 11.29
11/9/2020 12:15:00 AM 7.41 45.338 0.236 7.72 1.55 11.18
11/9/2020 12:30:00 AM 7.33 45.194 0.236 7.72 1.58 11.22
11/9/2020 12:45:00 AM 7.26 45.068 0.236 7.71 1.56 10.72
11/9/2020 1:00:00 AM 7.19 44.942 0.236 7.71 1.57 9.43
11/9/2020 1:15:00 AM 7.11 44.798 0.236 7.71 1.61 11.31
11/9/2020 1:30:00 AM 7.04 44.672 0.236 7.71 1.68 11.1
11/9/2020 1:45:00 AM 6.97 44.546 0.236 7.71 1.58 10.92
11/9/2020 2:00:00 AM 6.9 44.42 0.236 7.71 1.56 11.37
11/9/2020 2:15:00 AM 6.83 44.294 0.236 7.71 1.53 10.92
11/9/2020 2:30:00 AM 6.76 44.168 0.236 7.71 1.56 7.79
11/9/2020 2:45:00 AM 6.69 44.042 0.236 7.71 1.51 8.04
11/9/2020 3:00:00 AM 6.62 43.916 0.236 7.71 1.6 9.25
11/9/2020 3:15:00 AM 6.57 43.826 0.236 7.71 1.57 10.25
11/9/2020 3:30:00 AM 6.51 43.718 0.236 7.71 1.55 10.61
11/9/2020 3:45:00 AM 6.44 43.592 0.236 7.71 1.57 11.56
11/9/2020 4:00:00 AM 6.38 43.484 0.236 7.71 1.53 11.66
11/9/2020 4:15:00 AM 6.33 43.394 0.236 7.71 1.59 11.09
11/9/2020 4:30:00 AM 6.27 43.286 0.236 7.71 1.6 11
11/9/2020 4:45:00 AM 6.21 43.178 0.236 7.71 1.65 10.38
11/9/2020 5:00:00 AM 6.16 43.088 0.236 7.71 1.55 11.69
11/9/2020 5:15:00 AM 6.1 42.98 0.236 7.71 1.54 11.08
11/9/2020 5:30:00 AM 6.05 42.89 0.236 7.71 1.54 11.68
11/9/2020 5:45:00 AM 6 42.8 0.236 7.71 1.57 11.85
11/9/2020 6:00:00 AM 5.94 42.692 0.236 7.71 1.52 11.66
11/9/2020 6:15:00 AM 5.89 42.602 0.236 7.71 1.54 11.56
11/9/2020 6:30:00 AM 5.84 42.512 0.236 7.71 1.55 11.85
11/9/2020 6:45:00 AM 5.79 42.422 0.237 7.71 1.55 11.92
11/9/2020 7:00:00 AM 5.75 42.35 0.237 7.71 1.58 11.98
11/9/2020 7:15:00 AM 5.7 42.26 0.237 7.71 1.6 11.99
11/9/2020 7:30:00 AM 5.67 42.206 0.237 7.71 1.66 11.98
11/9/2020 7:45:00 AM 5.63 42.134 0.237 7.72 1.56 12.02
11/9/2020 8:00:00 AM 5.61 42.098 0.236 7.73 1.54 12.15
11/9/2020 8:15:00 AM 5.61 42.098 0.236 7.74 1.54 12.24
11/9/2020 8:30:00 AM 5.65 42.17 0.236 7.76 1.63 12.35
11/9/2020 8:45:00 AM 5.7 42.26 0.236 7.77 1.57 12.45
11/9/2020 9:00:00 AM 5.77 42.386 0.236 7.78 1.59 11.7
11/9/2020 9:15:00 AM 5.87 42.566 0.236 7.79 1.55 12.45
11/9/2020 9:30:00 AM 6.01 42.818 0.236 7.81 1.58 12.55
11/9/2020 9:45:00 AM 6.15 43.07 0.236 7.81 1.64 11.47
11/9/2020 10:00:00 AM 6.3 43.34 0.236 7.82 1.52 12.65
11/9/2020 10:15:00 AM 6.49 43.682 0.236 7.85 1.55 12.91
11/9/2020 10:30:00 AM 6.64 43.952 0.236 7.86 1.51 12.7
11/9/2020 10:45:00 AM 6.84 44.312 0.235 7.88 1.57 12.98
11/9/2020 11:00:00 AM 7.07 44.726 0.235 7.9 1.5 13.05
11/9/2020 11:15:00 AM 7.28 45.104 0.235 7.91 1.51 13.04
11/9/2020 11:30:00 AM 7.53 45.554 0.235 7.94 1.48 13.09
11/9/2020 11:45:00 AM 7.81 46.058 0.235 7.96 1.54 13.1
11/9/2020 12:00:00 PM 8.1 46.58 0.235 7.98 1.53 13.09
11/9/2020 12:15:00 PM 8.36 47.048 0.235 7.99 1.38 13
11/9/2020 12:30:00 PM 8.63 47.534 0.235 8.02 1.39 13.04
11/9/2020 12:45:00 PM 8.9 48.02 0.234 8.04 1.4 13.01
11/9/2020 1:00:00 PM 9.11 48.398 0.234 8.06 1.37 12.96
11/9/2020 1:15:00 PM 9.3 48.74 0.234 8.09 1.59 12.93
11/9/2020 1:30:00 PM 9.49 49.082 0.234 8.11 1.52 12.84
11/9/2020 1:45:00 PM 9.67 49.406 0.234 8.12 1.46 12.79
11/9/2020 2:00:00 PM 9.82 49.676 0.234 8.14 1.42 12.7
11/9/2020 2:15:00 PM 9.93 49.874 0.234 8.15 1.41 12.69
11/9/2020 2:30:00 PM 10.03 50.054 0.234 8.17 1.45 12.66
11/9/2020 2:45:00 PM 10.08 50.144 0.234 8.17 1.53 10.15
11/9/2020 3:00:00 PM 10.11 50.198 0.234 8.18 1.38 12.57
11/9/2020 3:15:00 PM 10.12 50.216 0.234 8.18 1.38 12.54
11/9/2020 3:30:00 PM 10.13 50.234 0.234 8.19 1.35 12.48
11/9/2020 3:45:00 PM 10.1 50.18 0.234 8.18 1.49 12.38
11/9/2020 4:00:00 PM 10.06 50.108 0.234 8.17 1.44 12.18
11/9/2020 4:15:00 PM 10 50 0.235 8.16 1.51 12.27
11/9/2020 4:30:00 PM 9.93 49.874 0.235 8.13 1.38 11.64
11/9/2020 4:45:00 PM 9.85 49.73 0.235 8.12 1.59 12.12
11/9/2020 5:00:00 PM 9.74 49.532 0.235 8.08 1.6 11.94
11/9/2020 5:15:00 PM 9.65 49.37 0.235 8.08 1.59 12
11/9/2020 5:30:00 PM 9.57 49.226 0.235 8.05 1.5 11.81
11/9/2020 5:45:00 PM 9.48 49.064 0.235 8.02 1.42 11.25
11/9/2020 6:00:00 PM 9.41 48.938 0.235 7.98 83.05 11.64
11/9/2020 6:15:00 PM 9.35 48.83 0.235 7.95 9.43 10.97
11/9/2020 6:30:00 PM 9.3 48.74 0.235 7.93 35.28 11.4
11/9/2020 6:45:00 PM 9.25 48.65 0.235 7.9 3968.53 11.41
11/9/2020 7:00:00 PM 9.21 48.578 0.235 7.87 36.57 10.82
11/9/2020 7:15:00 PM 9.16 48.488 0.235 7.87 1.48 11.19
11/9/2020 7:30:00 PM 9.11 48.398 0.235 7.86 1.48 11.24
11/9/2020 7:45:00 PM 9.04 48.272 0.236 7.84 1.52 11.22
11/9/2020 8:00:00 PM 8.98 48.164 0.236 7.83 1.57 11.15
11/9/2020 8:15:00 PM 8.92 48.056 0.236 7.81 1.47 10.99
11/9/2020 8:30:00 PM 8.86 47.948 0.236 7.8 1.43 11.1
11/9/2020 8:45:00 PM 8.77 47.786 0.236 7.79 1.55 10.83
11/9/2020 9:00:00 PM 8.69 47.642 0.236 7.78 1.47 11.04
11/9/2020 9:15:00 PM 8.62 47.516 0.237 7.77 1.53 11.09
11/9/2020 9:30:00 PM 8.54 47.372 0.237 7.76 1.6 11.08
11/9/2020 9:45:00 PM 8.45 47.21 0.237 7.76 1.5 11.11
11/9/2020 10:00:00 PM 8.36 47.048 0.237 7.75 1.53 11.14
11/9/2020 10:15:00 PM 8.28 46.904 0.237 7.74 1.45 11.16
11/9/2020 10:30:00 PM 8.21 46.778 0.237 7.74 1.53 11.18
11/9/2020 10:45:00 PM 8.13 46.634 0.237 7.74 1.49 11.19
11/9/2020 11:00:00 PM 8.05 46.49 0.237 7.73 1.54 11.18
11/9/2020 11:15:00 PM 7.97 46.346 0.237 7.73 1.45 11.23
11/9/2020 11:30:00 PM 7.91 46.238 0.237 7.73 1.54 11.22
11/9/2020 11:45:00 PM 7.83 46.094 0.237 7.72 1.55 11.23
11/10/2020 12:00:00 AM 7.76 45.968 0.238 7.72 1.54 11.24
11/10/2020 12:15:00 AM 7.69 45.842 0.238 7.72 1.65 11.27
11/10/2020 12:30:00 AM 7.6 45.68 0.238 7.72 1.54 11.3
11/10/2020 12:45:00 AM 7.54 45.572 0.238 7.72 1.55 11.32
11/10/2020 1:00:00 AM 7.48 45.464 0.238 7.72 1.52 11.34
11/10/2020 1:15:00 AM 7.41 45.338 0.238 7.72 1.56 11.38
11/10/2020 1:30:00 AM 7.35 45.23 0.238 7.72 1.49 11.39
11/10/2020 1:45:00 AM 7.29 45.122 0.238 7.72 1.5 11.41
11/10/2020 2:00:00 AM 7.23 45.014 0.238 7.72 1.54 11.44
11/10/2020 2:15:00 AM 7.19 44.942 0.238 7.72 1.55 11.44
11/10/2020 2:30:00 AM 7.12 44.816 0.238 7.72 1.51 11.47
11/10/2020 2:45:00 AM 7.06 44.708 0.238 7.71 1.46 11.47
11/10/2020 3:00:00 AM 7.01 44.618 0.238 7.71 1.5 11.49
11/10/2020 3:15:00 AM 6.95 44.51 0.238 7.71 1.51 11.52
11/10/2020 3:30:00 AM 6.91 44.438 0.238 7.72 1.52 11.54
11/10/2020 3:45:00 AM 6.86 44.348 0.238 7.71 1.51 11.55
11/10/2020 4:00:00 AM 6.82 44.276 0.238 7.71 1.56 11.56
11/10/2020 4:15:00 AM 6.77 44.186 0.238 7.71 1.52 11.55
11/10/2020 4:30:00 AM 6.73 44.114 0.238 7.71 1.52 11.57
11/10/2020 4:45:00 AM 6.68 44.024 0.238 7.71 1.56 11.47
11/10/2020 5:00:00 AM 6.65 43.97 0.238 7.71 1.53 11.59
11/10/2020 5:15:00 AM 6.6 43.88 0.238 7.71 1.56 11.62
11/10/2020 5:30:00 AM 6.57 43.826 0.238 7.71 1.49 11.13
11/10/2020 5:45:00 AM 6.53 43.754 0.239 7.7 1.51 11.3
11/10/2020 6:00:00 AM 6.49 43.682 0.238 7.7 1.49 11.64
11/10/2020 6:15:00 AM 6.45 43.61 0.238 7.7 1.56 11.57
11/10/2020 6:30:00 AM 6.42 43.556 0.238 7.7 1.69 11.35
11/10/2020 6:45:00 AM 6.39 43.502 0.238 7.7 1.53 11.67
11/10/2020 7:00:00 AM 6.36 43.448 0.238 7.7 1.77 11.71
11/10/2020 7:15:00 AM 6.34 43.412 0.238 7.7 1.54 11.74
11/10/2020 7:30:00 AM 6.32 43.376 0.238 7.71 1.68 11.78
11/10/2020 7:45:00 AM 6.31 43.358 0.238 7.71 1.77 11.83
11/10/2020 8:00:00 AM 6.31 43.358 0.238 7.72 1.67 11.89
11/10/2020 8:15:00 AM 6.33 43.394 0.238 7.73 1.63 11.94
11/10/2020 8:30:00 AM 6.36 43.448 0.238 7.74 1.58 11.57
11/10/2020 8:45:00 AM 6.41 43.538 0.238 7.75 1.59 8.57
11/10/2020 9:00:00 AM 6.5 43.7 0.238 7.77 1.51 11.3
11/10/2020 9:15:00 AM 6.63 43.934 0.238 7.78 1.6 12.32
11/10/2020 9:30:00 AM 6.79 44.222 0.238 7.8 1.6 12.4
11/10/2020 9:45:00 AM 6.95 44.51 0.238 7.81 1.6 12.47
11/10/2020 10:00:00 AM 7.14 44.852 0.238 7.83 1.55 12.37
11/10/2020 10:15:00 AM 7.3 45.14 0.238 7.85 1.53 11.63
11/10/2020 10:30:00 AM 7.47 45.446 0.238 7.86 1.54 12.48
11/10/2020 10:45:00 AM 7.71 45.878 0.237 7.88 1.43 12.73
11/10/2020 11:00:00 AM 7.94 46.292 0.237 7.9 1.5 12.8
11/10/2020 11:15:00 AM 8.23 46.814 0.237 7.93 1.48 12.83
11/10/2020 11:30:00 AM 8.49 47.282 0.237 7.96 1.57 12.87
11/10/2020 11:45:00 AM 8.88 47.984 0.237 7.99 1.54 12.89
11/10/2020 12:00:00 PM 9.14 48.452 0.236 8.01 1.44 12.8
11/10/2020 12:15:00 PM 9.46 49.028 0.236 8.05 1.46 12.85
11/10/2020 12:30:00 PM 9.77 49.586 0.236 8.07 1.41 12.79
11/10/2020 12:45:00 PM 10.03 50.054 0.236 8.09 1.43 12.48
11/10/2020 1:00:00 PM 10.26 50.468 0.236 8.12 1.45 12.68
11/10/2020 1:15:00 PM 10.47 50.846 0.236 8.14 1.46 12.31
11/10/2020 1:30:00 PM 10.67 51.206 0.236 8.17 1.45 12.51
11/10/2020 1:45:00 PM 10.89 51.602 0.235 8.19 1.39 12.38
11/10/2020 2:00:00 PM 11.03 51.854 0.236 8.19 2.88 12.45
11/10/2020 2:15:00 PM 11.16 52.088 0.236 8.21 3.42 12.32
11/10/2020 2:30:00 PM 11.24 52.232 0.236 8.23 1.42 12.21
11/10/2020 2:45:00 PM 11.3 52.34 0.236 8.25 1.37 12.31
11/10/2020 3:00:00 PM 11.35 52.43 0.236 8.26 1.48 12.3
11/10/2020 3:15:00 PM 11.37 52.466 0.236 8.26 1.79 11.92
11/10/2020 3:30:00 PM 11.39 52.502 0.236 8.27 1.39 11.98
11/10/2020 3:45:00 PM 11.38 52.484 0.236 8.27 1.39 12.04
11/10/2020 4:00:00 PM 11.35 52.43 0.236 8.28 1.45 11.97
11/10/2020 4:15:00 PM 11.31 52.358 0.225 8.24 5.15 11.97
11/10/2020 4:30:00 PM 11.26 52.268 0.236 8.24 2.24 11.9
11/10/2020 4:45:00 PM 11.2 52.16 0.236 8.21 4.32 11.79
11/10/2020 5:00:00 PM 11.12 52.016 0.237 8.17 1.38 11.71
11/10/2020 5:15:00 PM 11.05 51.89 0.237 8.14 1.85 11.62
11/10/2020 5:30:00 PM 10.96 51.728 0.237 8.1 12.22 11.42
11/10/2020 5:45:00 PM 10.89 51.602 0.237 8.06 1.39 10.72
11/10/2020 6:00:00 PM 10.81 51.458 0.237 8.02 1.49 10.8
11/10/2020 6:15:00 PM 10.74 51.332 0.237 7.99 1.39 10.94
11/10/2020 6:30:00 PM 10.69 51.242 0.237 7.96 1.46 10.88
11/10/2020 6:45:00 PM 10.64 51.152 0.237 7.94 1.36 8.91
11/10/2020 7:00:00 PM 10.58 51.044 0.237 7.92 1.45 10.32
11/10/2020 7:15:00 PM 10.54 50.972 0.237 7.91 1.52 9.69
11/10/2020 7:30:00 PM 10.49 50.882 0.237 7.88 1.47 10.18
11/10/2020 7:45:00 PM 10.44 50.792 0.238 7.87 1.47 7.62
11/10/2020 8:00:00 PM 10.39 50.702 0.238 7.85 1.49 9.4
11/10/2020 8:15:00 PM 10.36 50.648 0.238 7.83 1.44 10.33
11/10/2020 8:30:00 PM 10.31 50.558 0.238 7.81 1.46 9.86
11/10/2020 8:45:00 PM 10.26 50.468 0.238 7.8 1.45 10.03
11/10/2020 9:00:00 PM 10.22 50.396 0.238 7.79 1.41 9.77
11/10/2020 9:15:00 PM 10.16 50.288 0.238 7.78 1.4 10.06
11/10/2020 9:30:00 PM 10.13 50.234 0.238 7.77 1.48 9.96
11/10/2020 9:45:00 PM 10.09 50.162 0.239 7.76 1.49 10.3
11/10/2020 10:00:00 PM 10.04 50.072 0.239 7.75 1.53 9.55
11/10/2020 10:15:00 PM 10 50 0.239 7.75 1.45 9.85
11/10/2020 10:30:00 PM 9.95 49.91 0.239 7.74 1.58 9.93
11/10/2020 10:45:00 PM 9.92 49.856 0.239 7.73 1.41 10.38
11/10/2020 11:00:00 PM 9.88 49.784 0.239 7.74 1.47 9.92
11/10/2020 11:15:00 PM 9.84 49.712 0.239 7.73 1.46 9.81
11/10/2020 11:30:00 PM 9.8 49.64 0.239 7.73 1.49 10.08
11/10/2020 11:45:00 PM 9.77 49.586 0.239 7.73 1.45 10.19
11/11/2020 12:00:00 AM 9.73 49.514 0.239 7.73 1.37 10.44
11/11/2020 12:15:00 AM 9.69 49.442 0.239 7.73 1.49 10.36
11/11/2020 12:30:00 AM 9.66 49.388 0.239 7.73 1.45 10.42
11/11/2020 12:45:00 AM 9.64 49.352 0.239 7.73 1.42 9.93
11/11/2020 1:00:00 AM 9.61 49.298 0.24 7.72 1.5 8.67
11/11/2020 1:15:00 AM 9.58 49.244 0.24 7.73 1.47 9.12
11/11/2020 1:30:00 AM 9.55 49.19 0.24 7.72 1.47 9.88
11/11/2020 1:45:00 AM 9.53 49.154 0.239 7.72 1.47 10.3
11/11/2020 2:00:00 AM 9.49 49.082 0.24 7.72 1.53 8.46
11/11/2020 2:15:00 AM 9.47 49.046 0.24 7.72 1.46 6.95
11/11/2020 2:30:00 AM 9.44 48.992 0.24 7.72 1.44 9.88
11/11/2020 2:45:00 AM 9.41 48.938 0.24 7.71 1.56 8.28
11/11/2020 3:00:00 AM 9.38 48.884 0.24 7.71 1.48 9.3
11/11/2020 3:15:00 AM 9.35 48.83 0.24 7.71 1.43 9.69
11/11/2020 3:30:00 AM 9.32 48.776 0.24 7.71 1.63 8.86
11/11/2020 3:45:00 AM 9.29 48.722 0.24 7.71 1.42 8.84
11/11/2020 4:00:00 AM 9.26 48.668 0.24 7.71 1.47 9.72
11/11/2020 4:15:00 AM 9.24 48.632 0.24 7.71 1.51 10.58
11/11/2020 4:30:00 AM 9.21 48.578 0.24 7.7 1.49 10.13
11/11/2020 4:45:00 AM 9.18 48.524 0.24 7.71 1.48 10.66
11/11/2020 5:00:00 AM 9.17 48.506 0.24 7.71 1.45 10.55
11/11/2020 5:15:00 AM 9.15 48.47 0.24 7.7 1.55 9.97
11/11/2020 5:30:00 AM 9.14 48.452 0.24 7.7 1.44 8.93
11/11/2020 5:45:00 AM 9.14 48.452 0.24 7.7 1.49 8.15
11/11/2020 6:00:00 AM 9.15 48.47 0.24 7.7 1.43 6.73
11/11/2020 6:15:00 AM 9.18 48.524 0.24 7.7 1.45 6.85
11/11/2020 6:30:00 AM 9.21 48.578 0.24 7.7 1.47 9.25
11/11/2020 6:45:00 AM 9.24 48.632 0.24 7.71 1.47 6.47
11/11/2020 7:00:00 AM 9.24 48.632 0.24 7.71 1.53 9.95
11/11/2020 7:15:00 AM 9.26 48.668 0.24 7.7 1.61 10.59
11/11/2020 7:30:00 AM 9.28 48.704 0.24 7.71 1.62 10.76
11/11/2020 7:45:00 AM 9.31 48.758 0.24 7.72 1.53 9.42
11/11/2020 8:00:00 AM 9.33 48.794 0.239 7.72 1.54 10.29
11/11/2020 8:15:00 AM 9.36 48.848 0.239 7.73 1.6 10.35
11/11/2020 8:30:00 AM 9.4 48.92 0.238 7.74 1.56 7.84
11/11/2020 8:45:00 AM 9.44 48.992 0.236 7.74 1.52 10.65
11/11/2020 9:00:00 AM 9.51 49.118 0.234 7.74 1.73 10.78
11/11/2020 9:15:00 AM 9.58 49.244 0.233 7.75 1.71 10.92
11/11/2020 9:30:00 AM 9.64 49.352 0.232 7.76 1.71 10.57
11/11/2020 9:45:00 AM 9.73 49.514 0.23 7.77 1.69 10.55
11/11/2020 10:00:00 AM 9.83 49.694 0.229 7.79 1.73 9.53
11/11/2020 10:15:00 AM 9.94 49.892 0.227 7.8 1.76 10.93
11/11/2020 10:30:00 AM 10.06 50.108 0.223 7.81 1.77 8.04
11/11/2020 10:45:00 AM 10.2 50.36 0.219 7.81 1.91 10.99
11/11/2020 11:00:00 AM 10.3 50.54 0.216 7.82 2.01 10.99
11/11/2020 11:15:00 AM 10.44 50.792 0.212 7.82 2.14 10.31
11/11/2020 11:30:00 AM 10.54 50.972 0.21 7.82 2.3 10.97
11/11/2020 11:45:00 AM 10.65 51.17 0.206 7.81 2.67 10.9
11/11/2020 12:00:00 PM 10.73 51.314 0.203 7.81 2.93 10.81
11/11/2020 12:15:00 PM 10.8 51.44 0.199 7.8 3.5 7.6
11/11/2020 12:30:00 PM 10.86 51.548 0.197 7.79 4.03 10.96
11/11/2020 12:45:00 PM 10.91 51.638 0.194 7.78 4.65 10.98
11/11/2020 1:00:00 PM 10.96 51.728 0.193 7.77 4.93 11.02
11/11/2020 1:15:00 PM 11.02 51.836 0.195 7.77 5.42 11.05
11/11/2020 1:30:00 PM 11.1 51.98 0.195 7.77 28.99 11.04
11/11/2020 1:45:00 PM 11.15 52.07 0.197 7.76 10.34 11.01
11/11/2020 2:00:00 PM 11.18 52.124 0.198 7.76 6.11 11.03
11/11/2020 2:15:00 PM 11.2 52.16 0.2 7.75 6.32 10.99
11/11/2020 2:30:00 PM 11.22 52.196 0.201 7.75 6.17 10.99
11/11/2020 2:45:00 PM 11.2 52.16 0.202 7.74 5.63 10.97
11/11/2020 3:00:00 PM 11.17 52.106 0.203 7.74 6.18 10.97
11/11/2020 3:15:00 PM 11.12 52.016 0.201 7.74 6.71 10.95
11/11/2020 3:30:00 PM 11.05 51.89 0.201 7.72 16.44 10.92
11/11/2020 3:45:00 PM 10.9 51.62 0.206 7.68 12.47 10.88
11/11/2020 4:00:00 PM 10.78 51.404 0.213 7.68 39.06 10.78
11/11/2020 4:15:00 PM 10.76 51.368 0.217 7.64 48.4 10.75
11/11/2020 4:30:00 PM 10.64 51.152 0.215 7.6 74.01 10.77
11/11/2020 4:45:00 PM 10.65 51.17 0.21 7.55 92.38 10.72
11/11/2020 5:00:00 PM 10.81 51.458 0.201 7.5 124.65 10.66
11/11/2020 5:15:00 PM 10.96 51.728 0.192 7.45 131.32 10.62
11/11/2020 5:30:00 PM 11.06 51.908 0.187 7.43 130.6 10.6
11/11/2020 5:45:00 PM 11.11 51.998 0.124 7.42 118.17 10.6
11/11/2020 6:00:00 PM 11.13 52.034 0.11 7.44 94.02 10.59
11/11/2020 6:15:00 PM 11.13 52.034 0.123 7.4 95.74 10.58
11/11/2020 6:30:00 PM 11.14 52.052 0.124 7.39 102.92 10.59
11/11/2020 6:45:00 PM 11.15 52.07 0.103 7.39 87.75 10.6
11/11/2020 7:00:00 PM 11.15 52.07 0.099 7.39 113.52 10.61
11/11/2020 7:15:00 PM 11.16 52.088 0.117 7.38 115.54 10.6
11/11/2020 7:30:00 PM 11.16 52.088 0.098 7.37 78.91 10.61
11/11/2020 7:45:00 PM 11.17 52.106 0.102 7.36 74.48 10.62
11/11/2020 8:00:00 PM 11.17 52.106 0.099 7.35 75.68 10.61
11/11/2020 8:15:00 PM 11.18 52.124 0.099 7.34 64.84 10.61
11/11/2020 8:30:00 PM 11.17 52.106 0.101 7.34 65.96 10.62
11/11/2020 8:45:00 PM 11.18 52.124 0.104 7.33 64.34 10.62
11/11/2020 9:00:00 PM 11.19 52.142 0.1 7.32 53.41 10.62
11/11/2020 9:15:00 PM 11.2 52.16 0.102 7.33 56.68 10.63
11/11/2020 9:30:00 PM 11.2 52.16 0.1 7.34 57.45 10.63
11/11/2020 9:45:00 PM 11.19 52.142 0.114 7.35 50.45 10.63
11/11/2020 10:00:00 PM 11.19 52.142 0.101 7.35 58.45 10.63
11/11/2020 10:15:00 PM 11.18 52.124 0.097 7.35 48.37 10.64
11/11/2020 10:30:00 PM 11.17 52.106 0.091 7.36 41.61 10.64
11/11/2020 10:45:00 PM 11.16 52.088 0.09 7.37 44.85 10.65
11/11/2020 11:00:00 PM 11.15 52.07 0.09 7.37 45.88 10.65
11/11/2020 11:15:00 PM 11.13 52.034 0.114 7.38 39.31 10.65
11/11/2020 11:30:00 PM 11.11 51.998 0.107 7.39 36.01 10.66
11/11/2020 11:45:00 PM 11.09 51.962 0.109 7.4 34.44 10.66
11/12/2020 12:00:00 AM 11.07 51.926 0.106 7.4 33.71 10.67
11/12/2020 12:15:00 AM 11.05 51.89 0.11 7.41 32.05 10.67
11/12/2020 12:30:00 AM 11.03 51.854 0.116 7.41 29.2 10.68
11/12/2020 12:45:00 AM 11.01 51.818 0.105 7.42 28.25 10.69
11/12/2020 1:00:00 AM 10.99 51.782 0.113 7.43 27.23 10.69
11/12/2020 1:15:00 AM 10.96 51.728 0.104 7.44 26 10.7
11/12/2020 1:30:00 AM 10.93 51.674 0.104 7.44 25.46 10.7
11/12/2020 1:45:00 AM 10.89 51.602 0.112 7.44 22.3 10.72
11/12/2020 2:00:00 AM 10.86 51.548 0.114 7.45 24.22 10.73
11/12/2020 2:15:00 AM 10.83 51.494 0.124 7.45 23.36 10.74
11/12/2020 2:30:00 AM 10.8 51.44 0.112 7.46 22.24 10.74
11/12/2020 2:45:00 AM 10.77 51.386 0.117 7.46 21.45 10.75
11/12/2020 3:00:00 AM 10.73 51.314 0.119 7.47 21.31 10.75
11/12/2020 3:15:00 AM 10.7 51.26 0.106 7.47 21.2 10.77
11/12/2020 3:30:00 AM 10.66 51.188 0.116 7.47 20.36 10.78
11/12/2020 3:45:00 AM 10.62 51.116 0.121 7.47 19.75 10.79
11/12/2020 4:00:00 AM 10.57 51.026 0.126 7.48 19.27 10.8
11/12/2020 4:15:00 AM 10.53 50.954 0.117 7.47 19.11 10.8
11/12/2020 4:30:00 AM 10.5 50.9 0.105 7.48 18.25 10.81
11/12/2020 4:45:00 AM 10.46 50.828 0.116 7.48 18.07 10.82
11/12/2020 5:00:00 AM 10.43 50.774 0.12 7.48 18.41 10.83
11/12/2020 5:15:00 AM 10.39 50.702 0.123 7.49 17.85 10.84
11/12/2020 5:30:00 AM 10.36 50.648 0.118 7.48 17.49 10.85
11/12/2020 5:45:00 AM 10.33 50.594 0.108 7.53 18.19 10.86
11/12/2020 6:00:00 AM 10.29 50.522 0.109 7.49 17.28 10.88
11/12/2020 6:15:00 AM 10.26 50.468 0.122 7.53 15.62 10.88
11/12/2020 6:30:00 AM 10.23 50.414 0.128 7.49 18.42 10.89
11/12/2020 6:45:00 AM 10.19 50.342 0.129 7.49 16.16 10.91
11/12/2020 7:00:00 AM 10.16 50.288 0.129 7.49 16.36 10.92
11/12/2020 7:15:00 AM 10.12 50.216 0.119 7.49 15.61 10.92
11/12/2020 7:30:00 AM 10.09 50.162 0.129 7.49 15.34 10.94
11/12/2020 7:45:00 AM 10.06 50.108 0.12 7.5 15.24 10.96
11/12/2020 8:00:00 AM 10.04 50.072 0.121 7.5 14.94 10.99
11/12/2020 8:15:00 AM 10.01 50.018 0.114 7.5 14.49 11.01
11/12/2020 8:30:00 AM 9.98 49.964 0.129 7.51 27.49 11.03
11/12/2020 8:45:00 AM 9.96 49.928 0.101 7.51 14.64 11.04
11/12/2020 9:00:00 AM 9.93 49.874 0.128 7.51 14.28 11.07
11/12/2020 9:15:00 AM 9.9 49.82 0.122 7.52 13.71 11.1
11/12/2020 9:30:00 AM 9.86 49.748 0.107 7.53 14.08 11.12
11/12/2020 9:45:00 AM 9.85 49.73 0.107 7.53 13.72 11.14
11/12/2020 10:00:00 AM 9.83 49.694 0.11 7.54 13.77 11.16
11/12/2020 10:15:00 AM 9.82 49.676 0.131 7.54 13.34 11.19
11/12/2020 10:30:00 AM 9.8 49.64 0.122 7.55 13.68 11.22
11/12/2020 10:45:00 AM 9.78 49.604 0.1 7.55 13.21 11.24
11/12/2020 11:00:00 AM 9.78 49.604 0.131 7.56 12.98 11.26
11/12/2020 11:15:00 AM 9.76 49.568 0.121 7.57 12.77 11.27
11/12/2020 11:30:00 AM 9.75 49.55 0.129 7.57 14.55 11.28
11/12/2020 11:45:00 AM 9.75 49.55 0.133 7.57 12.5 11.29
11/12/2020 12:00:00 PM 9.74 49.532 0.131 7.57 12.26 11.31
11/12/2020 12:15:00 PM 9.74 49.532 0.13 7.58 12.11 11.34
11/12/2020 12:30:00 PM 9.75 49.55 0.12 7.59 12.05 11.37
11/12/2020 12:45:00 PM 9.77 49.586 0.135 7.6 12.12 11.4
11/12/2020 1:00:00 PM 9.79 49.622 0.131 7.61 11.87 11.42
11/12/2020 1:15:00 PM 9.81 49.658 0.128 7.62 11.83 11.44
11/12/2020 1:30:00 PM 9.81 49.658 0.133 7.62 11.97 11.44
11/12/2020 1:45:00 PM 9.82 49.676 0.135 7.63 11.73 11.44
11/12/2020 2:00:00 PM 9.82 49.676 0.134 7.63 11.35 11.45
11/12/2020 2:15:00 PM 9.81 49.658 0.133 7.64 11.31 11.46
11/12/2020 2:30:00 PM 9.81 49.658 0.118 7.64 11.4 11.46
11/12/2020 2:45:00 PM 9.8 49.64 0.123 7.64 11.31 11.46
11/12/2020 3:00:00 PM 9.79 49.622 0.134 7.64 10.71 11.46
11/12/2020 3:15:00 PM 9.76 49.568 0.13 7.65 11.26 11.47
11/12/2020 3:30:00 PM 9.72 49.496 0.122 7.64 10.75 11.46
11/12/2020 3:45:00 PM 9.67 49.406 0.121 7.64 10.74 11.44
11/12/2020 4:00:00 PM 9.63 49.334 0.135 7.64 10.68 11.41
11/12/2020 4:15:00 PM 9.59 49.262 0.136 7.63 10.52 11.39
11/12/2020 4:30:00 PM 9.54 49.172 0.134 7.62 10.31 11.36
11/12/2020 4:45:00 PM 9.48 49.064 0.135 7.61 10.4 11.32
11/12/2020 5:00:00 PM 9.42 48.956 0.137 7.6 10.47 11.29
11/12/2020 5:15:00 PM 9.35 48.83 0.135 7.59 10.03 11.27
11/12/2020 5:30:00 PM 9.27 48.686 0.137 7.58 10.19 11.25
11/12/2020 5:45:00 PM 9.2 48.56 0.137 7.58 9.76 11.24
11/12/2020 6:00:00 PM 9.13 48.434 0.137 7.57 9.87 11.24
11/12/2020 6:15:00 PM 9.05 48.29 0.137 7.56 9.85 11.25
11/12/2020 6:30:00 PM 8.99 48.182 0.137 7.56 9.59 11.25
11/12/2020 6:45:00 PM 8.93 48.074 0.138 7.56 9.71 11.26
11/12/2020 7:00:00 PM 8.86 47.948 0.138 7.56 9.51 11.28
11/12/2020 7:15:00 PM 8.8 47.84 0.138 7.56 9.66 11.29
11/12/2020 7:30:00 PM 8.73 47.714 0.138 7.56 9.61 11.3
11/12/2020 7:45:00 PM 8.66 47.588 0.139 7.56 9.22 11.32
11/12/2020 8:00:00 PM 8.6 47.48 0.139 7.56 9.2 11.33
11/12/2020 8:15:00 PM 8.53 47.354 0.139 7.56 9.22 11.35
11/12/2020 8:30:00 PM 8.46 47.228 0.126 7.56 9.18 11.36
11/12/2020 8:45:00 PM 8.39 47.102 0.127 7.56 9.14 11.38
11/12/2020 9:00:00 PM 8.32 46.976 0.128 7.56 9.08 11.39
11/12/2020 9:15:00 PM 8.25 46.85 0.139 7.56 8.91 11.41
11/12/2020 9:30:00 PM 8.18 46.724 0.139 7.56 8.81 11.43
11/12/2020 9:45:00 PM 8.12 46.616 0.139 7.56 9.02 11.44
11/12/2020 10:00:00 PM 8.05 46.49 0.14 7.56 8.6 11.45
11/12/2020 10:15:00 PM 7.99 46.382 0.14 7.56 8.82 11.48
11/12/2020 10:30:00 PM 7.91 46.238 0.14 7.56 8.58 11.49
11/12/2020 10:45:00 PM 7.85 46.13 0.14 7.56 8.53 11.51
11/12/2020 11:00:00 PM 7.79 46.022 0.141 7.56 8.44 11.52
11/12/2020 11:15:00 PM 7.73 45.914 0.141 7.56 8.43 11.54
11/12/2020 11:30:00 PM 7.67 45.806 0.141 7.56 8.32 11.56
11/12/2020 11:45:00 PM 7.6 45.68 0.141 7.56 8.67 11.57
11/13/2020 12:00:00 AM 7.53 45.554 0.141 7.56 8.47 11.6
11/13/2020 12:15:00 AM 7.47 45.446 0.141 7.56 8.06 11.61
11/13/2020 12:30:00 AM 7.4 45.32 0.141 7.56 8.12 11.63
11/13/2020 12:45:00 AM 7.35 45.23 0.141 7.56 8.25 11.65
11/13/2020 1:00:00 AM 7.28 45.104 0.141 7.56 8.04 11.66
11/13/2020 1:15:00 AM 7.22 44.996 0.142 7.56 7.96 11.68
11/13/2020 1:30:00 AM 7.17 44.906 0.141 7.57 7.96 11.7
11/13/2020 1:45:00 AM 7.12 44.816 0.142 7.57 7.96 11.71
11/13/2020 2:00:00 AM 7.08 44.744 0.142 7.57 7.91 11.73
11/13/2020 2:15:00 AM 7.03 44.654 0.142 7.57 7.68 11.75
11/13/2020 2:30:00 AM 6.99 44.582 0.142 7.57 7.6 11.76
11/13/2020 2:45:00 AM 6.95 44.51 0.143 7.57 7.82 11.78
11/13/2020 3:00:00 AM 6.93 44.474 0.142 7.57 7.73 11.79
11/13/2020 3:15:00 AM 6.91 44.438 0.142 7.57 7.63 11.8
11/13/2020 3:30:00 AM 6.91 44.438 0.143 7.57 7.47 11.81
11/13/2020 3:45:00 AM 6.91 44.438 0.142 7.57 7.59 11.81
11/13/2020 4:00:00 AM 6.9 44.42 0.143 7.58 7.43 11.82
11/13/2020 4:15:00 AM 6.89 44.402 0.143 7.58 7.45 11.82
11/13/2020 4:30:00 AM 6.88 44.384 0.143 7.58 7.37 11.82
11/13/2020 4:45:00 AM 6.86 44.348 0.144 7.58 7.34 11.83
11/13/2020 5:00:00 AM 6.84 44.312 0.144 7.58 7.13 11.84
11/13/2020 5:15:00 AM 6.81 44.258 0.144 7.58 7.35 11.85
11/13/2020 5:30:00 AM 6.78 44.204 0.144 7.58 7.29 11.86
11/13/2020 5:45:00 AM 6.74 44.132 0.144 7.59 7.01 11.87
11/13/2020 6:00:00 AM 6.71 44.078 0.144 7.59 7.14 11.88
11/13/2020 6:15:00 AM 6.68 44.024 0.144 7.59 7.12 11.89
11/13/2020 6:30:00 AM 6.64 43.952 0.144 7.59 7.2 11.9
11/13/2020 6:45:00 AM 6.62 43.916 0.145 7.59 7.17 11.91
11/13/2020 7:00:00 AM 6.59 43.862 0.145 7.59 7.12 11.92
11/13/2020 7:15:00 AM 6.56 43.808 0.145 7.59 6.88 11.94
11/13/2020 7:30:00 AM 6.53 43.754 0.145 7.6 7.03 11.96
11/13/2020 7:45:00 AM 6.51 43.718 0.145 7.61 6.75 12
11/13/2020 8:00:00 AM 6.52 43.736 0.145 7.61 6.71 12.07
11/13/2020 8:15:00 AM 6.54 43.772 0.145 7.63 6.98 12.14
11/13/2020 8:30:00 AM 6.56 43.808 0.145 7.64 6.7 12.2
11/13/2020 8:45:00 AM 6.58 43.844 0.145 7.65 6.67 12.25
11/13/2020 9:00:00 AM 6.64 43.952 0.145 7.66 6.62 12.3
11/13/2020 9:15:00 AM 6.7 44.06 0.146 7.68 6.66 12.34
11/13/2020 9:30:00 AM 6.8 44.24 0.146 7.69 6.57